Provisional Data: Chiques Creek near Route 283


Please select a monitoring station.
Please select start date.
Please select start date.

Toggle Unit: C/F Toggle Unit: C/F
Sample Time Temperature (C) Temperature (F) Specific Conductivity (mS/cm) pH   Turbidity (NTU+) DO (mg/L)
12/4/2020 12:00:00 AM 5.95 42.71 0.479 9.03 16.02 12.54
12/4/2020 12:15:00 AM 5.98 42.764 0.48 9.04 16.3 12.5
12/4/2020 12:30:00 AM 6 42.8 0.481 9.04 16.33 12.49
12/4/2020 12:45:00 AM 6.02 42.836 0.482 9.04 15.98 12.48
12/4/2020 1:00:00 AM 6.03 42.854 0.483 9.04 16.64 12.46
12/4/2020 1:15:00 AM 6.04 42.872 0.484 9.04 16.54 12.42
12/4/2020 1:30:00 AM 6.06 42.908 0.484 9.04 17.06 12.41
12/4/2020 1:45:00 AM 6.06 42.908 0.485 9.04 16.69 12.38
12/4/2020 2:00:00 AM 6.07 42.926 0.486 9.03 17.01 12.35
12/4/2020 2:15:00 AM 6.08 42.944 0.486 9.03 17.06 12.31
12/4/2020 2:30:00 AM 6.08 42.944 0.487 9.03 17.24 12.29
12/4/2020 2:45:00 AM 6.08 42.944 0.487 9.02 16.77 12.27
12/4/2020 3:00:00 AM 6.08 42.944 0.487 9.02 17.32 12.23
12/4/2020 3:15:00 AM 6.08 42.944 0.488 9.01 17.23 12.22
12/4/2020 3:30:00 AM 6.08 42.944 0.488 9.02 17.72 12.19
12/4/2020 3:45:00 AM 6.08 42.944 0.488 9.01 17.67 12.15
12/4/2020 4:00:00 AM 6.07 42.926 0.488 9 17.71 12.12
12/4/2020 4:15:00 AM 6.07 42.926 0.488 9 17.72 12.11
12/4/2020 4:30:00 AM 6.07 42.926 0.488 8.99 17.7 12.08
12/4/2020 4:45:00 AM 6.07 42.926 0.489 8.99 17.98 12.06
12/4/2020 5:00:00 AM 6.08 42.944 0.489 8.98 17.83 12.04
12/4/2020 5:15:00 AM 6.08 42.944 0.489 8.98 18.61 12.02
12/4/2020 5:30:00 AM 6.08 42.944 0.489 8.98 17.68 11.99
12/4/2020 5:45:00 AM 6.09 42.962 0.489 8.98 17.86 11.98
12/4/2020 6:00:00 AM 6.09 42.962 0.489 8.97 17.6 11.97
12/4/2020 6:15:00 AM 6.1 42.98 0.489 8.97 17.74 11.94
12/4/2020 6:30:00 AM 6.1 42.98 0.49 8.97 18.15 11.92
12/4/2020 6:45:00 AM 6.11 42.998 0.49 8.96 18.6 11.91
12/4/2020 7:00:00 AM 6.12 43.016 0.49 8.96 18.83 11.89
12/4/2020 7:15:00 AM 6.12 43.016 0.49 8.96 18.39 11.88
12/4/2020 7:30:00 AM 6.13 43.034 0.489 8.95 18.67 11.88
12/4/2020 7:45:00 AM 6.13 43.034 0.489 8.96 19.26 11.87
12/4/2020 8:00:00 AM 6.15 43.07 0.489 8.96 19.27 11.91
12/4/2020 8:15:00 AM 6.16 43.088 0.489 8.96 18.84 11.89
12/4/2020 8:30:00 AM 6.17 43.106 0.489 8.96 19.31 11.89
12/4/2020 8:45:00 AM 6.19 43.142 0.488 8.96 19.35 11.88
12/4/2020 9:00:00 AM 6.2 43.16 0.488 8.96 19.66 11.91
12/4/2020 9:15:00 AM 6.21 43.178 0.488 8.96 19.82 11.89
12/4/2020 9:30:00 AM 6.22 43.196 0.487 8.96 18.87 11.89
12/4/2020 9:45:00 AM 6.24 43.232 0.487 8.96 19.87 11.94
12/4/2020 10:00:00 AM 6.25 43.25 0.487 8.97 19.47 11.91
12/4/2020 10:15:00 AM 6.26 43.268 0.487 8.97 20.14 11.88
12/4/2020 10:30:00 AM 6.29 43.322 0.486 8.97 19.58 11.96
12/4/2020 10:45:00 AM 6.28 43.304 0.486 8.97 20.71 11.81
12/4/2020 11:00:00 AM 6.29 43.322 0.486 8.96 20.18 11.81
12/4/2020 11:15:00 AM 6.29 43.322 0.486 8.97 20.57 11.83
12/4/2020 11:30:00 AM 6.31 43.358 0.486 8.97 20.33 11.86
12/4/2020 11:45:00 AM 6.32 43.376 0.486 8.97 21.46 11.86
12/4/2020 12:00:00 PM 6.33 43.394 0.486 8.97 21.37 11.86
12/4/2020 12:15:00 PM 6.34 43.412 0.486 8.97 21.26 11.84
12/4/2020 12:30:00 PM 6.35 43.43 0.486 8.98 21.68 11.85
12/4/2020 12:45:00 PM 6.36 43.448 0.486 8.97 21.29 11.83
12/4/2020 1:00:00 PM 6.37 43.466 0.486 8.97 21.14 11.82
12/4/2020 1:15:00 PM 6.37 43.466 0.486 8.97 21.17 11.82
12/4/2020 1:30:00 PM 6.38 43.484 0.486 8.98 21.83 11.81
12/4/2020 1:45:00 PM 6.39 43.502 0.487 8.98 22.53 11.82
12/4/2020 2:00:00 PM 6.39 43.502 0.487 8.98 22.15 11.81
12/4/2020 2:15:00 PM 6.4 43.52 0.486 8.98 22.44 11.8
12/4/2020 2:30:00 PM 6.4 43.52 0.486 8.98 21.95 11.79
12/4/2020 2:45:00 PM 6.41 43.538 0.484 8.98 21.08 11.79
12/4/2020 3:00:00 PM 6.42 43.556 0.486 8.98 21.7 11.79
12/4/2020 3:15:00 PM 6.43 43.574 0.485 8.99 22.42 11.81
12/4/2020 3:30:00 PM 6.44 43.592 0.487 8.99 23.46 11.81
12/4/2020 3:45:00 PM 6.44 43.592 0.486 8.99 23 11.78
12/4/2020 4:00:00 PM 6.45 43.61 0.487 8.98 22.19 11.76
12/4/2020 4:15:00 PM 6.45 43.61 0.485 8.99 23.34 11.75
12/4/2020 4:30:00 PM 6.46 43.628 0.485 8.98 24.04 11.74
12/4/2020 4:45:00 PM 6.46 43.628 0.485 8.99 24.77 11.72
12/4/2020 5:00:00 PM 6.47 43.646 0.487 8.99 23.56 11.73
12/4/2020 5:15:00 PM 6.48 43.664 0.487 8.99 20.17 11.73
12/4/2020 5:30:00 PM 6.49 43.682 0.487 8.99 21.26 11.74
12/4/2020 5:45:00 PM 6.51 43.718 0.487 8.99 20.59 11.75
12/4/2020 6:00:00 PM 6.52 43.736 0.487 8.99 20.87 11.74
12/4/2020 6:15:00 PM 6.53 43.754 0.487 8.99 21.19 11.76
12/4/2020 6:30:00 PM 6.55 43.79 0.488 9 21.41 11.76
12/4/2020 6:45:00 PM 6.57 43.826 0.488 9 21.07 11.76
12/4/2020 7:00:00 PM 6.58 43.844 0.488 9 20.71 11.77
12/4/2020 7:15:00 PM 6.6 43.88 0.489 9.01 21.78 11.77
12/4/2020 7:30:00 PM 6.61 43.898 0.489 9 21.27 11.77
12/4/2020 7:45:00 PM 6.63 43.934 0.489 9.01 21.67 11.78
12/4/2020 8:00:00 PM 6.65 43.97 0.489 9.02 21.5 11.79
12/4/2020 8:15:00 PM 6.67 44.006 0.489 9.02 21.31 11.8
12/4/2020 8:30:00 PM 6.69 44.042 0.489 9.03 21.89 11.8
12/4/2020 8:45:00 PM 6.72 44.096 0.49 9.03 22.48 11.8
12/4/2020 9:00:00 PM 6.74 44.132 0.489 9.04 21.89 11.82
12/4/2020 9:15:00 PM 6.76 44.168 0.489 9.04 22.74 11.81
12/4/2020 9:30:00 PM 6.78 44.204 0.489 9.05 21.69 11.81
12/4/2020 9:45:00 PM 6.8 44.24 0.489 9.05 22.06 11.81
12/4/2020 10:00:00 PM 6.82 44.276 0.489 9.05 22.52 11.81
12/4/2020 10:15:00 PM 6.83 44.294 0.489 9.06 22.15 11.81
12/4/2020 10:30:00 PM 6.86 44.348 0.488 9.06 22.26 11.79
12/4/2020 10:45:00 PM 6.87 44.366 0.488 9.06 21.9 11.81
12/4/2020 11:00:00 PM 6.89 44.402 0.488 9.06 22.81 11.79
12/4/2020 11:15:00 PM 6.91 44.438 0.489 9.06 19.36 11.78
12/4/2020 11:30:00 PM 6.93 44.474 0.489 9.06 21.53 11.75
12/4/2020 11:45:00 PM 6.95 44.51 0.49 9.07 22.66 11.73
12/5/2020 12:00:00 AM 6.96 44.528 0.49 9.07 21.9 11.72
12/5/2020 12:15:00 AM 6.98 44.564 0.491 9.07 21.33 11.71
12/5/2020 12:30:00 AM 7 44.6 0.491 9.07 21.64 11.7
12/5/2020 12:45:00 AM 7.01 44.618 0.492 9.06 22.39 11.68
12/5/2020 1:00:00 AM 7.03 44.654 0.493 9.06 33 11.66
12/5/2020 1:15:00 AM 7.04 44.672 0.494 9.06 32.72 11.64
12/5/2020 1:30:00 AM 7.06 44.708 0.495 9.06 35.49 11.61
12/5/2020 1:45:00 AM 7.08 44.744 0.496 9.06 30.78 11.59
12/5/2020 2:00:00 AM 7.09 44.762 0.497 9.05 34.78 11.58
12/5/2020 2:15:00 AM 7.11 44.798 0.499 9.05 34.56 11.54
12/5/2020 2:30:00 AM 7.13 44.834 0.499 9.05 35.81 11.53
12/5/2020 2:45:00 AM 7.15 44.87 0.5 9.05 36.76 11.51
12/5/2020 3:00:00 AM 7.17 44.906 0.501 9.04 26.06 11.49
12/5/2020 3:15:00 AM 7.19 44.942 0.5 9.05 27.52 11.48
12/5/2020 3:30:00 AM 7.2 44.96 0.499 9.05 25.89 11.46
12/5/2020 3:45:00 AM 7.22 44.996 0.498 9.05 28.44 11.44
12/5/2020 4:00:00 AM 7.23 45.014 0.496 9.04 26.19 11.43
12/5/2020 4:15:00 AM 7.24 45.032 0.493 9.04 23.33 11.43
12/5/2020 4:30:00 AM 7.25 45.05 0.465 9.04 24.78 11.43
12/5/2020 4:45:00 AM 7.25 45.05 0.489 9.03 24.74 11.43
12/5/2020 5:00:00 AM 7.25 45.05 0.486 9.03 23.56 11.42
12/5/2020 5:15:00 AM 7.24 45.032 0.484 9.03 22.97 11.43
12/5/2020 5:30:00 AM 7.23 45.014 0.482 9.03 23.14 11.42
12/5/2020 5:45:00 AM 7.23 45.014 0.48 9.03 19.68 11.44
12/5/2020 6:00:00 AM 7.21 44.978 0.478 9.03 21.12 11.44
12/5/2020 6:15:00 AM 7.19 44.942 0.476 9.02 21.35 11.45
12/5/2020 6:30:00 AM 7.17 44.906 0.474 9.02 17.38 11.46
12/5/2020 6:45:00 AM 7.15 44.87 0.473 9.02 22.35 11.47
12/5/2020 7:00:00 AM 7.12 44.816 0.472 9.02 22.48 11.48
12/5/2020 7:15:00 AM 7.1 44.78 0.471 9.02 23.28 11.5
12/5/2020 7:30:00 AM 7.08 44.744 0.47 9.02 21.01 11.52
12/5/2020 7:45:00 AM 7.06 44.708 0.469 9.01 24.15 11.53
12/5/2020 8:00:00 AM 7.04 44.672 0.469 9.01 20.3 11.55
12/5/2020 8:15:00 AM 7.03 44.654 0.469 9.01 23.85 11.57
12/5/2020 8:30:00 AM 7.03 44.654 0.469 9.01 22.73 11.6
12/5/2020 8:45:00 AM 7.04 44.672 0.469 9.01 21.58 11.62
12/5/2020 9:00:00 AM 7.04 44.672 0.469 9.02 21.75 11.63
12/5/2020 9:15:00 AM 7.05 44.69 0.469 9.02 23.25 11.64
12/5/2020 9:30:00 AM 7.07 44.726 0.447 9.02 15.23 11.67
12/5/2020 9:45:00 AM 7.08 44.744 0.439 9.03 15.12 11.68
12/5/2020 10:00:00 AM 7.09 44.762 0.441 9.03 16.34 11.68
12/5/2020 10:15:00 AM 7.08 44.744 0.433 9.03 22.62 11.65
12/5/2020 10:30:00 AM 7.08 44.744 0.423 9.03 16.13 11.66
12/5/2020 10:45:00 AM 7.1 44.78 0.459 9.03 14.7 11.72
12/5/2020 11:00:00 AM 7.1 44.78 0.456 9.04 14.17 11.71
12/5/2020 11:15:00 AM 7.11 44.798 0.454 9.03 13.37 11.72
12/5/2020 11:30:00 AM 7.12 44.816 0.451 9.03 13.45 11.71
12/5/2020 11:45:00 AM 7.13 44.834 0.448 9.03 13.43 11.72
12/5/2020 12:00:00 PM 7.16 44.888 0.444 9.04 13.76 11.73
12/5/2020 12:15:00 PM 7.17 44.906 0.439 9.04 13.75 11.76
12/5/2020 12:30:00 PM 7.19 44.942 0.433 9.04 13.81 11.76
12/5/2020 12:45:00 PM 7.19 44.942 0.428 9.05 13.84 11.75
12/5/2020 1:00:00 PM 7.21 44.978 0.422 9.05 13.82 11.76
12/5/2020 1:15:00 PM 7.22 44.996 0.416 9.05 14.16 11.76
12/5/2020 1:30:00 PM 7.22 44.996 0.41 9.04 14.09 11.77
12/5/2020 1:45:00 PM 7.22 44.996 0.404 9.05 14.6 11.79
12/5/2020 2:00:00 PM 7.24 45.032 0.399 9.05 14.53 11.84
12/5/2020 2:15:00 PM 7.26 45.068 0.395 9.06 14.35 11.86
12/5/2020 2:30:00 PM 7.26 45.068 0.392 9.06 14.49 11.85
12/5/2020 2:45:00 PM 7.26 45.068 0.39 9.07 14.28 11.86
12/5/2020 3:00:00 PM 7.27 45.086 0.388 9.07 14.1 11.87
12/5/2020 3:15:00 PM 7.28 45.104 0.387 9.08 14.23 11.89
12/5/2020 3:30:00 PM 7.28 45.104 0.385 9.08 14.12 11.88
12/5/2020 3:45:00 PM 7.27 45.086 0.384 9.07 14.34 11.88
12/5/2020 4:00:00 PM 7.26 45.068 0.383 9.07 14.2 11.89
12/5/2020 4:15:00 PM 7.24 45.032 0.382 9.08 14.51 11.88
12/5/2020 4:30:00 PM 7.22 44.996 0.38 9.08 14.38 11.88
12/5/2020 4:45:00 PM 7.2 44.96 0.379 9.07 14.11 11.88
12/5/2020 5:00:00 PM 7.18 44.924 0.377 9.07 14.16 11.88
12/5/2020 5:15:00 PM 7.16 44.888 0.375 9.07 14.3 11.88
12/5/2020 5:30:00 PM 7.14 44.852 0.373 9.06 14.25 11.88
12/5/2020 5:45:00 PM 7.12 44.816 0.372 9.06 14.26 11.88
12/5/2020 6:00:00 PM 7.11 44.798 0.371 9.06 14.07 11.88
12/5/2020 6:15:00 PM 7.09 44.762 0.37 9.06 13.82 11.89
12/5/2020 6:30:00 PM 7.07 44.726 0.369 9.06 13.7 11.89
12/5/2020 6:45:00 PM 7.05 44.69 0.369 9.06 13.35 11.88
12/5/2020 7:00:00 PM 7.03 44.654 0.368 9.06 13.21 11.88
12/5/2020 7:15:00 PM 7.02 44.636 0.368 9.06 13.74 11.88
12/5/2020 7:30:00 PM 7 44.6 0.368 9.05 13.52 11.87
12/5/2020 7:45:00 PM 6.98 44.564 0.367 9.05 13.53 11.86
12/5/2020 8:00:00 PM 6.96 44.528 0.367 9.04 13.79 11.85
12/5/2020 8:15:00 PM 6.93 44.474 0.366 9.03 14.02 11.83
12/5/2020 8:30:00 PM 6.91 44.438 0.366 9.03 13.89 11.82
12/5/2020 8:45:00 PM 6.9 44.42 0.366 9.02 14.08 11.81
12/5/2020 9:00:00 PM 6.88 44.384 0.366 9.02 14.25 11.8
12/5/2020 9:15:00 PM 6.86 44.348 0.366 9.01 14.26 11.79
12/5/2020 9:30:00 PM 6.84 44.312 0.366 9.01 14.59 11.78
12/5/2020 9:45:00 PM 6.81 44.258 0.366 9.01 14.61 11.77
12/5/2020 10:00:00 PM 6.8 44.24 0.366 9 14.73 11.77
12/5/2020 10:15:00 PM 6.78 44.204 0.366 9 14.9 11.77
12/5/2020 10:30:00 PM 6.76 44.168 0.366 9 14.95 11.76
12/5/2020 10:45:00 PM 6.74 44.132 0.367 8.99 14.65 11.76
12/5/2020 11:00:00 PM 6.72 44.096 0.366 8.99 14.76 11.75
12/5/2020 11:15:00 PM 6.69 44.042 0.367 8.98 14.95 11.74
12/5/2020 11:30:00 PM 6.68 44.024 0.367 8.98 14.26 11.74
12/5/2020 11:45:00 PM 6.65 43.97 0.368 8.97 13.9 11.73
12/6/2020 12:00:00 AM 6.63 43.934 0.369 8.97 14.17 11.72
12/6/2020 12:15:00 AM 6.62 43.916 0.37 8.97 15.05 11.72
12/6/2020 12:30:00 AM 6.6 43.88 0.371 8.97 13.96 11.72
12/6/2020 12:45:00 AM 6.57 43.826 0.372 8.97 14.34 11.72
12/6/2020 1:00:00 AM 6.55 43.79 0.373 8.97 14.22 11.71
12/6/2020 1:15:00 AM 6.54 43.772 0.374 8.96 14.04 11.71
12/6/2020 1:30:00 AM 6.52 43.736 0.375 8.96 14.49 11.7
12/6/2020 1:45:00 AM 6.51 43.718 0.376 8.95 14.69 11.7
12/6/2020 2:00:00 AM 6.49 43.682 0.377 8.95 13.44 11.71
12/6/2020 2:15:00 AM 6.47 43.646 0.377 8.95 14.07 11.7
12/6/2020 2:30:00 AM 6.45 43.61 0.378 8.96 14.12 11.69
12/6/2020 2:45:00 AM 6.42 43.556 0.379 8.95 14.04 11.7
12/6/2020 3:00:00 AM 6.4 43.52 0.379 8.95 15.07 11.7
12/6/2020 3:15:00 AM 6.37 43.466 0.379 8.95 13.87 11.7
12/6/2020 3:30:00 AM 6.35 43.43 0.38 8.94 14.86 11.7
12/6/2020 3:45:00 AM 6.33 43.394 0.38 8.94 14.47 11.71
12/6/2020 4:00:00 AM 6.3 43.34 0.38 8.94 14.63 11.72
12/6/2020 4:15:00 AM 6.28 43.304 0.381 8.94 15.64 11.72
12/6/2020 4:30:00 AM 6.26 43.268 0.381 8.94 14.99 11.73
12/6/2020 4:45:00 AM 6.23 43.214 0.382 8.94 18.5 11.73
12/6/2020 5:00:00 AM 6.21 43.178 0.382 8.93 15.48 11.73
12/6/2020 5:15:00 AM 6.19 43.142 0.383 8.93 14.07 11.74
12/6/2020 5:30:00 AM 6.17 43.106 0.384 8.93 16.13 11.74
12/6/2020 5:45:00 AM 6.14 43.052 0.385 8.92 15.98 11.74
12/6/2020 6:00:00 AM 6.12 43.016 0.386 8.92 16.2 11.75
12/6/2020 6:15:00 AM 6.1 42.98 0.387 8.92 15.54 11.76
12/6/2020 6:30:00 AM 6.08 42.944 0.388 8.92 15.62 11.76
12/6/2020 6:45:00 AM 6.05 42.89 0.389 8.91 16.72 11.77
12/6/2020 7:00:00 AM 6.03 42.854 0.39 8.91 16 11.78
12/6/2020 7:15:00 AM 6 42.8 0.391 8.91 15.62 11.79
12/6/2020 7:30:00 AM 5.98 42.764 0.392 8.91 16.61 11.79
12/6/2020 7:45:00 AM 5.96 42.728 0.393 8.91 16.2 11.79
12/6/2020 8:00:00 AM 5.93 42.674 0.394 8.91 15.59 11.82
12/6/2020 8:15:00 AM 5.91 42.638 0.395 8.9 16.46 11.84
12/6/2020 8:30:00 AM 5.89 42.602 0.396 8.91 16.17 11.85
12/6/2020 8:45:00 AM 5.87 42.566 0.398 8.91 16.71 11.88
12/6/2020 9:00:00 AM 5.85 42.53 0.399 8.91 16.34 11.89
12/6/2020 9:15:00 AM 5.83 42.494 0.4 8.92 15.76 11.9
12/6/2020 9:30:00 AM 5.81 42.458 0.402 8.92 15.47 11.93
12/6/2020 9:45:00 AM 5.82 42.476 0.403 8.92 15.29 11.96
12/6/2020 10:00:00 AM 5.8 42.44 0.404 8.93 15.67 11.97
12/6/2020 10:15:00 AM 5.81 42.458 0.405 8.93 15.31 11.99
12/6/2020 10:30:00 AM 5.83 42.494 0.407 8.94 15.59 12.02
12/6/2020 10:45:00 AM 5.85 42.53 0.408 8.94 15.78 12.03
12/6/2020 11:00:00 AM 5.85 42.53 0.409 8.94 15.68 12.04
12/6/2020 11:15:00 AM 5.85 42.53 0.41 8.95 15.87 12.05
12/6/2020 11:30:00 AM 5.86 42.548 0.41 8.95 16.11 12.06
12/6/2020 11:45:00 AM 5.86 42.548 0.412 8.95 15.81 12.06
12/6/2020 12:00:00 PM 5.86 42.548 0.412 8.95 15.78 12.07
12/6/2020 12:15:00 PM 5.88 42.584 0.413 8.96 15.95 12.08
12/6/2020 12:30:00 PM 5.88 42.584 0.414 8.96 15.71 12.08
12/6/2020 12:45:00 PM 5.9 42.62 0.415 8.97 15.94 12.1
12/6/2020 1:00:00 PM 5.91 42.638 0.416 8.97 16.14 12.11
12/6/2020 1:15:00 PM 5.92 42.656 0.417 8.98 16.02 12.08
12/6/2020 1:30:00 PM 5.92 42.656 0.418 8.98 16.03 12.09
12/6/2020 1:45:00 PM 5.92 42.656 0.419 8.97 16.13 12.07
12/6/2020 2:00:00 PM 5.94 42.692 0.42 8.98 16.35 12.09
12/6/2020 2:15:00 PM 5.96 42.728 0.42 8.99 16.01 12.12
12/6/2020 2:30:00 PM 5.99 42.782 0.421 9 16.3 12.14
12/6/2020 2:45:00 PM 6 42.8 0.421 9 16.05 12.12
12/6/2020 3:00:00 PM 6.01 42.818 0.422 9 15.85 12.14
12/6/2020 3:15:00 PM 6.02 42.836 0.422 9.01 16.71 12.15
12/6/2020 3:30:00 PM 6.02 42.836 0.423 9.02 16.81 12.17
12/6/2020 3:45:00 PM 6.01 42.818 0.423 9.02 17.16 12.19
12/6/2020 4:00:00 PM 5.99 42.782 0.423 9.03 16.81 12.19
12/6/2020 4:15:00 PM 5.97 42.746 0.424 9.03 16.56 12.21
12/6/2020 4:30:00 PM 5.96 42.728 0.424 9.03 17.28 12.22
12/6/2020 4:45:00 PM 5.95 42.71 0.424 9.03 16.73 12.23
12/6/2020 5:00:00 PM 5.94 42.692 0.424 9.02 16.63 12.25
12/6/2020 5:15:00 PM 5.94 42.692 0.424 9.04 17.41 12.27
12/6/2020 5:30:00 PM 5.94 42.692 0.424 9.05 16.4 12.28
12/6/2020 5:45:00 PM 5.94 42.692 0.425 9.05 17.52 12.29
12/6/2020 6:00:00 PM 5.94 42.692 0.425 9.06 17.08 12.31
12/6/2020 6:15:00 PM 5.94 42.692 0.426 9.06 17.47 12.33
12/6/2020 6:30:00 PM 5.95 42.71 0.426 9.07 17.93 12.33
12/6/2020 6:45:00 PM 5.95 42.71 0.427 9.07 18.02 12.34
12/6/2020 7:00:00 PM 5.95 42.71 0.427 9.08 18.02 12.35
12/6/2020 7:15:00 PM 5.95 42.71 0.428 9.08 17.2 12.36
12/6/2020 7:30:00 PM 5.95 42.71 0.428 9.08 17.6 12.36
12/6/2020 7:45:00 PM 5.95 42.71 0.429 9.09 18.58 12.37
12/6/2020 8:00:00 PM 5.95 42.71 0.43 9.09 15.54 12.37
12/6/2020 8:15:00 PM 5.94 42.692 0.43 9.1 15.28 12.36
12/6/2020 8:30:00 PM 5.93 42.674 0.43 9.11 15.83 12.36
12/6/2020 8:45:00 PM 5.92 42.656 0.431 9.1 15.41 12.37
12/6/2020 9:00:00 PM 5.9 42.62 0.431 9.1 15.85 12.36
12/6/2020 9:15:00 PM 5.87 42.566 0.431 9.1 15.37 12.36
12/6/2020 9:30:00 PM 5.85 42.53 0.431 9.1 16.21 12.35
12/6/2020 9:45:00 PM 5.82 42.476 0.431 9.1 16.07 12.34
12/6/2020 10:00:00 PM 5.8 42.44 0.432 9.09 16.06 12.34
12/6/2020 10:15:00 PM 5.77 42.386 0.432 9.09 16.59 12.33
12/6/2020 10:30:00 PM 5.75 42.35 0.432 9.09 16.02 12.32
12/6/2020 10:45:00 PM 5.72 42.296 0.432 9.09 16.34 12.31
12/6/2020 11:00:00 PM 5.69 42.242 0.432 9.08 17.38 12.29
12/6/2020 11:15:00 PM 5.66 42.188 0.432 9.08 16.04 12.29
12/6/2020 11:30:00 PM 5.63 42.134 0.433 9.07 16.65 12.27
12/6/2020 11:45:00 PM 5.6 42.08 0.433 9.07 24.19 12.26
12/7/2020 12:00:00 AM 5.56 42.008 0.433 9.06 18.96 12.25
12/7/2020 12:15:00 AM 5.53 41.954 0.433 9.05 18.81 12.24
12/7/2020 12:30:00 AM 5.5 41.9 0.434 9.05 17.88 12.23
12/7/2020 12:45:00 AM 5.47 41.846 0.434 9.04 18.12 12.23
12/7/2020 1:00:00 AM 5.44 41.792 0.434 9.04 16.32 12.22
12/7/2020 1:15:00 AM 5.4 41.72 0.435 9.03 16.11 12.22
12/7/2020 1:30:00 AM 5.36 41.648 0.435 9.03 18.11 12.2
12/7/2020 1:45:00 AM 5.32 41.576 0.435 9.02 16.68 12.21
12/7/2020 2:00:00 AM 5.29 41.522 0.435 9.01 18.7 12.2
12/7/2020 2:15:00 AM 5.25 41.45 0.436 9.01 17.94 12.2
12/7/2020 2:30:00 AM 5.22 41.396 0.436 9.01 17.54 12.19
12/7/2020 2:45:00 AM 5.19 41.342 0.436 9 17.51 12.19
12/7/2020 3:00:00 AM 5.15 41.27 0.436 8.99 22.06 12.19
12/7/2020 3:15:00 AM 5.11 41.198 0.437 8.99 17.4 12.19
12/7/2020 3:30:00 AM 5.07 41.126 0.437 8.99 17.85 12.19
12/7/2020 3:45:00 AM 5.04 41.072 0.437 8.98 18.41 12.2
12/7/2020 4:00:00 AM 5 41 0.437 8.98 17.9 12.2
12/7/2020 4:15:00 AM 4.96 40.928 0.438 8.97 18.75 12.2
12/7/2020 4:30:00 AM 4.92 40.856 0.438 8.97 17.29 12.2
12/7/2020 4:45:00 AM 4.89 40.802 0.439 8.96 17.95 12.2
12/7/2020 5:00:00 AM 4.84 40.712 0.439 8.96 17.95 12.21
12/7/2020 5:15:00 AM 4.81 40.658 0.44 8.95 24.26 12.22
12/7/2020 5:30:00 AM 4.78 40.604 0.44 8.95 18.03 12.22
12/7/2020 5:45:00 AM 4.74 40.532 0.441 8.93 18.02 12.23
12/7/2020 6:00:00 AM 4.71 40.478 0.442 8.93 19.68 12.24
12/7/2020 6:15:00 AM 4.67 40.406 0.442 8.94 19.01 12.24
12/7/2020 6:30:00 AM 4.63 40.334 0.443 8.93 19.85 12.25
12/7/2020 6:45:00 AM 4.6 40.28 0.443 8.93 18.36 12.25
12/7/2020 7:00:00 AM 4.56 40.208 0.444 8.92 20.59 12.26
12/7/2020 7:15:00 AM 4.53 40.154 0.444 8.92 17.91 12.27
12/7/2020 7:30:00 AM 4.5 40.1 0.444 8.92 19.62 12.29
12/7/2020 7:45:00 AM 4.48 40.064 0.444 8.91 20.34 12.31
12/7/2020 8:00:00 AM 4.45 40.01 0.445 8.91 17.68 12.34
12/7/2020 8:15:00 AM 4.42 39.956 0.445 8.91 20.27 12.37
12/7/2020 8:30:00 AM 4.4 39.92 0.446 8.91 17.82 12.38
12/7/2020 8:45:00 AM 4.37 39.866 0.446 8.91 18.5 12.41
12/7/2020 9:00:00 AM 4.36 39.848 0.447 8.91 18.94 12.46
12/7/2020 9:15:00 AM 4.35 39.83 0.447 8.91 17.85 12.5
12/7/2020 9:30:00 AM 4.34 39.812 0.447 8.92 18.97 12.5
12/7/2020 9:45:00 AM 4.33 39.794 0.448 8.92 21.62 12.52
12/7/2020 10:00:00 AM 4.31 39.758 0.449 8.92 22.45 12.54
12/7/2020 10:15:00 AM 4.32 39.776 0.449 8.92 19.51 12.56
12/7/2020 10:30:00 AM 4.35 39.83 0.45 8.93 18.58 12.61
12/7/2020 10:45:00 AM 4.38 39.884 0.45 8.93 18.26 12.62
12/7/2020 11:00:00 AM 4.39 39.902 0.451 8.93 19.64 12.61
12/7/2020 11:15:00 AM 4.4 39.92 0.451 8.94 19.84 12.62
12/7/2020 11:30:00 AM 4.41 39.938 0.451 8.94 19.43 12.62
12/7/2020 11:45:00 AM 4.44 39.992 0.451 8.94 19.16 12.64
12/7/2020 12:00:00 PM 4.44 39.992 0.452 8.94 18.88 12.65
12/7/2020 12:15:00 PM 4.45 40.01 0.452 8.95 19.17 12.64
12/7/2020 12:30:00 PM 4.45 40.01 0.452 8.95 19.19 12.65
12/7/2020 12:45:00 PM 4.46 40.028 0.452 8.95 20.82 12.66
12/7/2020 1:00:00 PM 4.47 40.046 0.452 8.96 18.4 12.67
12/7/2020 1:15:00 PM 4.47 40.046 0.452 8.96 18.63 12.68
12/7/2020 1:30:00 PM 4.47 40.046 0.452 8.96 19.59 12.67
12/7/2020 1:45:00 PM 4.48 40.064 0.452 8.96 18.38 12.68
12/7/2020 2:00:00 PM 4.49 40.082 0.452 8.96 19.36 12.68
12/7/2020 2:15:00 PM 4.5 40.1 0.452 8.97 18.9 12.67
12/7/2020 2:30:00 PM 4.51 40.118 0.452 8.97 18.75 12.68
12/7/2020 2:45:00 PM 4.54 40.172 0.453 8.97 19.73 12.67
12/7/2020 3:00:00 PM 4.55 40.19 0.453 8.97 19.11 12.67
12/7/2020 3:15:00 PM 4.58 40.244 0.453 8.97 19.03 12.66
12/7/2020 3:30:00 PM 4.61 40.298 0.454 8.98 19.49 12.66
12/7/2020 3:45:00 PM 4.63 40.334 0.455 8.99 19.44 12.67
12/7/2020 4:00:00 PM 4.64 40.352 0.455 8.99 20.25 12.66
12/7/2020 4:15:00 PM 4.66 40.388 0.456 9 19.63 12.68
12/7/2020 4:30:00 PM 4.66 40.388 0.457 9 20.42 12.69
12/7/2020 4:45:00 PM 4.66 40.388 0.458 9 19.39 12.71
12/7/2020 5:00:00 PM 4.65 40.37 0.459 9 20.29 12.71
12/7/2020 5:15:00 PM 4.65 40.37 0.46 9.01 21.5 12.74
12/7/2020 5:30:00 PM 4.64 40.352 0.461 9.02 20.12 12.76
12/7/2020 5:45:00 PM 4.63 40.334 0.462 9.02 21.44 12.77
12/7/2020 6:00:00 PM 4.62 40.316 0.463 9.02 23.24 12.78
12/7/2020 6:15:00 PM 4.61 40.298 0.464 9.02 20.34 12.8
12/7/2020 6:30:00 PM 4.62 40.316 0.466 9.03 21.02 12.81
12/7/2020 6:45:00 PM 4.62 40.316 0.467 9.04 22.02 12.82
12/7/2020 7:00:00 PM 4.64 40.352 0.468 9.04 23.63 12.82
12/7/2020 7:15:00 PM 4.66 40.388 0.469 9.04 20.83 12.83
12/7/2020 7:30:00 PM 4.68 40.424 0.47 9.05 20.89 12.83
12/7/2020 7:45:00 PM 4.7 40.46 0.472 9.05 21.88 12.83
12/7/2020 8:00:00 PM 4.71 40.478 0.473 9.06 21.37 12.85
12/7/2020 8:15:00 PM 4.73 40.514 0.474 9.06 21.46 12.85
12/7/2020 8:30:00 PM 4.74 40.532 0.475 9.07 21.32 12.86
12/7/2020 8:45:00 PM 4.75 40.55 0.476 9.07 21.07 12.84
12/7/2020 9:00:00 PM 4.76 40.568 0.477 9.07 22.85 12.84
12/7/2020 9:15:00 PM 4.77 40.586 0.478 9.07 24.99 12.83
12/7/2020 9:30:00 PM 4.77 40.586 0.479 9.08 22.87 12.83
12/7/2020 9:45:00 PM 4.76 40.568 0.48 9.08 23.56 12.82
12/7/2020 10:00:00 PM 4.76 40.568 0.48 9.08 21.57 12.82
12/7/2020 10:15:00 PM 4.75 40.55 0.48 9.09 24.02 12.81
12/7/2020 10:30:00 PM 4.74 40.532 0.481 9.08 23.09 12.8
12/7/2020 10:45:00 PM 4.72 40.496 0.481 9.08 23.46 12.79
12/7/2020 11:00:00 PM 4.7 40.46 0.481 9.08 23.19 12.79
12/7/2020 11:15:00 PM 4.69 40.442 0.481 9.08 22.13 12.78
12/7/2020 11:30:00 PM 4.66 40.388 0.481 9.08 23.94 12.76
12/7/2020 11:45:00 PM 4.63 40.334 0.481 9.07 22.6 12.76
12/8/2020 12:00:00 AM 4.6 40.28 0.481 9.07 23.43 12.74
12/8/2020 12:15:00 AM 4.57 40.226 0.481 9.06 22.59 12.73
12/8/2020 12:30:00 AM 4.54 40.172 0.481 9.06 24.58 12.71
12/8/2020 12:45:00 AM 4.52 40.136 0.481 9.05 23.93 12.69
12/8/2020 1:00:00 AM 4.51 40.118 0.481 9.04 24.18 12.67
12/8/2020 1:15:00 AM 4.49 40.082 0.481 9.04 24.19 12.65
12/8/2020 1:30:00 AM 4.47 40.046 0.481 9.03 24.57 12.62
12/8/2020 1:45:00 AM 4.44 39.992 0.481 9.03 23.25 12.63
12/8/2020 2:00:00 AM 4.41 39.938 0.481 9.02 24.56 12.61
12/8/2020 2:15:00 AM 4.37 39.866 0.48 9.02 24.3 12.59
12/8/2020 2:30:00 AM 4.36 39.848 0.48 9.01 25.77 12.57
12/8/2020 2:45:00 AM 4.34 39.812 0.48 9 25.27 12.56
12/8/2020 3:00:00 AM 4.31 39.758 0.48 9 24.55 12.54
12/8/2020 3:15:00 AM 4.28 39.704 0.479 8.99 24.8 12.54
12/8/2020 3:30:00 AM 4.26 39.668 0.479 8.99 25.55 12.54
12/8/2020 3:45:00 AM 4.25 39.65 0.479 8.99 24.95 12.52
12/8/2020 4:00:00 AM 4.23 39.614 0.479 8.98 24.98 12.53
12/8/2020 4:15:00 AM 4.21 39.578 0.479 8.98 25.19 12.51
12/8/2020 4:30:00 AM 4.19 39.542 0.478 8.97 22.61 12.51
12/8/2020 4:45:00 AM 4.16 39.488 0.478 8.97 22.36 12.51
12/8/2020 5:00:00 AM 4.13 39.434 0.479 8.97 21.37 12.51
12/8/2020 5:15:00 AM 4.11 39.398 0.479 8.96 22.3 12.5
12/8/2020 5:30:00 AM 4.08 39.344 0.479 8.96 21.75 12.49
12/8/2020 5:45:00 AM 4.05 39.29 0.479 8.95 22.73 12.51
12/8/2020 6:00:00 AM 4.02 39.236 0.479 8.95 23.43 12.51
12/8/2020 6:15:00 AM 4.01 39.218 0.479 8.95 22.04 12.51
12/8/2020 6:30:00 AM 3.98 39.164 0.479 8.94 22.21 12.5
12/8/2020 6:45:00 AM 3.95 39.11 0.479 8.94 23.46 12.51
12/8/2020 7:00:00 AM 3.92 39.056 0.48 8.93 22.82 12.52
12/8/2020 7:15:00 AM 3.89 39.002 0.48 8.93 22.93 12.52
12/8/2020 7:30:00 AM 3.87 38.966 0.48 8.93 23.22 12.54
12/8/2020 7:45:00 AM 3.85 38.93 0.48 8.93 23.16 12.56
12/8/2020 8:00:00 AM 3.82 38.876 0.48 8.93 23.74 12.58
12/8/2020 8:15:00 AM 3.8 38.84 0.48 8.93 23.62 12.63
12/8/2020 8:30:00 AM 3.78 38.804 0.48 8.93 24.19 12.65
12/8/2020 8:45:00 AM 3.76 38.768 0.48 8.93 23.61 12.68
12/8/2020 9:00:00 AM 3.75 38.75 0.48 8.93 23.78 12.69
12/8/2020 9:15:00 AM 3.75 38.75 0.48 8.94 23.29 12.71
12/8/2020 9:30:00 AM 3.74 38.732 0.48 8.93 24.26 12.76
12/8/2020 9:45:00 AM 3.75 38.75 0.481 8.94 24.21 12.78
12/8/2020 10:00:00 AM 3.76 38.768 0.481 8.94 23.61 12.8
12/8/2020 10:15:00 AM 3.77 38.786 0.481 8.94 22.81 12.82
12/8/2020 10:30:00 AM 3.78 38.804 0.481 8.94 23.69 12.83
12/8/2020 10:45:00 AM 3.81 38.858 0.482 8.95 24 12.86
12/8/2020 11:00:00 AM 3.85 38.93 0.482 8.95 24.62 12.89
12/8/2020 11:15:00 AM 3.86 38.948 0.482 8.95 24.9 12.89
12/8/2020 11:30:00 AM 3.88 38.984 0.482 8.96 24.75 12.88
12/8/2020 11:45:00 AM 3.9 39.02 0.483 8.96 24.44 12.9
12/8/2020 12:00:00 PM 3.92 39.056 0.483 8.96 24.41 12.89
12/8/2020 12:15:00 PM 3.93 39.074 0.483 8.96 24.62 12.9
12/8/2020 12:30:00 PM 3.96 39.128 0.483 8.97 24.87 12.93
12/8/2020 12:45:00 PM 3.95 39.11 0.482 8.97 25.28 12.93
12/8/2020 1:00:00 PM 3.95 39.11 0.483 8.97 25.32 12.92
12/8/2020 1:15:00 PM 3.96 39.128 0.482 8.98 24.56 12.94
12/8/2020 1:30:00 PM 3.98 39.164 0.482 8.98 24.83 12.96
12/8/2020 1:45:00 PM 4.04 39.272 0.482 8.98 24.26 12.99
12/8/2020 2:00:00 PM 4.05 39.29 0.482 8.99 24.76 12.96
12/8/2020 2:15:00 PM 4.08 39.344 0.481 9 24.83 12.96
12/8/2020 2:30:00 PM 4.1 39.38 0.481 9 24.98 12.96
12/8/2020 2:45:00 PM 4.1 39.38 0.481 9 24.97 12.94
12/8/2020 3:00:00 PM 4.13 39.434 0.481 9 25 12.92
12/8/2020 3:15:00 PM 4.14 39.452 0.481 9 25.82 12.9
12/8/2020 3:30:00 PM 4.16 39.488 0.481 9.01 24.85 12.89
12/8/2020 3:45:00 PM 4.17 39.506 0.481 9.01 25.79 12.89
12/8/2020 4:00:00 PM 4.19 39.542 0.481 9.01 26.78 12.88
12/8/2020 4:15:00 PM 4.19 39.542 0.481 9.02 25.57 12.88
12/8/2020 4:30:00 PM 4.2 39.56 0.481 9.02 25.43 12.89
12/8/2020 4:45:00 PM 4.2 39.56 0.481 9.02 25.84 12.9
12/8/2020 5:00:00 PM 4.2 39.56 0.481 9.03 26.31 12.89
12/8/2020 5:15:00 PM 4.18 39.524 0.482 9.03 26.28 12.91
12/8/2020 5:30:00 PM 4.16 39.488 0.482 9.03 26.07 12.96
12/8/2020 5:45:00 PM 4.14 39.452 0.482 9.04 25.95 12.97
12/8/2020 6:00:00 PM 4.13 39.434 0.483 9.04 25.8 13
12/8/2020 6:15:00 PM 4.12 39.416 0.483 9.04 26.41 13.01
12/8/2020 6:30:00 PM 4.1 39.38 0.484 9.05 26.9 13.03
12/8/2020 6:45:00 PM 4.09 39.362 0.485 9.05 26.67 13.05
12/8/2020 7:00:00 PM 4.09 39.362 0.486 9.05 26.25 13.05
12/8/2020 7:15:00 PM 4.11 39.398 0.487 9.06 27.42 13.08
12/8/2020 7:30:00 PM 4.13 39.434 0.488 9.07 26.21 13.1
12/8/2020 7:45:00 PM 4.15 39.47 0.489 9.07 27.02 13.07
12/8/2020 8:00:00 PM 4.16 39.488 0.49 9.07 26.91 13.1
12/8/2020 8:15:00 PM 4.19 39.542 0.491 9.08 27.09 13.1
12/8/2020 8:30:00 PM 4.22 39.596 0.491 9.09 26.52 13.08
12/8/2020 8:45:00 PM 4.26 39.668 0.492 9.1 27.19 13.08
12/8/2020 9:00:00 PM 4.3 39.74 0.493 9.1 27.42 13.1
12/8/2020 9:15:00 PM 4.34 39.812 0.494 9.1 27.24 13.1
12/8/2020 9:30:00 PM 4.36 39.848 0.495 9.11 26.18 13.09
12/8/2020 9:45:00 PM 4.39 39.902 0.496 9.11 27.11 13.07
12/8/2020 10:00:00 PM 4.4 39.92 0.496 9.12 27.6 13.08
12/8/2020 10:15:00 PM 4.42 39.956 0.497 9.13 27.66 13.08
12/8/2020 10:30:00 PM 4.43 39.974 0.498 9.13 27.99 13.07
12/8/2020 10:45:00 PM 4.44 39.992 0.499 9.13 27.63 13.06
12/8/2020 11:00:00 PM 4.44 39.992 0.499 9.13 29.55 13.04
12/8/2020 11:15:00 PM 4.44 39.992 0.5 9.14 28.58 13.03
12/8/2020 11:30:00 PM 4.43 39.974 0.5 9.14 27.44 13.02
12/8/2020 11:45:00 PM 4.42 39.956 0.501 9.14 28.47 12.98
12/9/2020 12:00:00 AM 4.41 39.938 0.501 9.14 28.22 12.97
12/9/2020 12:15:00 AM 4.4 39.92 0.501 9.13 28 12.93
12/9/2020 12:30:00 AM 4.38 39.884 0.502 9.13 28.44 12.94
12/9/2020 12:45:00 AM 4.36 39.848 0.502 9.12 28.37 12.92
12/9/2020 1:00:00 AM 4.34 39.812 0.503 9.12 28.19 12.91
12/9/2020 1:15:00 AM 4.32 39.776 0.503 9.12 28.95 12.88
12/9/2020 1:30:00 AM 4.31 39.758 0.503 9.11 29.94 12.86
12/9/2020 1:45:00 AM 4.29 39.722 0.503 9.1 28.85 12.86
12/9/2020 2:00:00 AM 4.27 39.686 0.503 9.1 29.56 12.81
12/9/2020 2:15:00 AM 4.25 39.65 0.503 9.09 29.85 12.79
12/9/2020 2:30:00 AM 4.23 39.614 0.503 9.09 29.41 12.79
12/9/2020 2:45:00 AM 4.21 39.578 0.503 9.08 28.95 12.78
12/9/2020 3:00:00 AM 4.19 39.542 0.503 9.08 29.47 12.75
12/9/2020 3:15:00 AM 4.18 39.524 0.502 9.07 28.54 12.73
12/9/2020 3:30:00 AM 4.17 39.506 0.502 9.07 27.89 12.71
12/9/2020 3:45:00 AM 4.15 39.47 0.502 9.06 28.91 12.7
12/9/2020 4:00:00 AM 4.14 39.452 0.502 9.05 28.4 12.67
12/9/2020 4:15:00 AM 4.12 39.416 0.502 9.05 28.2 12.66
12/9/2020 4:30:00 AM 4.11 39.398 0.501 9.04 28.13 12.66
12/9/2020 4:45:00 AM 4.09 39.362 0.501 9.03 29.45 12.64
12/9/2020 5:00:00 AM 4.07 39.326 0.501 9.03 29.31 12.65
12/9/2020 5:15:00 AM 4.05 39.29 0.501 9.03 29.16 12.64
12/9/2020 5:30:00 AM 4.04 39.272 0.501 9.02 29.11 12.64
12/9/2020 5:45:00 AM 4.03 39.254 0.5 9.02 29.56 12.62
12/9/2020 6:00:00 AM 4.02 39.236 0.5 9.02 30.16 12.63
12/9/2020 6:15:00 AM 4 39.2 0.5 9.02 30.13 12.61
12/9/2020 6:30:00 AM 3.99 39.182 0.5 9.01 29.22 12.61
12/9/2020 6:45:00 AM 3.98 39.164 0.5 9.01 30.72 12.58
12/9/2020 7:00:00 AM 3.95 39.11 0.499 9.01 30.2 12.57
12/9/2020 7:15:00 AM 3.94 39.092 0.499 9 30.04 12.59
12/9/2020 7:30:00 AM 3.92 39.056 0.499 9 30.13 12.6
12/9/2020 7:45:00 AM 3.9 39.02 0.499 9 30.86 12.61
12/9/2020 8:00:00 AM 3.89 39.002 0.498 9 30.6 12.63
12/9/2020 8:15:00 AM 3.88 38.984 0.498 9 31.34 12.66
12/9/2020 8:30:00 AM 3.88 38.984 0.498 9 31.28 12.66
12/9/2020 8:45:00 AM 3.87 38.966 0.498 9 31.14 12.67
12/9/2020 9:00:00 AM 3.86 38.948 0.498 9 31.08 12.69
12/9/2020 9:15:00 AM 3.85 38.93 0.497 9 30.97 12.69
12/9/2020 9:30:00 AM 3.86 38.948 0.497 9 31.68 12.76
12/9/2020 9:45:00 AM 3.84 38.912 0.497 9 31.54 12.69
12/9/2020 10:00:00 AM 3.84 38.912 0.497 8.99 31.69 12.65
12/9/2020 10:15:00 AM 3.83 38.894 0.497 9 31.49 12.67
12/9/2020 10:30:00 AM 3.78 38.804 0.497 9 31.62 12.66
12/9/2020 10:45:00 AM 3.78 38.804 0.497 8.99 31.77 12.74
12/9/2020 11:00:00 AM 3.8 38.84 0.497 9 31.35 12.74
12/9/2020 11:15:00 AM 3.81 38.858 0.497 9 30.88 12.79
12/9/2020 11:30:00 AM 3.81 38.858 0.497 9 31.79 12.8
12/9/2020 11:45:00 AM 3.82 38.876 0.498 9 32.09 12.81
12/9/2020 12:00:00 PM 3.83 38.894 0.498 9.01 31.42 12.84
12/9/2020 12:15:00 PM 3.83 38.894 0.498 9.01 32.33 12.83
12/9/2020 12:30:00 PM 3.84 38.912 0.499 9.01 32.05 12.84
12/9/2020 12:45:00 PM 3.86 38.948 0.499 9.02 31.04 12.85
12/9/2020 1:00:00 PM 3.87 38.966 0.499 9.01 32.29 12.85
12/9/2020 1:15:00 PM 3.87 38.966 0.5 9.01 32.14 12.83
12/9/2020 1:30:00 PM 3.89 39.002 0.5 9.02 32.78 12.85
12/9/2020 1:45:00 PM 3.91 39.038 0.5 9.02 31.57 12.89
12/9/2020 2:00:00 PM 3.94 39.092 0.501 9.03 31.38 12.89
12/9/2020 2:15:00 PM 3.95 39.11 0.501 9.03 32.71 12.88
12/9/2020 2:30:00 PM 3.96 39.128 0.501 9.03 32.64 12.87
12/9/2020 2:45:00 PM 3.98 39.164 0.502 9.04 31.97 12.87
12/9/2020 3:00:00 PM 4 39.2 0.502 9.04 32.79 12.9
12/9/2020 3:15:00 PM 4.01 39.218 0.502 9.05 32.48 12.86
12/9/2020 3:30:00 PM 4.02 39.236 0.502 9.04 32.7 12.82
12/9/2020 3:45:00 PM 4.03 39.254 0.503 9.04 32.39 12.79
12/9/2020 4:00:00 PM 4.03 39.254 0.503 9.04 33.19 12.79
12/9/2020 4:15:00 PM 4.04 39.272 0.503 9.04 32.65 12.78
12/9/2020 4:30:00 PM 4.05 39.29 0.504 9.05 33.14 12.78
12/9/2020 4:45:00 PM 4.06 39.308 0.504 9.04 33.32 12.77
12/9/2020 5:00:00 PM 4.07 39.326 0.504 9.04 33.3 12.78
12/9/2020 5:15:00 PM 4.08 39.344 0.505 9.05 33.73 12.78
12/9/2020 5:30:00 PM 4.09 39.362 0.505 9.05 33.69 12.79
12/9/2020 5:45:00 PM 4.1 39.38 0.505 9.05 33.24 12.81
12/9/2020 6:00:00 PM 4.12 39.416 0.505 9.05 33.91 12.8
12/9/2020 6:15:00 PM 4.13 39.434 0.505 9.05 33.97 12.82
12/9/2020 6:30:00 PM 4.14 39.452 0.506 9.06 33.66 12.82
12/9/2020 6:45:00 PM 4.15 39.47 0.506 9.07 34.27 12.83
12/9/2020 7:00:00 PM 4.16 39.488 0.506 9.07 33.25 12.84
12/9/2020 7:15:00 PM 4.17 39.506 0.506 9.08 30.91 12.84
12/9/2020 7:30:00 PM 4.19 39.542 0.506 9.08 29.33 12.84
12/9/2020 7:45:00 PM 4.2 39.56 0.506 9.08 33.61 12.86
12/9/2020 8:00:00 PM 4.22 39.596 0.506 9.09 33.5 12.87
12/9/2020 8:15:00 PM 4.25 39.65 0.506 9.09 33.66 12.87
12/9/2020 8:30:00 PM 4.27 39.686 0.506 9.1 33.94 12.87
12/9/2020 8:45:00 PM 4.29 39.722 0.506 9.1 31.69 12.87
12/9/2020 9:00:00 PM 4.32 39.776 0.507 9.11 33.55 12.88
12/9/2020 9:15:00 PM 4.36 39.848 0.507 9.11 34.86 12.89
12/9/2020 9:30:00 PM 4.39 39.902 0.507 9.12 34.95 12.89
12/9/2020 9:45:00 PM 4.41 39.938 0.508 9.13 34.75 12.9
12/9/2020 10:00:00 PM 4.43 39.974 0.508 9.14 35.08 12.9
12/9/2020 10:15:00 PM 4.46 40.028 0.508 9.14 35.06 12.91
12/9/2020 10:30:00 PM 4.48 40.064 0.509 9.15 34.86 12.91
12/9/2020 10:45:00 PM 4.51 40.118 0.51 9.15 34.8 12.91
12/9/2020 11:00:00 PM 4.54 40.172 0.51 9.15 35.85 12.9
12/9/2020 11:15:00 PM 4.56 40.208 0.511 9.16 35.24 12.9
12/9/2020 11:30:00 PM 4.59 40.262 0.511 9.16 34.46 12.89
12/9/2020 11:45:00 PM 4.61 40.298 0.512 9.16 36.07 12.88
12/10/2020 12:00:00 AM 4.63 40.334 0.513 9.17 35.23 12.87
12/10/2020 12:15:00 AM 4.66 40.388 0.513 9.17 35.29 12.86
12/10/2020 12:30:00 AM 4.68 40.424 0.514 9.18 35.74 12.83
12/10/2020 12:45:00 AM 4.7 40.46 0.515 9.17 36.13 12.82
12/10/2020 1:00:00 AM 4.72 40.496 0.515 9.18 36.13 12.8
12/10/2020 1:15:00 AM 4.73 40.514 0.516 9.18 35.5 12.77
12/10/2020 1:30:00 AM 4.75 40.55 0.516 9.17 35.53 12.75
12/10/2020 1:45:00 AM 4.77 40.586 0.517 9.17 35.64 12.73
12/10/2020 2:00:00 AM 4.78 40.604 0.517 9.17 35.09 12.7
12/10/2020 2:15:00 AM 4.79 40.622 0.518 9.16 35.74 12.68
12/10/2020 2:30:00 AM 4.79 40.622 0.518 9.16 36.22 12.65
12/10/2020 2:45:00 AM 4.8 40.64 0.519 9.16 36.8 12.62
12/10/2020 3:00:00 AM 4.8 40.64 0.519 9.15 36.35 12.6
12/10/2020 3:15:00 AM 4.81 40.658 0.52 9.15 31.6 12.58
12/10/2020 3:30:00 AM 4.82 40.676 0.52 9.15 34.84 12.55
12/10/2020 3:45:00 AM 4.82 40.676 0.52 9.15 36.92 12.53
12/10/2020 4:00:00 AM 4.81 40.658 0.521 9.14 36.53 12.51
12/10/2020 4:15:00 AM 4.81 40.658 0.521 9.14 36.39 12.5
12/10/2020 4:30:00 AM 4.81 40.658 0.521 9.14 36.6 12.47
12/10/2020 4:45:00 AM 4.81 40.658 0.521 9.13 36.63 12.46
12/10/2020 5:00:00 AM 4.8 40.64 0.521 9.13 36.13 12.45
12/10/2020 5:15:00 AM 4.8 40.64 0.522 9.13 44.33 12.44
12/10/2020 5:30:00 AM 4.8 40.64 0.522 9.13 36.68 12.42
12/10/2020 5:45:00 AM 4.8 40.64 0.521 9.12 37.53 12.41
12/10/2020 6:00:00 AM 4.8 40.64 0.521 9.12 37.11 12.41
12/10/2020 6:15:00 AM 4.79 40.622 0.521 9.12 37.89 12.39
12/10/2020 6:30:00 AM 4.79 40.622 0.52 9.12 37.84 12.39
12/10/2020 6:45:00 AM 4.78 40.604 0.52 9.12 36.89 12.38
12/10/2020 7:00:00 AM 4.78 40.604 0.52 9.12 41.46 12.38
12/10/2020 7:15:00 AM 4.78 40.604 0.52 9.12 37.95 12.38
12/10/2020 7:30:00 AM 4.77 40.586 0.519 9.11 38.83 12.38
12/10/2020 7:45:00 AM 4.78 40.604 0.519 9.11 37.29 12.4
12/10/2020 8:00:00 AM 4.78 40.604 0.519 9.11 38.61 12.41
12/10/2020 8:15:00 AM 4.8 40.64 0.518 9.11 39.45 12.46
12/10/2020 8:30:00 AM 4.82 40.676 0.517 9.12 39.02 12.49
12/10/2020 8:45:00 AM 4.83 40.694 0.517 9.12 39.54 12.48
12/10/2020 9:00:00 AM 4.87 40.766 0.517 9.13 39.81 12.54
12/10/2020 9:15:00 AM 4.88 40.784 0.516 9.14 39.35 12.52
12/10/2020 9:30:00 AM 4.9 40.82 0.516 9.14 37.91 12.51
12/10/2020 9:45:00 AM 4.94 40.892 0.515 9.15 39.05 12.57
12/10/2020 10:00:00 AM 4.96 40.928 0.515 9.15 39.96 12.56
12/10/2020 10:15:00 AM 4.99 40.982 0.515 9.15 40.47 12.56
12/10/2020 10:30:00 AM 5.01 41.018 0.514 9.15 39.56 12.57
12/10/2020 10:45:00 AM 5.08 41.144 0.514 9.16 37.67 12.62
12/10/2020 11:00:00 AM 5.11 41.198 0.514 9.16 39.57 12.61
12/10/2020 11:15:00 AM 5.1 41.18 0.514 9.17 39.13 12.54
12/10/2020 11:30:00 AM 5.18 41.324 0.513 9.18 39.65 12.62
12/10/2020 11:45:00 AM 5.22 41.396 0.513 9.18 40 12.63
12/10/2020 12:00:00 PM 5.26 41.468 0.513 9.19 40.26 12.61
12/10/2020 12:15:00 PM 5.29 41.522 0.513 9.2 38.53 12.61
12/10/2020 12:30:00 PM 5.33 41.594 0.513 9.2 41.43 12.61
12/10/2020 12:45:00 PM 5.36 41.648 0.513 9.21 41.14 12.62
12/10/2020 1:00:00 PM 5.38 41.684 0.513 9.22 40.15 12.61
12/10/2020 1:15:00 PM 5.4 41.72 0.513 9.22 39.35 12.62
12/10/2020 1:30:00 PM 5.43 41.774 0.512 9.22 38.78 12.6
12/10/2020 1:45:00 PM 5.43 41.774 0.512 9.22 39.71 12.6
12/10/2020 2:00:00 PM 5.45 41.81 0.512 9.23 40.79 12.58
12/10/2020 2:15:00 PM 5.45 41.81 0.512 9.23 39.86 12.58
12/10/2020 2:30:00 PM 5.45 41.81 0.512 9.24 40.41 12.56
12/10/2020 2:45:00 PM 5.45 41.81 0.512 9.24 40.09 12.56
12/10/2020 3:00:00 PM 5.45 41.81 0.512 9.24 41.5 12.54
12/10/2020 3:15:00 PM 5.45 41.81 0.512 9.24 40.3 12.53
12/10/2020 3:30:00 PM 5.46 41.828 0.512 9.24 40.6 12.52
12/10/2020 3:45:00 PM 5.48 41.864 0.512 9.24 41.07 12.5
12/10/2020 4:00:00 PM 5.48 41.864 0.512 9.25 41.58 12.49
12/10/2020 4:15:00 PM 5.5 41.9 0.512 9.25 40.9 12.48
12/10/2020 4:30:00 PM 5.52 41.936 0.512 9.25 40.88 12.46
12/10/2020 4:45:00 PM 5.52 41.936 0.512 9.25 41.24 12.44
12/10/2020 5:00:00 PM 5.54 41.972 0.512 9.25 41.99 12.43
12/10/2020 5:15:00 PM 5.55 41.99 0.512 9.25 39.35 12.44
12/10/2020 5:30:00 PM 5.56 42.008 0.512 9.26 41.79 12.46
12/10/2020 5:45:00 PM 5.56 42.008 0.512 9.26 41.37 12.47
12/10/2020 6:00:00 PM 5.55 41.99 0.512 9.27 41.37 12.49
12/10/2020 6:15:00 PM 5.54 41.972 0.512 9.27 42.5 12.51
12/10/2020 6:30:00 PM 5.52 41.936 0.512 9.27 42.97 12.55
12/10/2020 6:45:00 PM 5.5 41.9 0.511 9.27 43.1 12.56
12/10/2020 7:00:00 PM 5.48 41.864 0.511 9.28 41.48 12.59
12/10/2020 7:15:00 PM 5.47 41.846 0.511 9.27 49.49 12.58
12/10/2020 7:30:00 PM 5.46 41.828 0.511 9.28 43.05 12.6
12/10/2020 7:45:00 PM 5.47 41.846 0.51 9.28 42.06 12.62
12/10/2020 8:00:00 PM 5.47 41.846 0.51 9.28 41.97 12.64
12/10/2020 8:15:00 PM 5.48 41.864 0.51 9.29 40.13 12.65
12/10/2020 8:30:00 PM 5.49 41.882 0.51 9.29 42.51 12.66
12/10/2020 8:45:00 PM 5.5 41.9 0.509 9.3 43.75 12.67
12/10/2020 9:00:00 PM 5.52 41.936 0.509 9.31 43.12 12.69
12/10/2020 9:15:00 PM 5.54 41.972 0.509 9.32 42.31 12.7
12/10/2020 9:30:00 PM 5.56 42.008 0.508 9.32 43.46 12.71
12/10/2020 9:45:00 PM 5.58 42.044 0.508 9.33 43.71 12.71
12/10/2020 10:00:00 PM 5.6 42.08 0.508 9.34 42.98 12.72
12/10/2020 10:15:00 PM 5.62 42.116 0.508 9.35 42.92 12.73
12/10/2020 10:30:00 PM 5.65 42.17 0.507 9.36 43.18 12.73
12/10/2020 10:45:00 PM 5.67 42.206 0.508 9.36 43.69 12.73
12/10/2020 11:00:00 PM 5.69 42.242 0.508 9.37 45.37 12.73
12/10/2020 11:15:00 PM 5.71 42.278 0.508 9.38 44.45 12.73
12/10/2020 11:30:00 PM 5.72 42.296 0.508 9.38 44.39 12.71
12/10/2020 11:45:00 PM 5.72 42.296 0.509 9.38 44.93 12.7
12/11/2020 12:00:00 AM 5.74 42.332 0.509 9.38 44.62 12.68
12/11/2020 12:15:00 AM 5.74 42.332 0.509 9.38 43.23 12.67
12/11/2020 12:30:00 AM 5.73 42.314 0.51 9.39 45.49 12.66
12/11/2020 12:45:00 AM 5.72 42.296 0.511 9.39 45.76 12.64
12/11/2020 1:00:00 AM 5.71 42.278 0.511 9.39 45.61 12.62
12/11/2020 1:15:00 AM 5.69 42.242 0.512 9.39 45.34 12.6
12/11/2020 1:30:00 AM 5.67 42.206 0.513 9.38 44.95 12.58
12/11/2020 1:45:00 AM 5.65 42.17 0.514 9.38 46.34 12.55
12/11/2020 2:00:00 AM 5.63 42.134 0.515 9.38 46.26 12.54
12/11/2020 2:15:00 AM 5.6 42.08 0.516 9.38 44.22 12.51
12/11/2020 2:30:00 AM 5.57 42.026 0.517 9.37 45.3 12.49
12/11/2020 2:45:00 AM 5.54 41.972 0.518 9.36 46 12.48
12/11/2020 3:00:00 AM 5.51 41.918 0.519 9.35 46.06 12.46
12/11/2020 3:15:00 AM 5.48 41.864 0.519 9.35 48.45 12.45
12/11/2020 3:30:00 AM 5.45 41.81 0.52 9.34 47.53 12.43
12/11/2020 3:45:00 AM 5.42 41.756 0.521 9.33 46.83 12.41
12/11/2020 4:00:00 AM 5.38 41.684 0.522 9.33 46.13 12.39
12/11/2020 4:15:00 AM 5.35 41.63 0.523 9.32 46.51 12.38
12/11/2020 4:30:00 AM 5.32 41.576 0.523 9.32 47.46 12.37
12/11/2020 4:45:00 AM 5.28 41.504 0.524 9.31 45.82 12.34
12/11/2020 5:00:00 AM 5.26 41.468 0.524 9.3 44.81 12.34
12/11/2020 5:15:00 AM 5.23 41.414 0.524 9.29 47.42 12.33
12/11/2020 5:30:00 AM 5.2 41.36 0.525 9.29 50.9 12.3
12/11/2020 5:45:00 AM 5.17 41.306 0.525 9.28 47.32 12.3
12/11/2020 6:00:00 AM 5.15 41.27 0.525 9.28 47.15 12.28
12/11/2020 6:15:00 AM 5.12 41.216 0.526 9.27 48.19 12.27
12/11/2020 6:30:00 AM 5.1 41.18 0.526 9.27 47.15 12.26
12/11/2020 6:45:00 AM 5.06 41.108 0.526 9.25 48.59 12.26
12/11/2020 7:00:00 AM 5.04 41.072 0.526 9.25 48.28 12.26
12/11/2020 7:15:00 AM 5.02 41.036 0.526 9.25 47.67 12.26
12/11/2020 7:30:00 AM 4.99 40.982 0.526 9.25 48.45 12.28
12/11/2020 7:45:00 AM 4.97 40.946 0.526 9.24 47.25 12.29
12/11/2020 8:00:00 AM 4.94 40.892 0.525 9.24 45.45 12.32
12/11/2020 8:15:00 AM 4.93 40.874 0.525 9.25 49.51 12.35
12/11/2020 8:30:00 AM 4.92 40.856 0.525 9.25 50.61 12.4
12/11/2020 8:45:00 AM 4.91 40.838 0.525 9.25 50.13 12.42
12/11/2020 9:00:00 AM 4.92 40.856 0.524 9.24 49.75 12.48
12/11/2020 9:15:00 AM 4.96 40.928 0.524 9.25 48.61 12.55
12/11/2020 9:30:00 AM 4.99 40.982 0.523 9.25 53.57 12.58
12/11/2020 9:45:00 AM 4.98 40.964 0.523 9.26 50.97 12.56
12/11/2020 10:00:00 AM 4.98 40.964 0.523 9.26 50.59 12.56
12/11/2020 10:15:00 AM 4.98 40.964 0.523 9.26 51.55 12.57
12/11/2020 10:30:00 AM 5 41 0.522 9.26 49.77 12.58
12/11/2020 10:45:00 AM 5.01 41.018 0.522 9.26 50.39 12.6
12/11/2020 11:00:00 AM 5.04 41.072 0.522 9.27 51.97 12.6
12/11/2020 11:15:00 AM 5.05 41.09 0.521 9.27 51.84 12.62
12/11/2020 11:30:00 AM 5.08 41.144 0.521 9.27 51.16 12.63
12/11/2020 11:45:00 AM 5.11 41.198 0.52 9.28 51.84 12.62
12/11/2020 12:00:00 PM 5.13 41.234 0.52 9.28 51.28 12.62
12/11/2020 12:15:00 PM 5.15 41.27 0.52 9.28 48.7 12.63
12/11/2020 12:30:00 PM 5.17 41.306 0.519 9.28 48.25 12.63
12/11/2020 12:45:00 PM 5.18 41.324 0.519 9.29 51.42 12.63
12/11/2020 1:00:00 PM 5.21 41.378 0.519 9.29 51.87 12.64
12/11/2020 1:15:00 PM 5.21 41.378 0.519 9.29 51.2 12.65
12/11/2020 1:30:00 PM 5.22 41.396 0.519 9.3 48.5 12.64
12/11/2020 1:45:00 PM 5.22 41.396 0.518 9.3 52.19 12.64
12/11/2020 2:00:00 PM 5.22 41.396 0.518 9.3 51.62 12.62
12/11/2020 2:15:00 PM 5.23 41.414 0.518 9.31 43.48 12.63
12/11/2020 2:30:00 PM 5.24 41.432 0.518 9.31 50.75 12.63
12/11/2020 2:45:00 PM 5.25 41.45 0.518 9.31 50.8 12.62
12/11/2020 3:00:00 PM 5.26 41.468 0.518 9.31 52.51 12.6
12/11/2020 3:15:00 PM 5.25 41.45 0.518 9.31 51.46 12.56
12/11/2020 3:30:00 PM 5.26 41.468 0.518 9.3 52.95 12.55
12/11/2020 3:45:00 PM 5.27 41.486 0.518 9.31 46.6 12.52
12/11/2020 4:00:00 PM 5.27 41.486 0.518 9.3 48.51 12.49
12/11/2020 4:15:00 PM 5.28 41.504 0.518 9.31 53.02 12.49
12/11/2020 4:30:00 PM 5.3 41.54 0.518 9.31 50.16 12.46
12/11/2020 4:45:00 PM 5.31 41.558 0.518 9.3 53.06 12.44
12/11/2020 5:00:00 PM 5.32 41.576 0.519 9.31 51.54 12.43
12/11/2020 5:15:00 PM 5.33 41.594 0.519 9.31 54.47 12.43
12/11/2020 5:30:00 PM 5.34 41.612 0.519 9.31 52.45 12.45
12/11/2020 5:45:00 PM 5.35 41.63 0.519 9.31 53.15 12.47
12/11/2020 6:00:00 PM 5.36 41.648 0.52 9.31 48.02 12.49
12/11/2020 6:15:00 PM 5.36 41.648 0.52 9.32 51.93 12.52
12/11/2020 6:30:00 PM 5.35 41.63 0.52 9.33 51.68 12.54
12/11/2020 6:45:00 PM 5.35 41.63 0.521 9.33 53.55 12.56
12/11/2020 7:00:00 PM 5.34 41.612 0.521 9.33 50.49 12.57
12/11/2020 7:15:00 PM 5.34 41.612 0.522 9.33 50.43 12.58
12/11/2020 7:30:00 PM 5.34 41.612 0.522 9.33 52.8 12.59
12/11/2020 7:45:00 PM 5.35 41.63 0.523 9.33 53.5 12.6
12/11/2020 8:00:00 PM 5.36 41.648 0.523 9.33 55.98 12.61
12/11/2020 8:15:00 PM 5.38 41.684 0.523 9.34 55.08 12.61
12/11/2020 8:30:00 PM 5.4 41.72 0.523 9.35 52.94 12.63
12/11/2020 8:45:00 PM 5.43 41.774 0.523 9.35 56.12 12.64
12/11/2020 9:00:00 PM 5.46 41.828 0.523 9.36 51.95 12.65
12/11/2020 9:15:00 PM 5.5 41.9 0.523 9.37 50.97 12.65
12/11/2020 9:30:00 PM 5.54 41.972 0.523 9.37 52.86 12.67
12/11/2020 9:45:00 PM 5.58 42.044 0.523 9.38 56.9 12.67
12/11/2020 10:00:00 PM 5.62 42.116 0.522 9.39 54.03 12.68
12/11/2020 10:15:00 PM 5.66 42.188 0.522 9.4 54.36 12.68
12/11/2020 10:30:00 PM 5.71 42.278 0.522 9.41 56.56 12.69
12/11/2020 10:45:00 PM 5.76 42.368 0.521 9.42 53.98 12.69
12/11/2020 11:00:00 PM 5.8 42.44 0.521 9.43 55.73 12.7
12/11/2020 11:15:00 PM 5.85 42.53 0.521 9.44 55.41 12.69
12/11/2020 11:30:00 PM 5.89 42.602 0.521 9.45 55.3 12.69
12/11/2020 11:45:00 PM 5.93 42.674 0.52 9.46 55.52 12.68
12/12/2020 12:00:00 AM 5.97 42.746 0.52 9.47 58.09 12.67
12/12/2020 12:15:00 AM 6.01 42.818 0.52 9.48 61.68 12.66
12/12/2020 12:30:00 AM 6.04 42.872 0.52 9.48 53.52 12.64
12/12/2020 12:45:00 AM 6.07 42.926 0.521 9.5 57.69 12.61
12/12/2020 1:00:00 AM 6.1 42.98 0.521 9.51 57.27 12.6
12/12/2020 1:15:00 AM 6.12 43.016 0.521 9.52 56.71 12.58
12/12/2020 1:30:00 AM 6.13 43.034 0.522 9.51 56.7 12.55
12/12/2020 1:45:00 AM 6.15 43.07 0.523 9.51 53.8 12.52
12/12/2020 2:00:00 AM 6.15 43.07 0.523 9.51 65.13 12.48
12/12/2020 2:15:00 AM 6.15 43.07 0.524 9.52 57.09 12.46
12/12/2020 2:30:00 AM 6.15 43.07 0.525 9.52 61.24 12.43
12/12/2020 2:45:00 AM 6.14 43.052 0.526 9.51 54.08 12.41
12/12/2020 3:00:00 AM 6.13 43.034 0.527 9.5 52.04 12.37
12/12/2020 3:15:00 AM 6.12 43.016 0.528 9.5 43.66 12.34
12/12/2020 3:30:00 AM 6.11 42.998 0.529 9.51 51.85 12.32
12/12/2020 3:45:00 AM 6.09 42.962 0.53 9.51 54.95 12.29
12/12/2020 4:00:00 AM 6.07 42.926 0.531 9.49 56.07 12.25
12/12/2020 4:15:00 AM 6.06 42.908 0.532 9.48 53.02 12.21
12/12/2020 4:30:00 AM 6.04 42.872 0.532 9.49 55.55 12.19
12/12/2020 4:45:00 AM 6.03 42.854 0.533 9.49 60.91 12.17
12/12/2020 5:00:00 AM 6.01 42.818 0.534 9.48 51.51 12.13
12/12/2020 5:15:00 AM 6 42.8 0.534 9.47 58.03 12.12
12/12/2020 5:30:00 AM 5.99 42.782 0.535 9.46 61.5 12.1
12/12/2020 5:45:00 AM 5.99 42.782 0.535 9.45 56.7 12.08
12/12/2020 6:00:00 AM 5.98 42.764 0.536 9.44 57.31 12.05
12/12/2020 6:15:00 AM 5.98 42.764 0.536 9.44 63.04 12.03
12/12/2020 6:30:00 AM 5.97 42.746 0.537 9.44 62.15 12.02
12/12/2020 6:45:00 AM 5.97 42.746 0.537 9.44 47.59 12
12/12/2020 7:00:00 AM 5.96 42.728 0.537 9.44 60.09 11.98
12/12/2020 7:15:00 AM 5.95 42.71 0.537 9.44 60.88 11.95
12/12/2020 7:30:00 AM 5.94 42.692 0.537 9.44 61.41 11.95
12/12/2020 7:45:00 AM 5.93 42.674 0.537 9.44 54.08 11.95
12/12/2020 8:00:00 AM 5.93 42.674 0.537 9.44 52.28 11.94
12/12/2020 8:15:00 AM 5.93 42.674 0.537 9.45 62.82 11.97
12/12/2020 8:30:00 AM 5.94 42.692 0.537 9.45 51.53 12.01
12/12/2020 8:45:00 AM 5.93 42.674 0.537 9.45 49.8 12
12/12/2020 9:00:00 AM 5.93 42.674 0.537 9.44 75.67 11.99
12/12/2020 9:15:00 AM 5.93 42.674 0.537 9.44 61.29 11.96
12/12/2020 9:30:00 AM 5.93 42.674 0.537 9.44 54.78 12.03
12/12/2020 9:45:00 AM 5.94 42.692 0.537 9.44 65.35 12.05
12/12/2020 10:00:00 AM 5.94 42.692 0.537 9.44 62.76 12.04
12/12/2020 10:15:00 AM 5.94 42.692 0.537 9.44 70.01 12.02
12/12/2020 10:30:00 AM 5.94 42.692 0.536 9.43 54.11 12.03
12/12/2020 10:45:00 AM 5.95 42.71 0.536 9.43 55.96 12.05
12/12/2020 11:00:00 AM 5.97 42.746 0.536 9.43 57.48 12.11
12/12/2020 11:15:00 AM 6 42.8 0.536 9.44 61.88 12.11
12/12/2020 11:30:00 AM 6.02 42.836 0.536 9.44 56.58 12.14
12/12/2020 11:45:00 AM 6.04 42.872 0.535 9.44 54.24 12.16
12/12/2020 12:00:00 PM 6.05 42.89 0.535 9.44 54.49 12.12
12/12/2020 12:15:00 PM 6.06 42.908 0.535 9.44 59.69 12.13
12/12/2020 12:30:00 PM 6.08 42.944 0.535 9.43 55.22 12.16
12/12/2020 12:45:00 PM 6.1 42.98 0.535 9.44 61.82 12.21
12/12/2020 1:00:00 PM 6.13 43.034 0.534 9.44 61.02 12.21
12/12/2020 1:15:00 PM 6.17 43.106 0.534 9.45 56.96 12.2
12/12/2020 1:30:00 PM 6.18 43.124 0.534 9.44 53.14 12.17
12/12/2020 1:45:00 PM 6.19 43.142 0.534 9.44 51.75 12.18
12/12/2020 2:00:00 PM 6.21 43.178 0.534 9.44 63.99 12.21
12/12/2020 2:15:00 PM 6.2 43.16 0.534 9.44 59.38 12.16
12/12/2020 2:30:00 PM 6.21 43.178 0.534 9.44 59.64 12.16
12/12/2020 2:45:00 PM 6.24 43.232 0.534 9.44 61.33 12.22
12/12/2020 3:00:00 PM 6.24 43.232 0.534 9.44 63.3 12.19
12/12/2020 3:15:00 PM 6.21 43.178 0.534 9.43 62.97 12.1
12/12/2020 3:30:00 PM 6.22 43.196 0.535 9.42 63.57 12.09
12/12/2020 3:45:00 PM 6.23 43.214 0.535 9.42 56.46 12.05
12/12/2020 4:00:00 PM 6.25 43.25 0.535 9.41 61.64 12.05
12/12/2020 4:15:00 PM 6.24 43.232 0.535 9.41 55.15 12.03
12/12/2020 4:30:00 PM 6.24 43.232 0.535 9.4 48.79 11.94
12/12/2020 4:45:00 PM 6.24 43.232 0.535 9.4 55.1 11.97
12/12/2020 5:00:00 PM 6.24 43.232 0.535 9.39 67.31 12.01
12/12/2020 5:15:00 PM 6.24 43.232 0.536 9.39 63.22 12.01
12/12/2020 5:30:00 PM 6.24 43.232 0.536 9.39 64 12.02
12/12/2020 5:45:00 PM 6.25 43.25 0.536 9.38 65.22 12.02
12/12/2020 6:00:00 PM 6.26 43.268 0.537 9.38 60.82 12.02
12/12/2020 6:15:00 PM 6.28 43.304 0.537 9.38 60.46 12.02
12/12/2020 6:30:00 PM 6.3 43.34 0.538 9.38 76.31 12.03
12/12/2020 6:45:00 PM 6.31 43.358 0.538 9.38 53.72 12.04
12/12/2020 7:00:00 PM 6.33 43.394 0.538 9.37 72.48 12.04
12/12/2020 7:15:00 PM 6.36 43.448 0.539 9.37 62.01 12.05
12/12/2020 7:30:00 PM 6.38 43.484 0.539 9.38 71.77 12.05
12/12/2020 7:45:00 PM 6.4 43.52 0.539 9.42 54.85 12.05
12/12/2020 8:00:00 PM 6.43 43.574 0.54 9.44 66.03 12.05
12/12/2020 8:15:00 PM 6.46 43.628 0.54 9.46 72.8 12.06
12/12/2020 8:30:00 PM 6.48 43.664 0.54 9.46 62.4 12.07
12/12/2020 8:45:00 PM 6.52 43.736 0.54 9.47 67.86 12.07
12/12/2020 9:00:00 PM 6.55 43.79 0.54 9.48 63.13 12.07
12/12/2020 9:15:00 PM 6.59 43.862 0.54 9.49 66.67 12.09
12/12/2020 9:30:00 PM 6.62 43.916 0.54 9.49 65.85 12.1
12/12/2020 9:45:00 PM 6.66 43.988 0.539 9.5 67.9 12.11
12/12/2020 10:00:00 PM 6.71 44.078 0.539 9.5 64.23 12.12
12/12/2020 10:15:00 PM 6.75 44.15 0.539 9.51 72.85 12.13
12/12/2020 10:30:00 PM 6.79 44.222 0.539 9.52 67.31 12.14
12/12/2020 10:45:00 PM 6.83 44.294 0.539 9.53 67.57 12.14
12/12/2020 11:00:00 PM 6.87 44.366 0.539 9.53 67.77 12.15
12/12/2020 11:15:00 PM 6.91 44.438 0.538 9.54 74.92 12.17
12/12/2020 11:30:00 PM 6.95 44.51 0.538 9.55 78.72 12.17
12/12/2020 11:45:00 PM 6.99 44.582 0.537 9.56 64.32 12.17
12/13/2020 12:00:00 AM 7.02 44.636 0.537 9.56 63.87 12.18
12/13/2020 12:15:00 AM 7.05 44.69 0.536 9.56 76.43 12.18
12/13/2020 12:30:00 AM 7.08 44.744 0.536 9.57 70.18 12.17
12/13/2020 12:45:00 AM 7.11 44.798 0.535 9.57 70.36 12.15
12/13/2020 1:00:00 AM 7.15 44.87 0.534 9.58 50.42 12.15
12/13/2020 1:15:00 AM 7.18 44.924 0.533 9.58 58.22 12.14
12/13/2020 1:30:00 AM 7.22 44.996 0.533 9.59 70.23 12.12
12/13/2020 1:45:00 AM 7.25 45.05 0.532 9.58 68.86 12.1
12/13/2020 2:00:00 AM 7.27 45.086 0.531 9.58 74.32 12.08
12/13/2020 2:15:00 AM 7.29 45.122 0.531 9.58 64.38 12.04
12/13/2020 2:30:00 AM 7.31 45.158 0.53 9.58 64.63 12.02
12/13/2020 2:45:00 AM 7.31 45.158 0.53 9.58 71.65 11.99
12/13/2020 3:00:00 AM 7.3 45.14 0.53 9.58 65.07 11.96
12/13/2020 3:15:00 AM 7.3 45.14 0.53 9.57 69.77 11.94
12/13/2020 3:30:00 AM 7.3 45.14 0.53 9.56 62.94 11.9
12/13/2020 3:45:00 AM 7.29 45.122 0.53 9.56 63.47 11.86
12/13/2020 4:00:00 AM 7.29 45.122 0.53 9.55 59.14 11.81
12/13/2020 4:15:00 AM 7.29 45.122 0.53 9.55 63.04 11.8
12/13/2020 4:30:00 AM 7.28 45.104 0.531 9.54 74.67 11.76
12/13/2020 4:45:00 AM 7.28 45.104 0.531 9.54 74.86 11.74
12/13/2020 5:00:00 AM 7.28 45.104 0.531 9.54 74.51 11.71
12/13/2020 5:15:00 AM 7.27 45.086 0.532 9.53 61.45 11.68
12/13/2020 5:30:00 AM 7.26 45.068 0.533 9.52 69.01 11.64
12/13/2020 5:45:00 AM 7.25 45.05 0.533 9.52 61.29 11.63
12/13/2020 6:00:00 AM 7.24 45.032 0.534 9.51 76.83 11.61
12/13/2020 6:15:00 AM 7.23 45.014 0.535 9.51 79.29 11.59
12/13/2020 6:30:00 AM 7.23 45.014 0.535 9.5 74.05 11.56
12/13/2020 6:45:00 AM 7.24 45.032 0.536 9.51 65.84 11.54
12/13/2020 7:00:00 AM 7.25 45.05 0.537 9.49 60.66 11.52
12/13/2020 7:15:00 AM 7.25 45.05 0.538 9.5 72.11 11.5
12/13/2020 7:30:00 AM 7.26 45.068 0.538 9.5 83.33 11.51
12/13/2020 7:45:00 AM 7.27 45.086 0.539 9.49 65.15 11.51
12/13/2020 8:00:00 AM 7.27 45.086 0.54 9.5 46.36 11.53
12/13/2020 8:15:00 AM 7.27 45.086 0.541 9.49 48.07 11.54
12/13/2020 8:30:00 AM 7.27 45.086 0.541 9.5 48.98 11.56
12/13/2020 8:45:00 AM 7.29 45.122 0.542 9.5 45.52 11.61
12/13/2020 9:00:00 AM 7.33 45.194 0.542 9.51 42.79 11.65
12/13/2020 9:15:00 AM 7.37 45.266 0.543 9.52 47.05 11.68
12/13/2020 9:30:00 AM 7.4 45.32 0.543 9.53 42.98 11.72
12/13/2020 9:45:00 AM 7.44 45.392 0.543 9.54 42.42 11.77
12/13/2020 10:00:00 AM 7.48 45.464 0.543 9.56 44.66 11.8
12/13/2020 10:15:00 AM 7.48 45.464 0.543 9.56 42.57 11.75
12/13/2020 10:30:00 AM 7.51 45.518 0.543 9.57 45.31 11.78
12/13/2020 10:45:00 AM 7.57 45.626 0.543 9.58 43.67 11.83
12/13/2020 11:00:00 AM 7.62 45.716 0.543 9.59 38.26 11.87
12/13/2020 11:15:00 AM 7.62 45.716 0.542 9.6 44.14 11.81
12/13/2020 11:30:00 AM 7.6 45.68 0.543 9.6 42.7 11.76
12/13/2020 11:45:00 AM 7.61 45.698 0.542 9.61 44.29 11.75
12/13/2020 12:00:00 PM 7.6 45.68 0.542 9.61 37.97 11.73
12/13/2020 12:15:00 PM 7.62 45.716 0.542 9.62 36.22 11.78
12/13/2020 12:30:00 PM 7.63 45.734 0.542 9.62 37.03 11.78
12/13/2020 12:45:00 PM 7.63 45.734 0.541 9.62 41.77 11.78
12/13/2020 1:00:00 PM 7.68 45.824 0.541 9.63 40.82 11.88
12/13/2020 1:15:00 PM 7.69 45.842 0.54 9.65 42.91 11.89
12/13/2020 1:30:00 PM 7.68 45.824 0.54 9.66 42.56 11.86
12/13/2020 1:45:00 PM 7.67 45.806 0.539 9.66 42.28 11.81
12/13/2020 2:00:00 PM 7.68 45.824 0.539 9.66 41.56 11.83
12/13/2020 2:15:00 PM 7.67 45.806 0.539 9.66 40.6 11.83
12/13/2020 2:30:00 PM 7.67 45.806 0.538 9.66 39.72 11.85
12/13/2020 2:45:00 PM 7.67 45.806 0.538 9.66 39.26 11.84
12/13/2020 3:00:00 PM 7.66 45.788 0.537 9.66 38.87 11.83
12/13/2020 3:15:00 PM 7.64 45.752 0.537 9.66 43.28 11.79
12/13/2020 3:30:00 PM 7.63 45.734 0.537 9.65 39.85 11.75
12/13/2020 3:45:00 PM 7.61 45.698 0.537 9.65 42.02 11.74
12/13/2020 4:00:00 PM 7.59 45.662 0.536 9.65 53.9 11.71
12/13/2020 4:15:00 PM 7.57 45.626 0.536 9.65 38.81 11.68
12/13/2020 4:30:00 PM 7.56 45.608 0.535 9.64 39.27 11.65
12/13/2020 4:45:00 PM 7.55 45.59 0.536 9.64 41.05 11.63
12/13/2020 5:00:00 PM 7.53 45.554 0.535 9.63 39.21 11.62
12/13/2020 5:15:00 PM 7.52 45.536 0.536 9.64 39.65 11.62
12/13/2020 5:30:00 PM 7.5 45.5 0.536 9.64 38.92 11.62
12/13/2020 5:45:00 PM 7.48 45.464 0.535 9.64 40.59 11.65
12/13/2020 6:00:00 PM 7.46 45.428 0.536 9.64 41.1 11.65
12/13/2020 6:15:00 PM 7.44 45.392 0.536 9.64 39.46 11.67
12/13/2020 6:30:00 PM 7.42 45.356 0.536 9.64 40.4 11.69
12/13/2020 6:45:00 PM 7.4 45.32 0.536 9.64 40.06 11.7
12/13/2020 7:00:00 PM 7.38 45.284 0.537 9.65 40.22 11.72
12/13/2020 7:15:00 PM 7.36 45.248 0.537 9.64 41.19 11.74
12/13/2020 7:30:00 PM 7.35 45.23 0.537 9.64 40.64 11.76
12/13/2020 7:45:00 PM 7.34 45.212 0.538 9.64 40.85 11.77
12/13/2020 8:00:00 PM 7.34 45.212 0.538 9.65 41 11.78
12/13/2020 8:15:00 PM 7.33 45.194 0.539 9.66 39.98 11.79
12/13/2020 8:30:00 PM 7.34 45.212 0.539 9.66 41.15 11.82
12/13/2020 8:45:00 PM 7.35 45.23 0.539 9.67 41.94 11.83
12/13/2020 9:00:00 PM 7.37 45.266 0.54 9.67 41.74 11.86
12/13/2020 9:15:00 PM 7.38 45.284 0.54 9.68 42.08 11.87
12/13/2020 9:30:00 PM 7.39 45.302 0.541 9.68 41.83 11.9
12/13/2020 9:45:00 PM 7.4 45.32 0.541 9.7 41.07 11.92
12/13/2020 10:00:00 PM 7.42 45.356 0.541 9.7 41.32 11.94
12/13/2020 10:15:00 PM 7.44 45.392 0.542 9.72 41.64 11.96
12/13/2020 10:30:00 PM 7.47 45.446 0.542 9.73 41.43 11.99
12/13/2020 10:45:00 PM 7.5 45.5 0.542 9.74 41.2 12.01
12/13/2020 11:00:00 PM 7.51 45.518 0.542 9.75 41.12 12.03
12/13/2020 11:15:00 PM 7.52 45.536 0.542 9.76 42.37 12.05
12/13/2020 11:30:00 PM 7.54 45.572 0.543 9.78 40.89 12.07
12/13/2020 11:45:00 PM 7.55 45.59 0.542 9.79 41.84 12.09
12/14/2020 12:00:00 AM 7.57 45.626 0.542 9.8 42.09 12.1
12/14/2020 12:15:00 AM 7.59 45.662 0.542 9.8 42.71 12.11
12/14/2020 12:30:00 AM 7.59 45.662 0.542 9.81 42.24 12.12
12/14/2020 12:45:00 AM 7.6 45.68 0.541 9.83 42.57 12.12
12/14/2020 1:00:00 AM 7.62 45.716 0.541 9.84 42.48 12.12
12/14/2020 1:15:00 AM 7.62 45.716 0.54 9.85 41.72 12.11
12/14/2020 1:30:00 AM 7.61 45.698 0.54 9.85 43.48 12.11
12/14/2020 1:45:00 AM 7.62 45.716 0.539 9.86 42.4 12.1
12/14/2020 2:00:00 AM 7.61 45.698 0.538 9.86 42.5 12.08
12/14/2020 2:15:00 AM 7.6 45.68 0.538 9.86 43.62 12.07
12/14/2020 2:30:00 AM 7.58 45.644 0.537 9.87 44.94 12.04
12/14/2020 2:45:00 AM 7.56 45.608 0.536 9.86 43.84 12.02
12/14/2020 3:00:00 AM 7.54 45.572 0.536 9.86 42.2 11.99
12/14/2020 3:15:00 AM 7.52 45.536 0.535 9.86 43.84 11.97
12/14/2020 3:30:00 AM 7.5 45.5 0.534 9.86 43.45 11.94
12/14/2020 3:45:00 AM 7.48 45.464 0.534 9.86 44.44 11.92
12/14/2020 4:00:00 AM 7.45 45.41 0.533 9.85 42.46 11.9
12/14/2020 4:15:00 AM 7.43 45.374 0.533 9.85 43.21 11.85
12/14/2020 4:30:00 AM 7.41 45.338 0.533 9.84 44.31 11.83
12/14/2020 4:45:00 AM 7.38 45.284 0.532 9.83 44.07 11.8
12/14/2020 5:00:00 AM 7.36 45.248 0.532 9.82 43.01 11.77
12/14/2020 5:15:00 AM 7.34 45.212 0.532 9.81 44.73 11.74
12/14/2020 5:30:00 AM 7.32 45.176 0.532 9.81 44.75 11.71
12/14/2020 5:45:00 AM 7.29 45.122 0.532 9.8 44.51 11.69
12/14/2020 6:00:00 AM 7.27 45.086 0.532 9.79 44.97 11.67
12/14/2020 6:15:00 AM 7.25 45.05 0.532 9.78 43.76 11.65
12/14/2020 6:30:00 AM 7.22 44.996 0.531 9.77 44.06 11.63
12/14/2020 6:45:00 AM 7.19 44.942 0.532 9.76 44.66 11.61
12/14/2020 7:00:00 AM 7.17 44.906 0.532 9.75 44.9 11.59
12/14/2020 7:15:00 AM 7.14 44.852 0.532 9.74 45.29 11.57
12/14/2020 7:30:00 AM 7.12 44.816 0.532 9.72 45.46 11.56
12/14/2020 7:45:00 AM 7.09 44.762 0.533 9.72 46.44 11.56
12/14/2020 8:00:00 AM 7.07 44.726 0.533 9.71 45.31 11.55
12/14/2020 8:15:00 AM 7.04 44.672 0.534 9.7 46.32 11.55
12/14/2020 8:30:00 AM 7.02 44.636 0.534 9.7 45.54 11.55
12/14/2020 8:45:00 AM 6.98 44.564 0.534 9.69 47.37 11.55
12/14/2020 9:00:00 AM 6.95 44.51 0.534 9.69 45.54 11.56
12/14/2020 9:15:00 AM 6.92 44.456 0.534 9.67 46.02 11.56
12/14/2020 9:30:00 AM 6.86 44.348 0.534 9.66 46.21 11.57
12/14/2020 9:45:00 AM 6.83 44.294 0.535 9.66 45.86 11.59
12/14/2020 10:00:00 AM 6.8 44.24 0.535 9.65 47.17 11.59
12/14/2020 10:15:00 AM 6.77 44.186 0.535 9.63 46.16 11.6
12/14/2020 10:30:00 AM 6.75 44.15 0.536 9.62 47.81 11.61
12/14/2020 10:45:00 AM 6.72 44.096 0.536 9.62 46.57 11.61
12/14/2020 11:00:00 AM 6.65 43.97 0.536 9.61 46.23 11.61
12/14/2020 11:15:00 AM 6.59 43.862 0.536 9.6 47.57 11.64
12/14/2020 11:30:00 AM 6.56 43.808 0.537 9.59 46.28 11.67
12/14/2020 11:45:00 AM 6.53 43.754 0.537 9.58 47.91 11.7
12/14/2020 12:00:00 PM 6.5 43.7 0.537 9.57 46.07 11.7
12/14/2020 12:15:00 PM 6.47 43.646 0.537 9.57 46.89 11.7
12/14/2020 12:30:00 PM 6.44 43.592 0.537 9.56 47.08 11.68
12/14/2020 12:45:00 PM 6.42 43.556 0.537 9.55 48.6 11.7
12/14/2020 1:00:00 PM 6.37 43.466 0.537 9.55 48.57 11.72
12/14/2020 1:15:00 PM 6.35 43.43 0.536 9.53 48.99 11.76
12/14/2020 1:30:00 PM 6.35 43.43 0.537 9.54 48.05 11.85
12/14/2020 1:45:00 PM 6.35 43.43 0.536 9.54 48.82 11.86
12/14/2020 2:00:00 PM 6.33 43.394 0.536 9.53 49.01 11.8
12/14/2020 2:15:00 PM 6.31 43.358 0.536 9.52 46.89 11.78
12/14/2020 2:30:00 PM 6.3 43.34 0.536 9.52 48.17 11.8
12/14/2020 2:45:00 PM 6.3 43.34 0.536 9.51 49.16 11.88
12/14/2020 3:00:00 PM 6.32 43.376 0.535 9.51 48.37 11.92
12/14/2020 3:15:00 PM 6.32 43.376 0.535 9.52 47.32 11.91
12/14/2020 3:30:00 PM 6.31 43.358 0.535 9.52 50.15 11.9
12/14/2020 3:45:00 PM 6.3 43.34 0.534 9.5 47.71 11.84
12/14/2020 4:00:00 PM 6.28 43.304 0.534 9.51 50.54 11.84
12/14/2020 4:15:00 PM 6.28 43.304 0.534 9.5 47.09 11.82
12/14/2020 4:30:00 PM 6.27 43.286 0.534 9.5 49.23 11.8
12/14/2020 4:45:00 PM 6.25 43.25 0.533 9.49 47.06 11.81
12/14/2020 5:00:00 PM 6.23 43.214 0.533 9.5 48.18 11.82
12/14/2020 5:15:00 PM 6.2 43.16 0.533 9.49 46.39 11.84
12/14/2020 5:30:00 PM 6.17 43.106 0.532 9.49 46.65 11.86
12/14/2020 5:45:00 PM 6.15 43.07 0.532 9.48 45.74 11.89
12/14/2020 6:00:00 PM 6.11 42.998 0.531 9.48 46.5 11.92
12/14/2020 6:15:00 PM 6.09 42.962 0.531 9.49 47.03 11.93
12/14/2020 6:30:00 PM 6.05 42.89 0.531 9.48 44.91 11.96
12/14/2020 6:45:00 PM 6.03 42.854 0.531 9.49 45.67 11.98
12/14/2020 7:00:00 PM 6 42.8 0.531 9.49 47.33 12.01
12/14/2020 7:15:00 PM 5.97 42.746 0.53 9.49 46.82 12.02
12/14/2020 7:30:00 PM 5.94 42.692 0.528 9.5 46.1 12.05
12/14/2020 7:45:00 PM 5.92 42.656 0.526 9.49 46.21 12.08
12/14/2020 8:00:00 PM 5.89 42.602 0.523 9.5 45.73 12.11
12/14/2020 8:15:00 PM 5.87 42.566 0.521 9.49 45.56 12.14
12/14/2020 8:30:00 PM 5.84 42.512 0.518 9.49 45.53 12.18
12/14/2020 8:45:00 PM 5.81 42.458 0.515 9.51 46.17 12.22
12/14/2020 9:00:00 PM 5.77 42.386 0.513 9.51 45.4 12.26
12/14/2020 9:15:00 PM 5.75 42.35 0.511 9.51 44.38 12.3
12/14/2020 9:30:00 PM 5.72 42.296 0.508 9.51 44.36 12.34
12/14/2020 9:45:00 PM 5.7 42.26 0.507 9.51 44.54 12.36
12/14/2020 10:00:00 PM 5.67 42.206 0.505 9.5 44.64 12.38
12/14/2020 10:15:00 PM 5.65 42.17 0.505 9.5 43.13 12.39
12/14/2020 10:30:00 PM 5.63 42.134 0.504 9.51 43.06 12.4
12/14/2020 10:45:00 PM 5.61 42.098 0.504 9.51 42.28 12.4
12/14/2020 11:00:00 PM 5.57 42.026 0.504 9.51 41.4 12.39
12/14/2020 11:15:00 PM 5.53 41.954 0.505 9.5 41.92 12.39
12/14/2020 11:30:00 PM 5.5 41.9 0.506 9.49 42.73 12.38
12/14/2020 11:45:00 PM 5.46 41.828 0.508 9.48 41.62 12.38
12/15/2020 12:00:00 AM 5.42 41.756 0.51 9.48 41.18 12.38
12/15/2020 12:15:00 AM 5.38 41.684 0.512 9.47 40.36 12.38
12/15/2020 12:30:00 AM 5.35 41.63 0.513 9.46 39.2 12.37
12/15/2020 12:45:00 AM 5.31 41.558 0.515 9.45 41.08 12.37
12/15/2020 1:00:00 AM 5.28 41.504 0.515 9.44 41.78 12.36
12/15/2020 1:15:00 AM 5.25 41.45 0.516 9.44 43.37 12.38
12/15/2020 1:30:00 AM 5.21 41.378 0.517 9.44 44.82 12.38
12/15/2020 1:45:00 AM 5.16 41.288 0.516 9.43 41.9 12.38
12/15/2020 2:00:00 AM 5.11 41.198 0.516 9.43 35.63 12.38
12/15/2020 2:15:00 AM 5.07 41.126 0.515 9.42 33.47 12.4
12/15/2020 2:30:00 AM 5.02 41.036 0.514 9.42 35.07 12.41
12/15/2020 2:45:00 AM 4.97 40.946 0.512 9.41 37.94 12.42
12/15/2020 3:00:00 AM 4.92 40.856 0.509 9.4 37.03 12.43
12/15/2020 3:15:00 AM 4.87 40.766 0.507 9.4 36.11 12.45
12/15/2020 3:30:00 AM 4.82 40.676 0.506 9.39 37.07 12.46
12/15/2020 3:45:00 AM 4.77 40.586 0.436 9.38 36.15 12.48
12/15/2020 4:00:00 AM 4.72 40.496 0.502 9.38 35.96 12.48
12/15/2020 4:15:00 AM 4.67 40.406 0.48 9.37 36 12.49
12/15/2020 4:30:00 AM 4.63 40.334 0.499 9.37 36.06 12.5
12/15/2020 4:45:00 AM 4.6 40.28 0.438 9.36 36.51 12.51
12/15/2020 5:00:00 AM 4.56 40.208 0.426 9.36 36.57 12.52
12/15/2020 5:15:00 AM 4.53 40.154 0.494 9.35 37.89 12.51
12/15/2020 5:30:00 AM 4.49 40.082 0.371 9.35 34.93 12.54
12/15/2020 5:45:00 AM 4.45 40.01 0.376 9.34 35.96 12.54
12/15/2020 6:00:00 AM 4.42 39.956 0.391 9.34 36.35 12.55
12/15/2020 6:15:00 AM 4.38 39.884 0.408 9.33 36.58 12.56
12/15/2020 6:30:00 AM 4.34 39.812 0.424 9.32 37.01 12.57
12/15/2020 6:45:00 AM 4.31 39.758 0.378 9.32 37.09 12.59
12/15/2020 7:00:00 AM 4.27 39.686 0.393 9.31 37 12.6
12/15/2020 7:15:00 AM 4.24 39.632 0.373 9.3 36.34 12.61
12/15/2020 7:30:00 AM 4.21 39.578 0.375 9.3 36.33 12.63
12/15/2020 7:45:00 AM 4.18 39.524 0.453 9.3 37.09 12.66
12/15/2020 8:00:00 AM 4.16 39.488 0.448 9.29 38.03 12.68
12/15/2020 8:15:00 AM 4.13 39.434 0.376 9.28 36.59 12.72
12/15/2020 8:30:00 AM 4.11 39.398 0.351 9.29 36.39 12.75
12/15/2020 8:45:00 AM 4.09 39.362 0.367 9.28 38.13 12.77
12/15/2020 9:00:00 AM 4.07 39.326 0.437 9.28 37.32 12.79
12/15/2020 9:15:00 AM 4.08 39.344 0.351 9.27 37.17 12.87
12/15/2020 9:30:00 AM 4.1 39.38 0.387 9.28 37.77 12.91
12/15/2020 9:45:00 AM 4.1 39.38 0.333 9.28 36.15 12.92
12/15/2020 10:00:00 AM 4.1 39.38 0.332 9.28 37.74 12.94
12/15/2020 10:15:00 AM 4.08 39.344 0.352 9.28 38.22 12.94
12/15/2020 10:30:00 AM 4.08 39.344 0.351 9.27 37.09 12.97
12/15/2020 10:45:00 AM 4.09 39.362 0.346 9.28 38.2 13
12/15/2020 11:00:00 AM 4.11 39.398 0.328 9.28 36.41 13.02
12/15/2020 11:15:00 AM -99999.99 -179968 -99999.99 -99999.99 -99999.99 -99999.99
12/15/2020 11:30:00 AM -99999.99 -179968 -99999.99 -99999.99 -99999.99 -99999.99
12/15/2020 11:45:00 AM -99999.99 -179968 -99999.99 -99999.99 -99999.99 -99999.99
12/15/2020 12:00:00 PM -99999.99 -179968 -99999.99 -99999.99 -99999.99 -99999.99
12/15/2020 12:15:00 PM -99999.99 -179968 -99999.99 -99999.99 -99999.99 -99999.99
12/15/2020 12:30:00 PM -99999.99 -179968 -99999.99 -99999.99 -99999.99 -99999.99
12/15/2020 12:45:00 PM -99999.99 -179968 -99999.99 -99999.99 -99999.99 -99999.99
12/15/2020 1:00:00 PM -99999.99 -179968 -99999.99 -99999.99 -99999.99 -99999.99
12/15/2020 1:15:00 PM -99999.99 -179968 -99999.99 -99999.99 -99999.99 -99999.99
12/15/2020 1:30:00 PM -99999.99 -179968 -99999.99 -99999.99 -99999.99 -99999.99
12/15/2020 1:45:00 PM -99999.99 -179968 -99999.99 -99999.99 -99999.99 -99999.99
12/15/2020 2:00:00 PM -99999.99 -179968 -99999.99 -99999.99 -99999.99 -99999.99
12/15/2020 2:15:00 PM 4.26 39.668 0.447 8.56 4.37 12.94
12/15/2020 2:30:00 PM 4.29 39.722 0.447 8.41 4.34 12.96
12/15/2020 2:45:00 PM 4.32 39.776 0.447 8.32 4.25 12.96
12/15/2020 3:00:00 PM 4.34 39.812 0.447 8.27 4.23 12.97
12/15/2020 3:15:00 PM 4.37 39.866 0.447 8.24 4.25 12.98
12/15/2020 3:30:00 PM 4.39 39.902 0.446 8.22 4.16 12.99
12/15/2020 3:45:00 PM 4.4 39.92 0.446 8.2 4.18 13
12/15/2020 4:00:00 PM 4.41 39.938 0.445 8.19 4.21 13
12/15/2020 4:15:00 PM 4.42 39.956 0.445 8.17 4.16 13.01
12/15/2020 4:30:00 PM 4.41 39.938 0.444 8.16 4.15 13.02
12/15/2020 4:45:00 PM 4.4 39.92 0.443 8.15 4.04 13.03
12/15/2020 5:00:00 PM 4.39 39.902 0.442 8.15 4.15 13.05
12/15/2020 5:15:00 PM 4.39 39.902 0.442 8.14 4.09 13.08
12/15/2020 5:30:00 PM 4.39 39.902 0.441 8.15 4.23 13.1
12/15/2020 5:45:00 PM 4.39 39.902 0.44 8.14 4.15 13.12
12/15/2020 6:00:00 PM 4.4 39.92 0.439 8.14 4.25 13.14
12/15/2020 6:15:00 PM 4.41 39.938 0.439 8.14 4.28 13.15
12/15/2020 6:30:00 PM 4.41 39.938 0.438 8.15 4.07 13.17
12/15/2020 6:45:00 PM 4.42 39.956 0.437 8.14 4.24 13.17
12/15/2020 7:00:00 PM 4.44 39.992 0.437 8.15 4.25 13.18
12/15/2020 7:15:00 PM 4.45 40.01 0.436 8.15 4.26 13.19
12/15/2020 7:30:00 PM 4.46 40.028 0.435 8.16 4.26 13.19
12/15/2020 7:45:00 PM 4.47 40.046 0.434 8.15 4.42 13.2
12/15/2020 8:00:00 PM 4.48 40.064 0.434 8.15 4.41 13.2
12/15/2020 8:15:00 PM 4.48 40.064 0.433 8.15 4.4 13.19
12/15/2020 8:30:00 PM 4.49 40.082 0.432 8.16 4.42 13.2
12/15/2020 8:45:00 PM 4.5 40.1 0.432 8.16 4.41 13.2
12/15/2020 9:00:00 PM 4.49 40.082 0.431 8.16 4.6 13.19
12/15/2020 9:15:00 PM 4.49 40.082 0.431 8.16 4.54 13.19
12/15/2020 9:30:00 PM 4.49 40.082 0.43 8.16 4.45 13.19
12/15/2020 9:45:00 PM 4.48 40.064 0.43 8.15 4.51 13.18
12/15/2020 10:00:00 PM 4.47 40.046 0.43 8.15 4.64 13.17
12/15/2020 10:15:00 PM 4.46 40.028 0.429 8.16 4.55 13.17
12/15/2020 10:30:00 PM 4.44 39.992 0.429 8.16 4.53 13.16
12/15/2020 10:45:00 PM 4.43 39.974 0.429 8.15 4.65 13.14
12/15/2020 11:00:00 PM 4.42 39.956 0.429 8.15 4.6 13.12
12/15/2020 11:15:00 PM 4.4 39.92 0.43 8.14 4.74 13.1
12/15/2020 11:30:00 PM 4.38 39.884 0.43 8.13 4.57 13.08
12/15/2020 11:45:00 PM 4.36 39.848 0.43 8.12 4.69 13.06
12/16/2020 12:00:00 AM 4.34 39.812 0.43 8.11 4.64 13.04
12/16/2020 12:15:00 AM 4.32 39.776 0.431 8.1 4.73 13
12/16/2020 12:30:00 AM 4.29 39.722 0.431 8.09 4.94 12.98
12/16/2020 12:45:00 AM 4.27 39.686 0.432 8.08 4.62 12.96
12/16/2020 1:00:00 AM 4.24 39.632 0.432 8.08 4.77 12.94
12/16/2020 1:15:00 AM 4.21 39.578 0.433 8.07 4.62 12.92
12/16/2020 1:30:00 AM 4.19 39.542 0.433 8.06 4.79 12.9
12/16/2020 1:45:00 AM 4.16 39.488 0.434 8.06 4.78 12.88
12/16/2020 2:00:00 AM 4.14 39.452 0.435 8.04 4.86 12.86
12/16/2020 2:15:00 AM 4.12 39.416 0.435 8.03 4.71 12.85
12/16/2020 2:30:00 AM 4.09 39.362 0.436 8.02 4.8 12.82
12/16/2020 2:45:00 AM 4.06 39.308 0.436 8.01 4.93 12.82
12/16/2020 3:00:00 AM 4.03 39.254 0.437 8.01 4.88 12.8
12/16/2020 3:15:00 AM 4 39.2 0.437 8 4.85 12.79
12/16/2020 3:30:00 AM 3.98 39.164 0.438 7.99 5.02 12.77
12/16/2020 3:45:00 AM 3.95 39.11 0.438 8 4.9 12.77
12/16/2020 4:00:00 AM 3.92 39.056 0.438 7.98 5.07 12.75
12/16/2020 4:15:00 AM 3.89 39.002 0.439 7.98 5.04 12.74
12/16/2020 4:30:00 AM 3.87 38.966 0.439 7.97 4.96 12.74
12/16/2020 4:45:00 AM 3.83 38.894 0.439 7.97 5.01 12.72
12/16/2020 5:00:00 AM 3.81 38.858 0.439 7.96 5.18 12.71
12/16/2020 5:15:00 AM 3.78 38.804 0.44 7.95 5.13 12.7
12/16/2020 5:30:00 AM 3.76 38.768 0.44 7.95 4.92 12.69
12/16/2020 5:45:00 AM 3.73 38.714 0.44 7.94 5.1 12.69
12/16/2020 6:00:00 AM 3.71 38.678 0.441 7.93 5 12.68
12/16/2020 6:15:00 AM 3.68 38.624 0.441 7.92 5.01 12.68
12/16/2020 6:30:00 AM 3.66 38.588 0.442 7.91 5.16 12.68
12/16/2020 6:45:00 AM 3.63 38.534 0.443 7.91 5.15 12.68
12/16/2020 7:00:00 AM 3.61 38.498 0.443 7.91 5.12 12.68
12/16/2020 7:15:00 AM 3.58 38.444 0.444 7.9 5.05 12.67
12/16/2020 7:30:00 AM 3.56 38.408 0.445 7.9 5.02 12.67
12/16/2020 7:45:00 AM 3.54 38.372 0.446 7.89 5.13 12.68
12/16/2020 8:00:00 AM 3.52 38.336 0.446 7.89 5.01 12.69
12/16/2020 8:15:00 AM 3.5 38.3 0.447 7.89 5.15 12.69
12/16/2020 8:30:00 AM 3.49 38.282 0.448 7.88 6.8 12.71
12/16/2020 8:45:00 AM 3.46 38.228 0.449 7.88 6.71 12.72
12/16/2020 9:00:00 AM 3.45 38.21 0.449 7.88 5.07 12.74
12/16/2020 9:15:00 AM 3.43 38.174 0.449 7.88 4.78 12.75
12/16/2020 9:30:00 AM 3.42 38.156 0.451 7.87 4.67 12.79
12/16/2020 9:45:00 AM 3.4 38.12 0.451 7.87 4.53 12.77
12/16/2020 10:00:00 AM 3.39 38.102 0.452 7.87 4.56 12.77
12/16/2020 10:15:00 AM 3.37 38.066 0.444 7.87 4.53 12.79
12/16/2020 10:30:00 AM 3.36 38.048 0.449 7.87 4.5 12.81
12/16/2020 10:45:00 AM 3.35 38.03 0.451 7.87 4.43 12.82
12/16/2020 11:00:00 AM 3.33 37.994 0.454 7.87 4.44 12.86
12/16/2020 11:15:00 AM 3.32 37.976 0.455 7.87 4.41 12.84
12/16/2020 11:30:00 AM 3.3 37.94 0.456 7.86 4.32 12.81
12/16/2020 11:45:00 AM 3.27 37.886 0.457 7.87 4.22 12.82
12/16/2020 12:00:00 PM 3.22 37.796 0.457 7.87 4.36 12.87
12/16/2020 12:15:00 PM 3.19 37.742 0.458 7.86 4.3 12.86
12/16/2020 12:30:00 PM 3.17 37.706 0.459 7.86 4.1 12.88
12/16/2020 12:45:00 PM 3.14 37.652 0.459 7.86 4.19 12.95
12/16/2020 1:00:00 PM 3.14 37.652 0.46 7.86 4.08 12.99
12/16/2020 1:15:00 PM 3.14 37.652 0.461 7.86 4.19 12.98
12/16/2020 1:30:00 PM 3.14 37.652 0.459 7.86 4.02 12.97
12/16/2020 1:45:00 PM 3.11 37.598 0.462 7.86 4.04 12.95
12/16/2020 2:00:00 PM 3.05 37.49 0.463 7.86 4.15 12.93
12/16/2020 2:15:00 PM 2.99 37.382 0.463 7.85 3.98 12.94
12/16/2020 2:30:00 PM 2.93 37.274 0.463 7.85 4.03 12.94
12/16/2020 2:45:00 PM 2.88 37.184 0.463 7.85 3.9 12.94
12/16/2020 3:00:00 PM 2.85 37.13 0.464 7.84 3.99 12.95
12/16/2020 3:15:00 PM 2.81 37.058 0.464 7.83 3.9 12.95
12/16/2020 3:30:00 PM 2.74 36.932 0.461 7.85 4.01 12.95
12/16/2020 3:45:00 PM 2.69 36.842 0.465 7.83 3.88 12.97
12/16/2020 4:00:00 PM 2.64 36.752 0.465 7.83 4.06 12.98
12/16/2020 4:15:00 PM 2.5 36.5 0.465 7.83 3.97 12.99
12/16/2020 4:30:00 PM 2.39 36.302 0.466 7.82 3.93 13.01
12/16/2020 4:45:00 PM 2.35 36.23 0.466 7.82 3.91 13.02
12/16/2020 5:00:00 PM 2.33 36.194 0.468 7.81 3.85 13.04
12/16/2020 5:15:00 PM 2.3 36.14 0.469 7.81 3.73 13.05
12/16/2020 5:30:00 PM 2.29 36.122 0.47 7.81 3.7 13.06
12/16/2020 5:45:00 PM 2.23 36.014 0.471 7.81 3.64 13.08
12/16/2020 6:00:00 PM 2.27 36.086 0.473 7.81 4.47 13.1
12/16/2020 6:15:00 PM 2.28 36.104 0.475 7.81 18.18 13.12
12/16/2020 6:30:00 PM 2.25 36.05 0.476 7.81 18.03 13.14
12/16/2020 6:45:00 PM 2.2 35.96 0.477 7.82 18.12 13.16
12/16/2020 7:00:00 PM 2.2 35.96 0.479 7.81 17.14 13.18
12/16/2020 7:15:00 PM 2.13 35.834 0.48 7.82 4.76 13.21
12/16/2020 7:30:00 PM 2.05 35.69 0.481 7.81 11.13 13.22
12/16/2020 7:45:00 PM 1.96 35.528 0.482 7.82 79.1 13.24
12/16/2020 8:00:00 PM 1.91 35.438 0.484 7.81 6.35 13.27
12/16/2020 8:15:00 PM 1.93 35.474 0.485 7.82 7.01 13.29
12/16/2020 8:30:00 PM 1.94 35.492 0.486 7.82 7.84 13.31
12/16/2020 8:45:00 PM 1.87 35.366 0.487 7.83 3.28 13.33
12/16/2020 9:00:00 PM 1.83 35.294 0.489 7.82 3.23 13.35
12/16/2020 9:15:00 PM 1.85 35.33 0.49 7.83 21.64 13.38
12/16/2020 9:30:00 PM 1.83 35.294 0.491 7.82 27.56 13.39
12/16/2020 9:45:00 PM 1.76 35.168 0.492 7.82 24.69 13.42
12/16/2020 10:00:00 PM 1.7 35.06 0.493 7.82 12.86 13.44
12/16/2020 10:15:00 PM 1.65 34.97 0.494 7.82 3.22 13.47
12/16/2020 10:30:00 PM 1.6 34.88 0.494 7.83 3.75 13.48
12/16/2020 10:45:00 PM 1.44 34.592 0.494 7.83 3.46 13.5
12/16/2020 11:00:00 PM 1.3 34.34 0.494 7.82 3.32 13.53
12/16/2020 11:15:00 PM 1.2 34.16 0.495 7.81 3.39 13.55
12/16/2020 11:30:00 PM 1.23 34.214 0.496 7.8 3.51 13.57
12/16/2020 11:45:00 PM 1.17 34.106 0.497 7.8 3.52 13.58
12/17/2020 12:00:00 AM 1.13 34.034 0.498 7.79 3.36 13.6
12/17/2020 12:15:00 AM 1.06 33.908 0.498 7.8 3.37 13.62
12/17/2020 12:30:00 AM 0.97 33.746 0.499 7.79 3.37 13.64
12/17/2020 12:45:00 AM 0.93 33.674 0.499 7.78 3.38 13.64
12/17/2020 1:00:00 AM 0.88 33.584 0.498 7.78 3.43 13.64
12/17/2020 1:15:00 AM 0.77 33.386 0.497 7.77 3.44 13.64
12/17/2020 1:30:00 AM 0.75 33.35 0.497 7.76 3.32 13.65
12/17/2020 1:45:00 AM 0.71 33.278 0.496 7.76 3.29 13.66
12/17/2020 2:00:00 AM 0.64 33.152 0.496 7.75 3.2 13.66
12/17/2020 2:15:00 AM 0.61 33.098 0.495 7.73 3.21 13.67
12/17/2020 2:30:00 AM 0.57 33.026 0.495 7.73 3.11 13.67
12/17/2020 2:45:00 AM 0.53 32.954 0.494 7.72 3.15 13.68
12/17/2020 3:00:00 AM 0.52 32.936 0.494 7.71 3.33 13.67
12/17/2020 3:15:00 AM 0.51 32.918 0.493 7.71 3.26 13.66
12/17/2020 3:30:00 AM 0.5 32.9 0.493 7.71 3.25 13.67
12/17/2020 3:45:00 AM 0.48 32.864 0.492 7.7 3.16 13.66
12/17/2020 4:00:00 AM 0.47 32.846 0.492 7.7 3.12 13.67
12/17/2020 4:15:00 AM 0.46 32.828 0.491 7.69 3.08 13.67
12/17/2020 4:30:00 AM 0.46 32.828 0.491 7.69 2.95 13.68
12/17/2020 4:45:00 AM 0.45 32.81 0.49 7.69 3.06 13.68
12/17/2020 5:00:00 AM 0.45 32.81 0.49 7.68 2.96 13.67
12/17/2020 5:15:00 AM 0.43 32.774 0.49 7.68 2.85 13.68
12/17/2020 5:30:00 AM 0.42 32.756 0.489 7.67 2.94 13.68
12/17/2020 5:45:00 AM 0.42 32.756 0.489 7.67 3.15 13.68
12/17/2020 6:00:00 AM 0.42 32.756 0.488 7.67 3.02 13.68
12/17/2020 6:15:00 AM 0.42 32.756 0.488 7.66 3.03 13.67
12/17/2020 6:30:00 AM 0.42 32.756 0.488 7.66 2.93 13.68
12/17/2020 6:45:00 AM 0.41 32.738 0.487 7.66 3.06 13.68
12/17/2020 7:00:00 AM 0.4 32.72 0.487 7.66 6.9 13.68
12/17/2020 7:15:00 AM 0.4 32.72 0.487 7.66 20.85 13.68
12/17/2020 7:30:00 AM 0.39 32.702 0.483 7.65 2.43 13.69
12/17/2020 7:45:00 AM 0.4 32.72 0.484 7.66 2.42 13.71
12/17/2020 8:00:00 AM 0.4 32.72 0.485 7.65 2.42 13.73
12/17/2020 8:15:00 AM 0.41 32.738 0.485 7.65 2.35 13.75
12/17/2020 8:30:00 AM 0.42 32.756 0.478 7.65 2.31 13.76
12/17/2020 8:45:00 AM 0.43 32.774 0.482 7.65 2.27 13.79
12/17/2020 9:00:00 AM 0.44 32.792 0.481 7.66 2.3 13.81
12/17/2020 9:15:00 AM 0.46 32.828 0.482 7.66 2.23 13.84
12/17/2020 9:30:00 AM 0.48 32.864 0.482 7.65 2.27 13.85
12/17/2020 9:45:00 AM 0.51 32.918 0.389 7.66 2.3 13.87
12/17/2020 10:00:00 AM 0.54 32.972 0.437 7.66 2.19 13.87
12/17/2020 10:15:00 AM 0.57 33.026 0.436 7.66 2.23 13.87
12/17/2020 10:30:00 AM 0.6 33.08 0.432 7.66 2.23 13.87
12/17/2020 10:45:00 AM 0.63 33.134 0.426 7.66 2.21 13.88
12/17/2020 11:00:00 AM 0.66 33.188 0.395 7.66 2.18 13.87
12/17/2020 11:15:00 AM 0.68 33.224 0.42 7.66 2.19 13.88
12/17/2020 11:30:00 AM 0.71 33.278 0.415 7.66 2.11 13.89
12/17/2020 11:45:00 AM 0.73 33.314 0.413 7.66 2.18 13.89
12/17/2020 12:00:00 PM 0.73 33.314 0.394 7.67 2.13 13.88
12/17/2020 12:15:00 PM 0.74 33.332 0.38 7.67 2.1 13.88
12/17/2020 12:30:00 PM 0.75 33.35 0.482 7.67 2.01 13.88
12/17/2020 12:45:00 PM 0.75 33.35 0.483 7.67 2.13 13.88
12/17/2020 1:00:00 PM 0.74 33.332 0.484 7.67 2.1 13.87
12/17/2020 1:15:00 PM 0.75 33.35 0.484 7.67 2.2 13.87
12/17/2020 1:30:00 PM 0.74 33.332 0.478 7.67 2.19 13.87
12/17/2020 1:45:00 PM 0.73 33.314 0.485 7.67 2.45 13.86
12/17/2020 2:00:00 PM 0.73 33.314 0.485 7.67 2.46 13.86
12/17/2020 2:15:00 PM 0.73 33.314 0.485 7.67 2.38 13.86
12/17/2020 2:30:00 PM 0.73 33.314 0.485 7.67 2.45 13.86
12/17/2020 2:45:00 PM 0.73 33.314 0.485 7.67 2.46 13.87
12/17/2020 3:00:00 PM 0.73 33.314 0.484 7.67 2.36 13.87
12/17/2020 3:15:00 PM 0.74 33.332 0.484 7.67 2.5 13.87
12/17/2020 3:30:00 PM 0.75 33.35 0.484 7.67 2.48 13.87
12/17/2020 3:45:00 PM 0.75 33.35 0.484 7.67 2.53 13.87
12/17/2020 4:00:00 PM 0.76 33.368 0.484 7.67 2.61 13.88
12/17/2020 4:15:00 PM 0.76 33.368 0.484 7.67 2.66 13.89
12/17/2020 4:30:00 PM 0.75 33.35 0.484 7.67 2.78 13.9
12/17/2020 4:45:00 PM 0.74 33.332 0.485 7.68 2.68 13.91
12/17/2020 5:00:00 PM 0.72 33.296 0.485 7.68 2.71 13.95
12/17/2020 5:15:00 PM 0.71 33.278 0.485 7.68 2.67 13.98
12/17/2020 5:30:00 PM 0.7 33.26 0.485 7.69 2.7 14.02
12/17/2020 5:45:00 PM 0.71 33.278 0.485 7.7 2.56 14.05
12/17/2020 6:00:00 PM 0.7 33.26 0.485 7.71 2.49 14.08
12/17/2020 6:15:00 PM 0.71 33.278 0.485 7.72 2.41 14.11
12/17/2020 6:30:00 PM 0.71 33.278 0.484 7.72 2.29 14.15
12/17/2020 6:45:00 PM 0.71 33.278 0.484 7.73 2.32 14.18
12/17/2020 7:00:00 PM 0.71 33.278 0.483 7.74 2.29 14.2
12/17/2020 7:15:00 PM 0.72 33.296 0.481 7.74 2.33 14.22
12/17/2020 7:30:00 PM 0.74 33.332 0.48 7.76 2.34 14.24
12/17/2020 7:45:00 PM 0.75 33.35 0.479 7.76 2.3 14.26
12/17/2020 8:00:00 PM 0.77 33.386 0.478 7.77 2.32 14.27
12/17/2020 8:15:00 PM 0.78 33.404 0.477 7.77 2.34 14.28
12/17/2020 8:30:00 PM 0.79 33.422 0.476 7.77 2.35 14.28
12/17/2020 8:45:00 PM 0.79 33.422 0.475 7.78 2.36 14.28
12/17/2020 9:00:00 PM 0.79 33.422 0.475 7.79 2.35 14.28
12/17/2020 9:15:00 PM 0.79 33.422 0.474 7.78 2.35 14.28
12/17/2020 9:30:00 PM 0.79 33.422 0.474 7.78 2.42 14.27
12/17/2020 9:45:00 PM 0.8 33.44 0.474 7.79 2.42 14.26
12/17/2020 10:00:00 PM 0.8 33.44 0.474 7.79 2.35 14.25
12/17/2020 10:15:00 PM 0.81 33.458 0.474 7.78 2.35 14.24
12/17/2020 10:30:00 PM 0.81 33.458 0.475 7.78 2.34 14.22
12/17/2020 10:45:00 PM 0.81 33.458 0.475 7.78 2.37 14.21
12/17/2020 11:00:00 PM 0.81 33.458 0.475 7.77 2.37 14.19
12/17/2020 11:15:00 PM 0.81 33.458 0.475 7.77 2.26 14.18
12/17/2020 11:30:00 PM 0.8 33.44 0.476 7.77 2.29 14.16
12/17/2020 11:45:00 PM 0.79 33.422 0.476 7.76 2.35 14.14
12/18/2020 12:00:00 AM 0.79 33.422 0.477 7.76 2.34 14.12
12/18/2020 12:15:00 AM 0.8 33.44 0.478 7.75 2.27 14.1
12/18/2020 12:30:00 AM 0.79 33.422 0.479 7.74 2.34 14.08
12/18/2020 12:45:00 AM 0.79 33.422 0.479 7.74 2.26 14.07
12/18/2020 1:00:00 AM 0.79 33.422 0.48 7.73 2.22 14.04
12/18/2020 1:15:00 AM 0.78 33.404 0.481 7.73 2.23 14.03
12/18/2020 1:30:00 AM 0.77 33.386 0.482 7.73 2.18 14.01
12/18/2020 1:45:00 AM 0.77 33.386 0.482 7.72 2.23 14
12/18/2020 2:00:00 AM 0.76 33.368 0.483 7.71 2.2 13.99
12/18/2020 2:15:00 AM 0.75 33.35 0.484 7.71 2.15 13.98
12/18/2020 2:30:00 AM 0.75 33.35 0.484 7.71 2.22 13.97
12/18/2020 2:45:00 AM 0.74 33.332 0.485 7.71 2.15 13.96
12/18/2020 3:00:00 AM 0.74 33.332 0.485 7.7 2.19 13.95
12/18/2020 3:15:00 AM 0.74 33.332 0.485 7.71 2.22 13.95
12/18/2020 3:30:00 AM 0.75 33.35 0.485 7.7 2.15 13.94
12/18/2020 3:45:00 AM 0.75 33.35 0.485 7.7 2.12 13.93
12/18/2020 4:00:00 AM 0.74 33.332 0.485 7.7 2.21 13.93
12/18/2020 4:15:00 AM 0.74 33.332 0.485 7.7 2.25 13.92
12/18/2020 4:30:00 AM 0.74 33.332 0.485 7.69 2.19 13.92
12/18/2020 4:45:00 AM 0.73 33.314 0.485 7.69 2.29 13.91
12/18/2020 5:00:00 AM 0.73 33.314 0.485 7.69 2.26 13.91
12/18/2020 5:15:00 AM 0.72 33.296 0.484 7.69 2.25 13.91
12/18/2020 5:30:00 AM 0.72 33.296 0.484 7.69 2.32 13.9
12/18/2020 5:45:00 AM 0.72 33.296 0.484 7.7 2.36 13.89
12/18/2020 6:00:00 AM 0.72 33.296 0.484 7.7 2.54 13.89
12/18/2020 6:15:00 AM 0.72 33.296 0.484 7.69 2.44 13.89
12/18/2020 6:30:00 AM 0.72 33.296 0.484 7.69 2.34 13.88
12/18/2020 6:45:00 AM 0.72 33.296 0.484 7.68 2.41 13.88
12/18/2020 7:00:00 AM 0.72 33.296 0.484 7.69 2.35 13.88
12/18/2020 7:15:00 AM 0.72 33.296 0.484 7.69 2.45 13.87
12/18/2020 7:30:00 AM 0.72 33.296 0.484 7.69 2.48 13.87
12/18/2020 7:45:00 AM 0.72 33.296 0.484 7.69 2.35 13.88
12/18/2020 8:00:00 AM 0.72 33.296 0.485 7.69 2.56 13.91
12/18/2020 8:15:00 AM 0.72 33.296 0.459 7.69 2.54 13.93
12/18/2020 8:30:00 AM 0.73 33.314 0.466 7.7 2.6 13.96
12/18/2020 8:45:00 AM 0.73 33.314 0.456 7.7 2.37 13.98
12/18/2020 9:00:00 AM 0.74 33.332 0.485 7.7 2.39 14.01
12/18/2020 9:15:00 AM 0.76 33.368 0.485 7.7 2.4 14.03
12/18/2020 9:30:00 AM 0.77 33.386 0.485 7.7 2.31 14.05
12/18/2020 9:45:00 AM 0.79 33.422 0.484 7.7 2.29 14.06
12/18/2020 10:00:00 AM 0.81 33.458 0.484 7.7 2.22 14.07
12/18/2020 10:15:00 AM 0.84 33.512 0.483 7.7 2.26 14.08
12/18/2020 10:30:00 AM 0.86 33.548 0.48 7.71 2.24 14.09
12/18/2020 10:45:00 AM 0.88 33.584 0.482 7.72 2.25 14.1
12/18/2020 11:00:00 AM 0.9 33.62 0.481 7.72 2.21 14.11
12/18/2020 11:15:00 AM 0.93 33.674 0.48 7.72 3.87 14.12
12/18/2020 11:30:00 AM 0.95 33.71 0.477 7.72 2.17 14.12
12/18/2020 11:45:00 AM 0.98 33.764 0.476 7.72 2.18 14.12
12/18/2020 12:00:00 PM 1.01 33.818 0.462 7.73 2.3 14.13
12/18/2020 12:15:00 PM 1.04 33.872 0.475 7.73 2.34 14.13
12/18/2020 12:30:00 PM 1.07 33.926 0.474 7.73 2.31 14.13
12/18/2020 12:45:00 PM 1.11 33.998 0.473 7.74 2.27 14.14
12/18/2020 1:00:00 PM 1.14 34.052 0.472 7.74 2.28 14.14
12/18/2020 1:15:00 PM 1.16 34.088 0.471 7.74 2.23 14.13
12/18/2020 1:30:00 PM 1.19 34.142 0.47 7.75 2.2 14.12
12/18/2020 1:45:00 PM 1.23 34.214 0.465 7.76 2.28 14.13
12/18/2020 2:00:00 PM 1.25 34.25 0.469 7.75 2.23 14.12
12/18/2020 2:15:00 PM 1.25 34.25 0.47 7.76 2.19 14.06
12/18/2020 2:30:00 PM 1.29 34.322 0.469 7.76 2.27 14.09
12/18/2020 2:45:00 PM 1.32 34.376 0.47 7.76 2.12 14.08
12/18/2020 3:00:00 PM 1.34 34.412 0.469 7.77 2.07 14.07
12/18/2020 3:15:00 PM 1.36 34.448 0.469 7.77 2.09 14.06
12/18/2020 3:30:00 PM 1.37 34.466 0.469 7.77 2.18 14.06
12/18/2020 3:45:00 PM 1.39 34.502 0.464 7.77 2.19 14.05
12/18/2020 4:00:00 PM 1.41 34.538 0.468 7.78 2.17 14.06
12/18/2020 4:15:00 PM 1.43 34.574 0.469 7.78 2.1 14.04
12/18/2020 4:30:00 PM 1.44 34.592 0.469 7.78 2.1 14.03
12/18/2020 4:45:00 PM 1.44 34.592 0.468 7.78 2.15 14.03
12/18/2020 5:00:00 PM 1.46 34.628 0.469 7.79 2.12 14.02
12/18/2020 5:15:00 PM 1.48 34.664 0.468 7.79 2.13 14.02
12/18/2020 5:30:00 PM 1.51 34.718 0.469 7.79 2.18 14.04
12/18/2020 5:45:00 PM 1.54 34.772 0.445 7.8 2.19 14.07
12/18/2020 6:00:00 PM 1.57 34.826 0.468 7.81 2.17 14.09
12/18/2020 6:15:00 PM 1.58 34.844 0.469 7.82 2.21 14.1
12/18/2020 6:30:00 PM 1.6 34.88 0.47 7.82 2.17 14.12
12/18/2020 6:45:00 PM 1.61 34.898 0.47 7.83 2.89 14.14
12/18/2020 7:00:00 PM 1.63 34.934 0.471 7.83 12.23 14.16
12/18/2020 7:15:00 PM 1.65 34.97 0.471 7.84 2.71 14.17
12/18/2020 7:30:00 PM 1.67 35.006 0.472 7.85 2.34 14.17
12/18/2020 7:45:00 PM 1.71 35.078 0.473 7.85 2.46 14.18
12/18/2020 8:00:00 PM 1.73 35.114 0.473 7.86 2.7 14.19
12/18/2020 8:15:00 PM 1.75 35.15 0.474 7.88 2.68 14.2
12/18/2020 8:30:00 PM 1.78 35.204 0.475 7.88 2.72 14.2
12/18/2020 8:45:00 PM 1.79 35.222 0.476 7.88 2.64 14.21
12/18/2020 9:00:00 PM 1.81 35.258 0.476 7.89 2.65 14.2
12/18/2020 9:15:00 PM 1.83 35.294 0.477 7.89 2.75 14.21
12/18/2020 9:30:00 PM 1.85 35.33 0.478 7.9 2.72 14.2
12/18/2020 9:45:00 PM 1.84 35.312 0.478 7.9 2.84 14.2
12/18/2020 10:00:00 PM 1.85 35.33 0.479 7.91 2.89 14.19
12/18/2020 10:15:00 PM 1.84 35.312 0.479 7.9 2.96 14.19
12/18/2020 10:30:00 PM 1.84 35.312 0.479 7.9 3.03 14.18
12/18/2020 10:45:00 PM 1.83 35.294 0.48 7.9 3.17 14.18
12/18/2020 11:00:00 PM 1.82 35.276 0.48 7.9 3.22 14.17
12/18/2020 11:15:00 PM 1.81 35.258 0.48 7.91 2.99 14.16
12/18/2020 11:30:00 PM 1.79 35.222 0.481 7.9 3.13 14.15
12/18/2020 11:45:00 PM 1.77 35.186 0.481 7.9 3.39 14.14
12/19/2020 12:00:00 AM 1.76 35.168 0.481 7.89 3.14 14.13
12/19/2020 12:15:00 AM 1.74 35.132 0.481 7.89 6.29 14.11
12/19/2020 12:30:00 AM 1.72 35.096 0.482 7.89 6.79 14.09
12/19/2020 12:45:00 AM 1.69 35.042 0.482 7.89 7.62 14.08
12/19/2020 1:00:00 AM 1.67 35.006 0.482 7.88 3.28 14.07
12/19/2020 1:15:00 AM 1.65 34.97 0.483 7.87 3.14 14.04
12/19/2020 1:30:00 AM 1.62 34.916 0.483 7.87 3.4 14.03
12/19/2020 1:45:00 AM 1.59 34.862 0.483 7.87 3.36 14.01
12/19/2020 2:00:00 AM 1.56 34.808 0.483 7.86 3.23 13.99
12/19/2020 2:15:00 AM 1.52 34.736 0.483 7.85 3.29 13.97
12/19/2020 2:30:00 AM 1.49 34.682 0.484 7.83 3.4 13.96
12/19/2020 2:45:00 AM 1.46 34.628 0.484 7.83 3.33 13.94
12/19/2020 3:00:00 AM 1.43 34.574 0.484 7.83 3.58 13.93
12/19/2020 3:15:00 AM 1.4 34.52 0.484 7.82 3.18 13.91
12/19/2020 3:30:00 AM 1.36 34.448 0.484 7.81 3.58 13.9
12/19/2020 3:45:00 AM 1.32 34.376 0.484 7.8 3.5 13.89
12/19/2020 4:00:00 AM 1.28 34.304 0.484 7.8 3.53 13.87
12/19/2020 4:15:00 AM 1.25 34.25 0.484 7.79 2.67 13.87
12/19/2020 4:30:00 AM 1.21 34.178 0.483 7.79 2.65 13.86
12/19/2020 4:45:00 AM 1.18 34.124 0.484 7.79 2.65 13.86
12/19/2020 5:00:00 AM 1.14 34.052 0.484 7.78 2.68 13.86
12/19/2020 5:15:00 AM 1.11 33.998 0.484 7.77 2.71 13.86
12/19/2020 5:30:00 AM 1.07 33.926 0.484 7.77 2.66 13.85
12/19/2020 5:45:00 AM 1.03 33.854 0.485 7.76 2.76 13.85
12/19/2020 6:00:00 AM 1 33.8 0.485 7.76 2.59 13.85
12/19/2020 6:15:00 AM 0.96 33.728 0.484 7.75 2.62 13.86
12/19/2020 6:30:00 AM 0.92 33.656 0.485 7.75 2.62 13.86
12/19/2020 6:45:00 AM 0.89 33.602 0.485 7.74 2.62 13.85
12/19/2020 7:00:00 AM 0.86 33.548 0.485 7.74 2.6 13.86
12/19/2020 7:15:00 AM 0.83 33.494 0.485 7.74 2.6 13.86
12/19/2020 7:30:00 AM 0.8 33.44 0.482 7.73 2.45 13.88
12/19/2020 7:45:00 AM 0.77 33.386 0.482 7.73 2.49 13.89
12/19/2020 8:00:00 AM 0.75 33.35 0.485 7.74 2.46 13.93
12/19/2020 8:15:00 AM 0.73 33.314 0.481 7.74 2.43 13.97
12/19/2020 8:30:00 AM 0.72 33.296 0.485 7.74 2.5 14.01
12/19/2020 8:45:00 AM 0.71 33.278 0.483 7.75 2.41 14.05
12/19/2020 9:00:00 AM 0.7 33.26 0.485 7.75 2.37 14.08
12/19/2020 9:15:00 AM 0.7 33.26 0.405 7.75 2.28 14.12
12/19/2020 9:30:00 AM 0.71 33.278 0.484 7.75 2.27 14.14
12/19/2020 9:45:00 AM 0.72 33.296 0.485 7.74 2.22 14.16
12/19/2020 10:00:00 AM 0.73 33.314 0.482 7.74 2.18 14.17
12/19/2020 10:15:00 AM 0.74 33.332 0.485 7.75 2.16 14.19
12/19/2020 10:30:00 AM 0.76 33.368 0.485 7.74 2.13 14.21
12/19/2020 10:45:00 AM 0.77 33.386 0.484 7.75 2.13 14.22
12/19/2020 11:00:00 AM 0.78 33.404 0.485 7.75 2.21 14.22
12/19/2020 11:15:00 AM 0.8 33.44 0.484 7.75 2.17 14.23
12/19/2020 11:30:00 AM 0.8 33.44 0.487 7.75 2.18 14.23
12/19/2020 11:45:00 AM 0.81 33.458 0.488 7.75 2.11 14.22
12/19/2020 12:00:00 PM 0.83 33.494 0.489 7.75 2.23 14.23
12/19/2020 12:15:00 PM 0.84 33.512 0.488 7.75 2.17 14.23
12/19/2020 12:30:00 PM 0.86 33.548 0.489 7.76 2.1 14.24
12/19/2020 12:45:00 PM 0.87 33.566 0.49 7.76 2.26 14.23
12/19/2020 1:00:00 PM 0.89 33.602 0.489 7.76 2.15 14.24
12/19/2020 1:15:00 PM 0.9 33.62 0.489 7.76 2.19 14.25
12/19/2020 1:30:00 PM 0.91 33.638 0.49 7.77 2.19 14.23
12/19/2020 1:45:00 PM 0.91 33.638 0.49 7.77 2.09 14.22
12/19/2020 2:00:00 PM 0.92 33.656 0.491 7.76 2.03 14.22
12/19/2020 2:15:00 PM 0.93 33.674 0.491 7.77 1.96 14.22
12/19/2020 2:30:00 PM 0.93 33.674 0.492 7.77 1.93 14.22
12/19/2020 2:45:00 PM 0.93 33.674 0.491 7.76 1.92 14.22
12/19/2020 3:00:00 PM 0.93 33.674 0.485 7.77 1.89 14.23
12/19/2020 3:15:00 PM 0.93 33.674 0.492 7.77 1.91 14.22
12/19/2020 3:30:00 PM 0.93 33.674 0.494 7.77 2.03 14.22
12/19/2020 3:45:00 PM 0.92 33.656 0.495 7.76 2.11 14.2
12/19/2020 4:00:00 PM 0.92 33.656 0.496 7.77 2.01 14.19
12/19/2020 4:15:00 PM 0.91 33.638 0.497 7.76 1.89 14.16
12/19/2020 4:30:00 PM 0.9 33.62 0.498 7.76 5.17 14.14
12/19/2020 4:45:00 PM 0.89 33.602 0.499 7.76 1.82 14.12
12/19/2020 5:00:00 PM 0.88 33.584 0.501 7.77 1.74 14.12
12/19/2020 5:15:00 PM 0.88 33.584 0.502 7.76 1.78 14.13
12/19/2020 5:30:00 PM 0.88 33.584 0.503 7.77 1.83 14.14
12/19/2020 5:45:00 PM 0.86 33.548 0.504 7.79 1.82 14.17
12/19/2020 6:00:00 PM 0.86 33.548 0.504 7.79 1.8 14.19
12/19/2020 6:15:00 PM 0.85 33.53 0.506 7.79 1.78 14.21
12/19/2020 6:30:00 PM 0.84 33.512 0.508 7.8 1.76 14.24
12/19/2020 6:45:00 PM 0.84 33.512 0.498 7.81 1.77 14.26
12/19/2020 7:00:00 PM 0.85 33.53 0.509 7.83 1.76 14.29
12/19/2020 7:15:00 PM 0.85 33.53 0.507 7.85 1.78 14.32
12/19/2020 7:30:00 PM 0.86 33.548 0.511 7.85 1.8 14.35
12/19/2020 7:45:00 PM 0.87 33.566 0.511 7.86 1.85 14.38
12/19/2020 8:00:00 PM 0.88 33.584 0.512 7.87 1.83 14.4
12/19/2020 8:15:00 PM 0.9 33.62 0.512 7.87 1.85 14.43
12/19/2020 8:30:00 PM 0.92 33.656 0.514 7.87 1.8 14.45
12/19/2020 8:45:00 PM 0.93 33.674 0.514 7.89 1.81 14.47
12/19/2020 9:00:00 PM 0.94 33.692 0.515 7.89 1.89 14.48
12/19/2020 9:15:00 PM 0.96 33.728 0.516 7.91 1.81 14.49
12/19/2020 9:30:00 PM 0.98 33.764 0.517 7.91 1.88 14.5
12/19/2020 9:45:00 PM 1.02 33.836 0.518 7.92 1.89 14.49
12/19/2020 10:00:00 PM 1.04 33.872 0.518 7.91 1.91 14.48
12/19/2020 10:15:00 PM 1.05 33.89 0.521 7.92 1.93 14.48
12/19/2020 10:30:00 PM 1.07 33.926 0.523 7.93 1.94 14.47
12/19/2020 10:45:00 PM 1.09 33.962 0.524 7.93 1.88 14.45
12/19/2020 11:00:00 PM 1.11 33.998 0.526 7.93 1.94 14.43
12/19/2020 11:15:00 PM 1.12 34.016 0.528 7.93 1.97 14.42
12/19/2020 11:30:00 PM 1.14 34.052 0.53 7.93 2.01 14.4
12/19/2020 11:45:00 PM 1.15 34.07 0.532 7.93 2.1 14.38
12/20/2020 12:00:00 AM 1.17 34.106 0.534 7.94 2.07 14.35
12/20/2020 12:15:00 AM 1.18 34.124 0.535 7.93 2.12 14.32
12/20/2020 12:30:00 AM 1.19 34.142 0.538 7.93 2.19 14.29
12/20/2020 12:45:00 AM 1.2 34.16 0.54 7.94 2.15 14.26
12/20/2020 1:00:00 AM 1.21 34.178 0.481 7.93 2.22 14.23
12/20/2020 1:15:00 AM 1.21 34.178 0.543 7.93 2.2 14.2
12/20/2020 1:30:00 AM 1.21 34.178 0.544 7.92 2.26 14.18
12/20/2020 1:45:00 AM 1.2 34.16 0.545 7.92 2.24 14.15
12/20/2020 2:00:00 AM 1.2 34.16 0.546 7.91 2.24 14.12
12/20/2020 2:15:00 AM 1.19 34.142 0.546 7.91 2.2 14.09
12/20/2020 2:30:00 AM 1.18 34.124 0.545 7.9 2.33 14.07
12/20/2020 2:45:00 AM 1.17 34.106 0.547 7.9 2.3 14.04
12/20/2020 3:00:00 AM 1.16 34.088 0.547 7.9 2.44 14.02
12/20/2020 3:15:00 AM 1.15 34.07 0.547 7.89 2.3 14
12/20/2020 3:30:00 AM 1.15 34.07 0.548 7.89 2.3 13.98
12/20/2020 3:45:00 AM 1.14 34.052 0.548 7.88 2.29 13.95
12/20/2020 4:00:00 AM 1.12 34.016 0.548 7.88 2.36 13.93
12/20/2020 4:15:00 AM 1.11 33.998 0.548 7.88 2.37 13.92
12/20/2020 4:30:00 AM 1.1 33.98 0.548 7.88 2.32 13.9
12/20/2020 4:45:00 AM 1.09 33.962 0.547 7.87 2.23 13.89
12/20/2020 5:00:00 AM 1.08 33.944 0.548 7.87 2.37 13.87
12/20/2020 5:15:00 AM 1.07 33.926 0.547 7.86 2.25 13.86
12/20/2020 5:30:00 AM 1.06 33.908 0.547 7.86 2.23 13.85
12/20/2020 5:45:00 AM 1.04 33.872 0.547 7.86 2.25 13.83
12/20/2020 6:00:00 AM 1.04 33.872 0.547 7.86 2.24 13.82
12/20/2020 6:15:00 AM 1.03 33.854 0.547 7.86 2.23 13.82
12/20/2020 6:30:00 AM 1.02 33.836 0.547 7.85 2.28 13.8
12/20/2020 6:45:00 AM 1.02 33.836 0.547 7.85 2.33 13.8
12/20/2020 7:00:00 AM 1.01 33.818 0.546 7.84 2.23 13.79
12/20/2020 7:15:00 AM 1 33.8 0.545 7.85 2.36 13.78
12/20/2020 7:30:00 AM 1 33.8 0.546 7.84 2.3 13.77
12/20/2020 7:45:00 AM 1 33.8 0.545 7.84 7.22 13.78
12/20/2020 8:00:00 AM 1 33.8 0.545 7.84 3.64 13.78
12/20/2020 8:15:00 AM 1 33.8 0.45 7.84 2.11 13.82
12/20/2020 8:30:00 AM 1.01 33.818 0.545 7.84 2.17 13.83
12/20/2020 8:45:00 AM 1.02 33.836 0.545 7.85 2.15 13.86
12/20/2020 9:00:00 AM 1.03 33.854 0.545 7.84 2.13 13.87
12/20/2020 9:15:00 AM 1.04 33.872 0.541 7.85 2.08 13.89
12/20/2020 9:30:00 AM 1.07 33.926 0.545 7.86 2.1 13.93
12/20/2020 9:45:00 AM 1.09 33.962 0.545 7.86 2.14 13.92
12/20/2020 10:00:00 AM 1.14 34.052 0.476 7.87 2.2 13.97
12/20/2020 10:15:00 AM 1.18 34.124 0.497 7.87 2.15 13.96
12/20/2020 10:30:00 AM 1.21 34.178 0.544 7.87 2.11 13.94
12/20/2020 10:45:00 AM 1.23 34.214 0.544 7.87 2.12 13.92
12/20/2020 11:00:00 AM 1.25 34.25 0.536 7.88 2.1 13.92
12/20/2020 11:15:00 AM 1.28 34.304 0.546 7.88 2.29 13.89
12/20/2020 11:30:00 AM 1.32 34.376 0.541 7.88 2.21 13.92
12/20/2020 11:45:00 AM 1.36 34.448 0.55 7.89 2.11 13.93
12/20/2020 12:00:00 PM 1.41 34.538 0.55 7.89 1.99 13.93
12/20/2020 12:15:00 PM 1.47 34.646 0.549 7.9 2.05 13.94
12/20/2020 12:30:00 PM 1.5 34.7 0.551 7.9 1.96 13.93
12/20/2020 12:45:00 PM 1.53 34.754 0.535 7.9 1.98 13.9
12/20/2020 1:00:00 PM 1.56 34.808 0.552 7.91 2.03 13.88
12/20/2020 1:15:00 PM 1.59 34.862 0.554 7.91 2.02 13.87
12/20/2020 1:30:00 PM 1.62 34.916 0.549 7.92 2.11 13.88
12/20/2020 1:45:00 PM 1.66 34.988 0.545 7.92 2.16 13.87
12/20/2020 2:00:00 PM 1.69 35.042 0.555 7.92 2.18 13.86
12/20/2020 2:15:00 PM 1.73 35.114 0.558 7.93 2.14 13.85
12/20/2020 2:30:00 PM 1.76 35.168 0.522 7.94 2.18 13.85
12/20/2020 2:45:00 PM 1.81 35.258 0.56 7.94 2.24 13.84
12/20/2020 3:00:00 PM 1.85 35.33 0.561 7.94 2.2 13.84
12/20/2020 3:15:00 PM 1.85 35.33 0.558 7.93 2.26 13.77
12/20/2020 3:30:00 PM 1.87 35.366 0.563 7.94 2.18 13.75
12/20/2020 3:45:00 PM 1.9 35.42 0.565 7.94 2.17 13.74
12/20/2020 4:00:00 PM 1.92 35.456 0.566 7.94 2.22 13.7
12/20/2020 4:15:00 PM 1.94 35.492 0.567 7.94 2.27 13.67
12/20/2020 4:30:00 PM 1.96 35.528 0.568 7.94 2.16 13.64
12/20/2020 4:45:00 PM 1.97 35.546 0.569 7.94 2.15 13.61
12/20/2020 5:00:00 PM 1.98 35.564 0.57 7.94 2.21 13.6
12/20/2020 5:15:00 PM 2 35.6 0.572 7.94 2.18 13.59
12/20/2020 5:30:00 PM 2.02 35.636 0.573 7.94 2.24 13.6
12/20/2020 5:45:00 PM 2.04 35.672 0.574 7.95 2.21 13.61
12/20/2020 6:00:00 PM 2.07 35.726 0.575 7.96 2.2 13.62
12/20/2020 6:15:00 PM 2.1 35.78 0.576 7.96 2.17 13.62
12/20/2020 6:30:00 PM 2.14 35.852 0.576 7.96 2.19 13.63
12/20/2020 6:45:00 PM 2.17 35.906 0.578 7.97 2.15 13.64
12/20/2020 7:00:00 PM 2.21 35.978 0.577 7.98 2.22 13.65
12/20/2020 7:15:00 PM 2.25 36.05 0.578 7.99 2.24 13.67
12/20/2020 7:30:00 PM 2.29 36.122 0.58 8 2.27 13.67
12/20/2020 7:45:00 PM 2.33 36.194 0.581 8.01 2.29 13.67
12/20/2020 8:00:00 PM 2.38 36.284 0.581 8.01 2.26 13.68
12/20/2020 8:15:00 PM 2.43 36.374 0.582 8.02 2.34 13.68
12/20/2020 8:30:00 PM 2.48 36.464 0.582 8.03 2.26 13.69
12/20/2020 8:45:00 PM 2.53 36.554 0.583 8.05 2.28 13.69
12/20/2020 9:00:00 PM 2.59 36.662 0.582 8.07 2.29 13.7
12/20/2020 9:15:00 PM 2.64 36.752 0.584 8.08 2.39 13.71
12/20/2020 9:30:00 PM 2.7 36.86 0.584 8.09 2.37 13.71
12/20/2020 9:45:00 PM 2.75 36.95 0.585 8.1 2.39 13.7
12/20/2020 10:00:00 PM 2.81 37.058 0.585 8.11 2.4 13.71
12/20/2020 10:15:00 PM 2.86 37.148 0.583 8.12 2.47 13.7
12/20/2020 10:30:00 PM 2.92 37.256 0.586 8.12 2.51 13.69
12/20/2020 10:45:00 PM 2.97 37.346 0.586 8.14 2.56 13.68
12/20/2020 11:00:00 PM 3.01 37.418 0.587 8.16 2.59 13.65
12/20/2020 11:15:00 PM 3.05 37.49 0.588 8.17 2.63 13.63
12/20/2020 11:30:00 PM 3.09 37.562 0.588 8.18 2.65 13.62
12/20/2020 11:45:00 PM 3.12 37.616 0.588 8.19 2.64 13.6
12/21/2020 12:00:00 AM 3.14 37.652 0.589 8.2 2.66 13.57
12/21/2020 12:15:00 AM 3.16 37.688 0.589 8.2 2.7 13.55
12/21/2020 12:30:00 AM 3.19 37.742 0.589 8.21 2.75 13.52
12/21/2020 12:45:00 AM 3.2 37.76 0.59 8.21 2.69 13.49
12/21/2020 1:00:00 AM 3.22 37.796 0.587 8.21 2.73 13.46
12/21/2020 1:15:00 AM 3.22 37.796 0.591 8.22 2.81 13.43
12/21/2020 1:30:00 AM 3.23 37.814 0.589 8.23 2.88 13.4
12/21/2020 1:45:00 AM 3.24 37.832 0.591 8.23 2.85 13.36
12/21/2020 2:00:00 AM 3.25 37.85 0.584 8.22 2.86 13.33
12/21/2020 2:15:00 AM 3.25 37.85 0.592 8.22 2.9 13.3
12/21/2020 2:30:00 AM 3.25 37.85 0.593 8.22 2.83 13.26
12/21/2020 2:45:00 AM 3.25 37.85 0.594 8.21 2.83 13.23
12/21/2020 3:00:00 AM 3.26 37.868 0.594 8.22 2.86 13.19
12/21/2020 3:15:00 AM 3.26 37.868 0.594 8.21 2.85 13.16
12/21/2020 3:30:00 AM 3.25 37.85 0.594 8.22 2.84 13.12
12/21/2020 3:45:00 AM 3.26 37.868 0.595 8.21 2.78 13.08
12/21/2020 4:00:00 AM 3.26 37.868 0.595 8.22 2.83 13.05
12/21/2020 4:15:00 AM 3.26 37.868 0.594 8.22 2.88 13.02
12/21/2020 4:30:00 AM 3.26 37.868 0.594 8.21 2.92 12.98
12/21/2020 4:45:00 AM 3.25 37.85 0.594 8.21 2.93 12.96
12/21/2020 5:00:00 AM 3.26 37.868 0.594 8.21 2.97 12.93
12/21/2020 5:15:00 AM 3.27 37.886 0.592 8.2 3.07 12.9
12/21/2020 5:30:00 AM 3.26 37.868 0.593 8.21 5.62 12.88
12/21/2020 5:45:00 AM 3.27 37.886 0.593 8.21 3.91 12.86
12/21/2020 6:00:00 AM 3.27 37.886 0.592 8.21 4.95 12.83
12/21/2020 6:15:00 AM 3.27 37.886 0.59 8.2 4.16 12.82
12/21/2020 6:30:00 AM 3.28 37.904 0.591 8.19 7.17 12.8
12/21/2020 6:45:00 AM 3.28 37.904 0.491 8.19 2.95 12.78
12/21/2020 7:00:00 AM 3.28 37.904 0.578 8.19 2.81 12.77
12/21/2020 7:15:00 AM 3.29 37.922 0.589 8.19 3.05 12.76
12/21/2020 7:30:00 AM 3.3 37.94 0.589 8.19 2.87 12.74
12/21/2020 7:45:00 AM 3.3 37.94 0.587 8.18 2.88 12.74
12/21/2020 8:00:00 AM 3.31 37.958 0.586 8.18 2.82 12.75
12/21/2020 8:15:00 AM 3.31 37.958 0.586 8.19 2.83 12.76
12/21/2020 8:30:00 AM 3.32 37.976 0.586 8.19 2.97 12.77
12/21/2020 8:45:00 AM 3.33 37.994 0.585 8.2 2.97 12.79
12/21/2020 9:00:00 AM 3.35 38.03 0.585 8.2 2.95 12.83
12/21/2020 9:15:00 AM 3.35 38.03 0.583 8.2 2.96 12.8
12/21/2020 9:30:00 AM 3.36 38.048 0.583 8.2 2.81 12.8
12/21/2020 9:45:00 AM 3.37 38.066 0.572 8.21 2.97 12.85
12/21/2020 10:00:00 AM 3.4 38.12 0.581 8.23 3.05 12.9
12/21/2020 10:15:00 AM 3.43 38.174 0.58 8.23 2.88 12.91
12/21/2020 10:30:00 AM 3.45 38.21 0.58 8.24 3.01 12.91
12/21/2020 10:45:00 AM 3.47 38.246 0.576 8.24 2.99 12.92
12/21/2020 11:00:00 AM 3.48 38.264 0.556 8.25 2.99 12.9
12/21/2020 11:15:00 AM 3.5 38.3 0.576 8.25 2.82 12.91
12/21/2020 11:30:00 AM 3.54 38.372 0.577 8.26 2.96 12.93
12/21/2020 11:45:00 AM 3.56 38.408 0.575 8.26 2.78 12.92
12/21/2020 12:00:00 PM 3.59 38.462 0.574 8.26 2.92 12.92
12/21/2020 12:15:00 PM 3.61 38.498 0.576 8.27 2.87 12.9
12/21/2020 12:30:00 PM 3.63 38.534 0.575 8.28 2.78 12.88
12/21/2020 12:45:00 PM 3.64 38.552 0.575 8.28 2.79 12.87
12/21/2020 1:00:00 PM 3.67 38.606 0.575 8.28 2.78 12.88
12/21/2020 1:15:00 PM 3.7 38.66 0.575 8.29 2.88 12.87
12/21/2020 1:30:00 PM 3.72 38.696 0.572 8.29 2.84 12.85
12/21/2020 1:45:00 PM 3.75 38.75 0.574 8.3 2.84 12.86
12/21/2020 2:00:00 PM 3.77 38.786 0.568 8.3 2.74 12.87
12/21/2020 2:15:00 PM 3.79 38.822 0.575 8.32 2.71 12.86
12/21/2020 2:30:00 PM 3.82 38.876 0.575 8.32 2.7 12.9
12/21/2020 2:45:00 PM 3.84 38.912 0.574 8.32 2.65 12.85
12/21/2020 3:00:00 PM 3.85 38.93 0.567 8.32 2.77 12.84
12/21/2020 3:15:00 PM 3.86 38.948 0.572 8.33 2.7 12.83
12/21/2020 3:30:00 PM 3.88 38.984 0.574 8.34 2.91 12.84
12/21/2020 3:45:00 PM 3.89 39.002 0.574 8.33 2.69 12.77
12/21/2020 4:00:00 PM 3.9 39.02 0.557 8.34 2.66 12.72
12/21/2020 4:15:00 PM 3.9 39.02 0.562 8.34 2.8 12.69
12/21/2020 4:30:00 PM 3.91 39.038 0.545 8.35 2.73 12.68
12/21/2020 4:45:00 PM 3.92 39.056 0.574 8.35 2.76 12.67
12/21/2020 5:00:00 PM 3.94 39.092 0.572 8.36 2.68 12.66
12/21/2020 5:15:00 PM 3.95 39.11 0.573 8.36 2.71 12.68
12/21/2020 5:30:00 PM 3.95 39.11 0.573 8.37 2.68 12.69
12/21/2020 5:45:00 PM 3.98 39.164 0.572 8.38 2.75 12.71
12/21/2020 6:00:00 PM 4 39.2 0.56 8.39 2.7 12.73
12/21/2020 6:15:00 PM 4.01 39.218 0.572 8.4 3.4 12.74
12/21/2020 6:30:00 PM 4.04 39.272 0.571 8.41 3.06 12.77
12/21/2020 6:45:00 PM 4.06 39.308 0.571 8.42 12.55 12.79
12/21/2020 7:00:00 PM 4.07 39.326 0.57 8.43 4.53 12.81
12/21/2020 7:15:00 PM 4.09 39.362 0.569 8.44 5.94 12.83
12/21/2020 7:30:00 PM 4.12 39.416 0.568 8.46 2.79 12.85
12/21/2020 7:45:00 PM 4.14 39.452 0.567 8.47 3.77 12.88
12/21/2020 8:00:00 PM 4.17 39.506 0.566 8.47 3.54 12.89
12/21/2020 8:15:00 PM 4.21 39.578 0.564 8.49 3.39 12.92
12/21/2020 8:30:00 PM 4.24 39.632 0.563 8.5 3.72 12.92
12/21/2020 8:45:00 PM 4.27 39.686 0.561 8.51 3.89 12.94
12/21/2020 9:00:00 PM 4.29 39.722 0.56 8.53 3.34 12.95
12/21/2020 9:15:00 PM 4.32 39.776 0.559 8.54 11.27 12.97
12/21/2020 9:30:00 PM 4.36 39.848 0.558 8.55 3.99 12.97
12/21/2020 9:45:00 PM 4.39 39.902 0.556 8.55 3.41 12.97
12/21/2020 10:00:00 PM 4.41 39.938 0.556 8.56 3.46 12.98
12/21/2020 10:15:00 PM 4.44 39.992 0.555 8.58 3.67 12.98
12/21/2020 10:30:00 PM 4.46 40.028 0.555 8.59 6.52 12.97
12/21/2020 10:45:00 PM 4.47 40.046 0.554 8.59 5.55 12.97
12/21/2020 11:00:00 PM 4.48 40.064 0.554 8.6 5.67 12.95
12/21/2020 11:15:00 PM 4.5 40.1 0.555 8.6 5.61 12.94
12/21/2020 11:30:00 PM 4.5 40.1 0.555 8.6 5.74 12.92
12/21/2020 11:45:00 PM 4.51 40.118 0.555 8.61 4.17 12.9
12/22/2020 12:00:00 AM 4.51 40.118 0.556 8.61 4.28 12.87
12/22/2020 12:15:00 AM 4.5 40.1 0.557 8.61 4.36 12.85
12/22/2020 12:30:00 AM 4.5 40.1 0.558 8.6 5.59 12.82
12/22/2020 12:45:00 AM 4.49 40.082 0.559 8.6 8.98 12.79
12/22/2020 1:00:00 AM 4.49 40.082 0.56 8.59 9.62 12.75
12/22/2020 1:15:00 AM 4.47 40.046 0.56 8.58 9.2 12.71
12/22/2020 1:30:00 AM 4.46 40.028 0.561 8.58 7.98 12.68
12/22/2020 1:45:00 AM 4.45 40.01 0.561 8.57 10.51 12.65
12/22/2020 2:00:00 AM 4.44 39.992 0.561 8.57 3.48 12.62
12/22/2020 2:15:00 AM 4.42 39.956 0.562 8.56 3.28 12.58
12/22/2020 2:30:00 AM 4.41 39.938 0.563 8.56 3.49 12.55
12/22/2020 2:45:00 AM 4.39 39.902 0.56 8.55 5.15 12.53
12/22/2020 3:00:00 AM 4.38 39.884 0.558 8.55 8.48 12.5
12/22/2020 3:15:00 AM 4.37 39.866 0.555 8.54 8.89 12.48
12/22/2020 3:30:00 AM 4.36 39.848 0.557 8.53 9.54 12.45
12/22/2020 3:45:00 AM 4.35 39.83 0.562 8.53 11.63 12.43
12/22/2020 4:00:00 AM 4.33 39.794 0.563 8.53 6.55 12.41
12/22/2020 4:15:00 AM 4.32 39.776 0.562 8.53 6.42 12.39
12/22/2020 4:30:00 AM 4.31 39.758 0.561 8.53 6.17 12.37
12/22/2020 4:45:00 AM 4.3 39.74 0.56 8.52 5.18 12.36
12/22/2020 5:00:00 AM 4.29 39.722 0.558 8.52 3.39 12.35
12/22/2020 5:15:00 AM 4.28 39.704 0.557 8.52 3.73 12.33
12/22/2020 5:30:00 AM 4.27 39.686 0.556 8.51 3.95 12.32
12/22/2020 5:45:00 AM 4.26 39.668 0.554 8.51 5.15 12.32
12/22/2020 6:00:00 AM 4.24 39.632 0.552 8.51 3.83 12.31
12/22/2020 6:15:00 AM 4.23 39.614 0.551 8.5 4.23 12.3
12/22/2020 6:30:00 AM 4.22 39.596 0.549 8.5 3.77 12.3
12/22/2020 6:45:00 AM 4.21 39.578 0.548 8.5 3.93 12.29
12/22/2020 7:00:00 AM 4.2 39.56 0.546 8.49 4.07 12.29
12/22/2020 7:15:00 AM 4.19 39.542 0.544 8.49 3.62 12.29
12/22/2020 7:30:00 AM 4.18 39.524 0.543 8.49 3.66 12.28
12/22/2020 7:45:00 AM 4.17 39.506 0.542 8.5 2.97 12.3
12/22/2020 8:00:00 AM 4.16 39.488 0.54 8.49 3.35 12.31
12/22/2020 8:15:00 AM 4.15 39.47 0.539 8.5 3.18 12.35
12/22/2020 8:30:00 AM 4.15 39.47 0.538 8.5 8.35 12.38
12/22/2020 8:45:00 AM 4.15 39.47 0.537 8.5 7.17 12.4
12/22/2020 9:00:00 AM 4.15 39.47 0.535 8.5 7.32 12.43
12/22/2020 9:15:00 AM 4.14 39.452 0.529 8.51 3.29 12.47
12/22/2020 9:30:00 AM 4.16 39.488 0.437 8.51 3.26 12.48
12/22/2020 9:45:00 AM 4.17 39.506 0.373 8.52 3.15 12.52
12/22/2020 10:00:00 AM 4.17 39.506 0.53 8.53 7.94 12.5
12/22/2020 10:15:00 AM 4.17 39.506 0.528 8.53 8.97 12.49
12/22/2020 10:30:00 AM 4.18 39.524 0.516 8.53 7.2 12.52
12/22/2020 10:45:00 AM 4.2 39.56 0.516 8.54 3.57 12.56
12/22/2020 11:00:00 AM 4.22 39.596 0.517 8.55 3.49 12.58
12/22/2020 11:15:00 AM 4.27 39.686 0.518 8.56 3.46 12.63
12/22/2020 11:30:00 AM 4.31 39.758 0.518 8.57 3.48 12.63
12/22/2020 11:45:00 AM 4.34 39.812 0.517 8.57 3.54 12.62
12/22/2020 12:00:00 PM 4.34 39.812 0.518 8.58 5.37 12.6
12/22/2020 12:15:00 PM 4.33 39.794 0.517 8.58 3.64 12.56
12/22/2020 12:30:00 PM 4.33 39.794 0.525 8.58 8.45 12.58
12/22/2020 12:45:00 PM 4.36 39.848 0.525 8.59 2.86 12.64
12/22/2020 1:00:00 PM 4.41 39.938 0.524 8.6 2.8 12.67
12/22/2020 1:15:00 PM 4.45 40.01 0.512 8.61 3.15 12.68
12/22/2020 1:30:00 PM 4.47 40.046 0.524 8.61 2.82 12.68
12/22/2020 1:45:00 PM 4.48 40.064 0.524 8.62 2.78 12.67
12/22/2020 2:00:00 PM 4.51 40.118 0.525 8.63 2.83 12.68
12/22/2020 2:15:00 PM 4.52 40.136 0.525 8.63 2.91 12.68
12/22/2020 2:30:00 PM 4.53 40.154 0.525 8.65 3.59 12.66
12/22/2020 2:45:00 PM 4.55 40.19 0.526 8.64 3 12.61
12/22/2020 3:00:00 PM 4.58 40.244 0.519 8.65 2.78 12.64
12/22/2020 3:15:00 PM 4.61 40.298 0.523 8.66 2.76 12.65
12/22/2020 3:30:00 PM 4.64 40.352 0.528 8.68 2.92 12.65
12/22/2020 3:45:00 PM 4.64 40.352 0.528 8.68 2.88 12.66
12/22/2020 4:00:00 PM 4.65 40.37 0.529 8.69 2.96 12.7
12/22/2020 4:15:00 PM 4.65 40.37 0.53 8.71 2.88 12.71
12/22/2020 4:30:00 PM 4.66 40.388 0.532 8.73 2.98 12.73
12/22/2020 4:45:00 PM 4.68 40.424 0.533 8.73 2.91 12.74
12/22/2020 5:00:00 PM 4.7 40.46 0.534 8.74 2.9 12.76
12/22/2020 5:15:00 PM 4.71 40.478 0.535 8.76 2.97 12.78
12/22/2020 5:30:00 PM 4.73 40.514 0.536 8.77 3.16 12.81
12/22/2020 5:45:00 PM 4.74 40.532 0.537 8.78 3.03 12.84
12/22/2020 6:00:00 PM 4.77 40.586 0.538 8.78 3.09 12.85
12/22/2020 6:15:00 PM 4.8 40.64 0.523 8.8 3.1 12.88
12/22/2020 6:30:00 PM 4.82 40.676 0.513 8.81 3.04 12.89
12/22/2020 6:45:00 PM 4.84 40.712 0.488 8.82 3 12.91
12/22/2020 7:00:00 PM 4.87 40.766 0.532 8.82 3.1 12.91
12/22/2020 7:15:00 PM 4.89 40.802 0.505 8.84 3.16 12.92
12/22/2020 7:30:00 PM 4.91 40.838 0.511 8.84 3.21 12.94
12/22/2020 7:45:00 PM 4.92 40.856 0.537 8.85 3.32 12.94
12/22/2020 8:00:00 PM 4.93 40.874 0.534 8.85 3.23 12.94
12/22/2020 8:15:00 PM 4.95 40.91 0.534 8.86 3.21 12.94
12/22/2020 8:30:00 PM 4.95 40.91 0.53 8.87 3.27 12.94
12/22/2020 8:45:00 PM 4.96 40.928 0.526 8.87 3.36 12.93
12/22/2020 9:00:00 PM 4.95 40.91 0.526 8.86 3.4 12.91
12/22/2020 9:15:00 PM 4.93 40.874 0.497 8.86 3.39 12.89
12/22/2020 9:30:00 PM 4.91 40.838 0.518 8.86 3.38 12.87
12/22/2020 9:45:00 PM 4.9 40.82 0.524 8.86 3.36 12.84
12/22/2020 10:00:00 PM 4.89 40.802 0.529 8.85 3.33 12.82
12/22/2020 10:15:00 PM 4.87 40.766 0.52 8.84 3.53 12.79
12/22/2020 10:30:00 PM 4.83 40.694 0.523 8.84 3.6 12.76
12/22/2020 10:45:00 PM 4.81 40.658 0.516 8.83 3.47 12.74
12/22/2020 11:00:00 PM 4.77 40.586 0.506 8.82 3.62 12.71
12/22/2020 11:15:00 PM 4.75 40.55 0.487 8.82 3.7 12.68
12/22/2020 11:30:00 PM 4.73 40.514 0.517 8.81 3.82 12.65
12/22/2020 11:45:00 PM 4.71 40.478 0.524 8.8 3.95 12.64
12/23/2020 12:00:00 AM 4.67 40.406 0.523 8.79 4.07 12.61
12/23/2020 12:15:00 AM 4.64 40.352 0.522 8.79 4.18 12.6
12/23/2020 12:30:00 AM 4.6 40.28 0.521 8.77 4.09 12.58
12/23/2020 12:45:00 AM 4.56 40.208 0.52 8.77 4.3 12.57
12/23/2020 1:00:00 AM 4.52 40.136 0.518 8.76 4.56 12.56
12/23/2020 1:15:00 AM 4.47 40.046 0.517 8.75 4.43 12.56
12/23/2020 1:30:00 AM 4.43 39.974 0.516 8.75 4.5 12.56
12/23/2020 1:45:00 AM 4.38 39.884 0.515 8.74 4.4 12.56
12/23/2020 2:00:00 AM 4.33 39.794 0.489 8.74 4.45 12.57
12/23/2020 2:15:00 AM 4.28 39.704 0.509 8.73 4.29 12.58
12/23/2020 2:30:00 AM 4.23 39.614 0.511 8.71 4.58 12.59
12/23/2020 2:45:00 AM 4.18 39.524 0.509 8.71 4.49 12.61
12/23/2020 3:00:00 AM 4.13 39.434 0.507 8.71 4.7 12.61
12/23/2020 3:15:00 AM 4.09 39.362 0.501 8.7 4.46 12.63
12/23/2020 3:30:00 AM 4.04 39.272 0.503 8.7 4.51 12.63
12/23/2020 3:45:00 AM 3.99 39.182 0.495 8.7 4.52 12.65
12/23/2020 4:00:00 AM 3.94 39.092 0.5 8.7 4.69 12.66
12/23/2020 4:15:00 AM 3.89 39.002 0.499 8.69 4.42 12.67
12/23/2020 4:30:00 AM 3.84 38.912 0.498 8.69 4.69 12.69
12/23/2020 4:45:00 AM 3.8 38.84 0.497 8.69 4.67 12.71
12/23/2020 5:00:00 AM 3.75 38.75 0.497 8.68 4.7 12.72
12/23/2020 5:15:00 AM 3.71 38.678 0.497 8.67 4.81 12.73
12/23/2020 5:30:00 AM 3.67 38.606 0.496 8.67 4.87 12.75
12/23/2020 5:45:00 AM 3.63 38.534 0.496 8.66 4.77 12.77
12/23/2020 6:00:00 AM 3.59 38.462 0.495 8.67 4.96 12.79
12/23/2020 6:15:00 AM 3.56 38.408 0.496 8.66 4.94 12.79
12/23/2020 6:30:00 AM 3.52 38.336 0.494 8.66 5.11 12.81
12/23/2020 6:45:00 AM 3.49 38.282 0.498 8.65 5.06 12.82
12/23/2020 7:00:00 AM 3.47 38.246 0.5 8.65 5.3 12.83
12/23/2020 7:15:00 AM 3.44 38.192 0.502 8.65 5.19 12.84
12/23/2020 7:30:00 AM 3.41 38.138 0.504 8.65 5.34 12.85
12/23/2020 7:45:00 AM 3.39 38.102 0.507 8.65 5.26 12.86
12/23/2020 8:00:00 AM 3.37 38.066 0.509 8.65 5.6 12.88
12/23/2020 8:15:00 AM 3.36 38.048 0.511 8.64 5.55 12.9
12/23/2020 8:30:00 AM 3.34 38.012 0.513 8.64 5.81 12.91
12/23/2020 8:45:00 AM 3.33 37.994 0.514 8.64 5.9 12.93
12/23/2020 9:00:00 AM 3.32 37.976 0.515 8.64 5.94 12.95
12/23/2020 9:15:00 AM 3.31 37.958 0.516 8.64 6.02 12.96
12/23/2020 9:30:00 AM 3.31 37.958 0.516 8.64 5.76 12.99
12/23/2020 9:45:00 AM 3.31 37.958 0.515 8.65 5.9 13.01
12/23/2020 10:00:00 AM 3.32 37.976 0.514 8.65 5.75 13.03
12/23/2020 10:15:00 AM 3.32 37.976 0.513 8.66 5.76 13.04
12/23/2020 10:30:00 AM 3.32 37.976 0.512 8.65 5.79 13.06
12/23/2020 10:45:00 AM 3.33 37.994 0.511 8.66 5.73 13.06
12/23/2020 11:00:00 AM 3.34 38.012 0.509 8.66 5.64 13.08
12/23/2020 11:15:00 AM 3.35 38.03 0.507 8.67 5.81 13.11
12/23/2020 11:30:00 AM 3.36 38.048 0.505 8.67 5.66 13.12
12/23/2020 11:45:00 AM 3.37 38.066 0.504 8.68 5.74 13.13
12/23/2020 12:00:00 PM 3.38 38.084 0.503 8.68 5.7 13.14
12/23/2020 12:15:00 PM 3.4 38.12 0.502 8.69 5.73 13.16
12/23/2020 12:30:00 PM 3.43 38.174 0.501 8.69 5.75 13.17
12/23/2020 12:45:00 PM 3.45 38.21 0.501 8.7 5.72 13.19
12/23/2020 1:00:00 PM 3.48 38.264 0.501 8.71 5.68 13.21
12/23/2020 1:15:00 PM 3.51 38.318 0.502 8.72 5.79 13.23
12/23/2020 1:30:00 PM 3.56 38.408 0.502 8.73 5.57 13.24
12/23/2020 1:45:00 PM 3.59 38.462 0.503 8.75 5.87 13.25
12/23/2020 2:00:00 PM 3.63 38.534 0.503 8.75 5.74 13.26
12/23/2020 2:15:00 PM 3.67 38.606 0.504 8.77 5.57 13.28
12/23/2020 2:30:00 PM 3.72 38.696 0.505 8.77 5.82 13.29
12/23/2020 2:45:00 PM 3.75 38.75 0.506 8.79 5.87 13.3
12/23/2020 3:00:00 PM 3.78 38.804 0.507 8.8 5.84 13.31
12/23/2020 3:15:00 PM 3.81 38.858 0.508 8.81 5.86 13.32
12/23/2020 3:30:00 PM 3.84 38.912 0.509 8.82 5.85 13.33
12/23/2020 3:45:00 PM 3.86 38.948 0.51 8.82 5.85 13.34
12/23/2020 4:00:00 PM 3.88 38.984 0.511 8.83 5.81 13.33
12/23/2020 4:15:00 PM 3.91 39.038 0.511 8.85 5.81 13.32
12/23/2020 4:30:00 PM 3.93 39.074 0.512 8.85 5.87 13.32
12/23/2020 4:45:00 PM 3.96 39.128 0.512 8.86 5.94 13.31
12/23/2020 5:00:00 PM 3.98 39.164 0.513 8.86 6.15 13.32
12/23/2020 5:15:00 PM 4.01 39.218 0.513 8.87 6.23 13.31
12/23/2020 5:30:00 PM 4.04 39.272 0.513 8.88 6.24 13.32
12/23/2020 5:45:00 PM 4.06 39.308 0.513 8.88 5.97 13.31
12/23/2020 6:00:00 PM 4.09 39.362 0.513 8.89 6.07 13.3
12/23/2020 6:15:00 PM 4.12 39.416 0.513 8.89 6.25 13.3
12/23/2020 6:30:00 PM 4.15 39.47 0.513 8.9 6.12 13.29
12/23/2020 6:45:00 PM 4.17 39.506 0.514 8.89 6.22 13.28
12/23/2020 7:00:00 PM 4.19 39.542 0.514 8.9 6.06 13.27
12/23/2020 7:15:00 PM 4.21 39.578 0.514 8.9 6.1 13.25
12/23/2020 7:30:00 PM 4.24 39.632 0.515 8.91 6.23 13.24
12/23/2020 7:45:00 PM 4.26 39.668 0.515 8.9 6.27 13.22
12/23/2020 8:00:00 PM 4.27 39.686 0.515 8.9 6.41 13.19
12/23/2020 8:15:00 PM 4.28 39.704 0.515 8.9 6.28 13.17
12/23/2020 8:30:00 PM 4.29 39.722 0.515 8.9 6.51 13.14
12/23/2020 8:45:00 PM 4.3 39.74 0.514 8.9 6.63 13.11
12/23/2020 9:00:00 PM 4.3 39.74 0.514 8.89 6.53 13.08
12/23/2020 9:15:00 PM 4.3 39.74 0.514 8.89 6.64 13.05
12/23/2020 9:30:00 PM 4.3 39.74 0.514 8.88 6.68 13.02
12/23/2020 9:45:00 PM 4.3 39.74 0.514 8.88 6.88 12.99
12/23/2020 10:00:00 PM 4.3 39.74 0.514 8.87 6.84 12.96
12/23/2020 10:15:00 PM 4.3 39.74 0.514 8.87 6.8 12.93
12/23/2020 10:30:00 PM 4.29 39.722 0.514 8.85 6.89 12.9
12/23/2020 10:45:00 PM 4.29 39.722 0.514 8.86 6.86 12.86
12/23/2020 11:00:00 PM 4.28 39.704 0.515 8.84 6.93 12.83
12/23/2020 11:15:00 PM 4.28 39.704 0.515 8.84 6.84 12.81
12/23/2020 11:30:00 PM 4.27 39.686 0.516 8.83 6.91 12.78
12/23/2020 11:45:00 PM 4.26 39.668 0.517 8.83 6.74 12.77
12/24/2020 12:00:00 AM 4.25 39.65 0.517 8.82 6.75 12.75
12/24/2020 12:15:00 AM 4.24 39.632 0.518 8.82 6.65 12.73
12/24/2020 12:30:00 AM 4.24 39.632 0.519 8.82 6.63 12.71
12/24/2020 12:45:00 AM 4.24 39.632 0.519 8.82 6.59 12.69
12/24/2020 1:00:00 AM 4.24 39.632 0.52 8.81 6.65 12.68
12/24/2020 1:15:00 AM 4.24 39.632 0.52 8.81 6.82 12.65
12/24/2020 1:30:00 AM 4.23 39.614 0.521 8.81 6.76 12.64
12/24/2020 1:45:00 AM 4.23 39.614 0.522 8.8 6.55 12.63
12/24/2020 2:00:00 AM 4.23 39.614 0.522 8.79 6.63 12.6
12/24/2020 2:15:00 AM 4.23 39.614 0.523 8.8 6.76 12.59
12/24/2020 2:30:00 AM 4.23 39.614 0.523 8.8 6.54 12.59
12/24/2020 2:45:00 AM 4.23 39.614 0.523 8.79 6.63 12.56
12/24/2020 3:00:00 AM 4.23 39.614 0.524 8.78 6.87 12.55
12/24/2020 3:15:00 AM 4.23 39.614 0.524 8.78 6.6 12.54
12/24/2020 3:30:00 AM 4.23 39.614 0.525 8.77 6.72 12.52
12/24/2020 3:45:00 AM 4.23 39.614 0.525 8.78 6.75 12.51
12/24/2020 4:00:00 AM 4.22 39.596 0.526 8.78 7.13 12.5
12/24/2020 4:15:00 AM 4.22 39.596 0.527 8.78 6.49 12.49
12/24/2020 4:30:00 AM 4.22 39.596 0.528 8.78 6.84 12.48
12/24/2020 4:45:00 AM 4.23 39.614 0.529 8.77 6.83 12.47
12/24/2020 5:00:00 AM 4.23 39.614 0.531 8.77 6.67 12.47
12/24/2020 5:15:00 AM 4.24 39.632 0.533 8.77 6.8 12.45
12/24/2020 5:30:00 AM 4.24 39.632 0.535 8.78 6.75 12.44
12/24/2020 5:45:00 AM 4.25 39.65 0.538 8.79 6.98 12.43
12/24/2020 6:00:00 AM 4.26 39.668 0.541 8.79 6.92 12.42
12/24/2020 6:15:00 AM 4.27 39.686 0.543 8.89 7.08 12.42
12/24/2020 6:30:00 AM 4.28 39.704 0.546 8.9 6.9 12.4
12/24/2020 6:45:00 AM 4.3 39.74 0.548 8.97 6.85 12.39
12/24/2020 7:00:00 AM 4.31 39.758 0.55 9.07 6.8 12.38
12/24/2020 7:15:00 AM 4.33 39.794 0.553 9.08 6.76 12.37
12/24/2020 7:30:00 AM 4.34 39.812 0.555 9.07 6.86 12.36
12/24/2020 7:45:00 AM 4.36 39.848 0.557 9.06 6.77 12.35
12/24/2020 8:00:00 AM 4.38 39.884 0.56 9.04 6.56 12.35
12/24/2020 8:15:00 AM 4.4 39.92 0.563 9.03 6.75 12.36
12/24/2020 8:30:00 AM 4.42 39.956 0.565 9.02 6.68 12.35
12/24/2020 8:45:00 AM 4.44 39.992 0.568 9.02 6.75 12.34
12/24/2020 9:00:00 AM 4.47 40.046 0.571 9.02 6.68 12.33
12/24/2020 9:15:00 AM 4.5 40.1 0.574 9.02 6.61 12.33
12/24/2020 9:30:00 AM 4.53 40.154 0.576 9.02 6.47 12.32
12/24/2020 9:45:00 AM 4.56 40.208 0.579 9.03 6.35 12.33
12/24/2020 10:00:00 AM 4.59 40.262 0.582 9.04 6.26 12.33
12/24/2020 10:15:00 AM 4.62 40.316 0.584 9.04 6.09 12.35
12/24/2020 10:30:00 AM 4.66 40.388 0.586 9.03 6.25 12.37
12/24/2020 10:45:00 AM 4.7 40.46 0.588 9.05 6 12.36
12/24/2020 11:00:00 AM 4.74 40.532 0.589 9.06 6.01 12.36
12/24/2020 11:15:00 AM 4.77 40.586 0.59 9.06 6.04 12.31
12/24/2020 11:30:00 AM 4.82 40.676 0.591 9.06 5.85 12.31
12/24/2020 11:45:00 AM 4.86 40.748 0.592 9.07 5.82 12.28
12/24/2020 12:00:00 PM 4.9 40.82 0.592 9.08 5.64 12.27
12/24/2020 12:15:00 PM 4.93 40.874 0.593 9.09 5.97 12.26
12/24/2020 12:30:00 PM 4.97 40.946 0.592 9.09 5.7 12.25
12/24/2020 12:45:00 PM 4.99 40.982 0.591 9.1 5.7 12.24
12/24/2020 1:00:00 PM 5.02 41.036 0.591 9.11 5.75 12.22
12/24/2020 1:15:00 PM 5.04 41.072 0.591 9.12 5.55 12.2
12/24/2020 1:30:00 PM 5.07 41.126 0.59 9.13 5.43 12.2
12/24/2020 1:45:00 PM 5.09 41.162 0.589 9.12 9.88 12.19
12/24/2020 2:00:00 PM 5.13 41.234 0.587 9.14 5.33 12.19
12/24/2020 2:15:00 PM 5.16 41.288 0.585 9.14 5.42 12.18
12/24/2020 2:30:00 PM 5.21 41.378 0.582 9.15 5.52 12.18
12/24/2020 2:45:00 PM 5.26 41.468 0.58 9.14 5.32 12.19
12/24/2020 3:00:00 PM 5.32 41.576 0.577 9.16 5.15 12.2
12/24/2020 3:15:00 PM 5.38 41.684 0.574 9.17 5.42 12.19
12/24/2020 3:30:00 PM 5.45 41.81 0.571 9.19 5.31 12.2
12/24/2020 3:45:00 PM 5.53 41.954 0.567 9.21 5.2 12.21
12/24/2020 4:00:00 PM 5.61 42.098 0.563 9.21 5.18 12.2
12/24/2020 4:15:00 PM 5.69 42.242 0.559 9.22 4.95 12.2
12/24/2020 4:30:00 PM 5.77 42.386 0.556 9.23 5.14 12.2
12/24/2020 4:45:00 PM 5.86 42.548 0.552 9.25 5.11 12.19
12/24/2020 5:00:00 PM 5.94 42.692 0.547 9.27 5.29 12.17
12/24/2020 5:15:00 PM 6.04 42.872 0.543 9.29 5.62 12.13
12/24/2020 5:30:00 PM 6.16 43.088 0.54 9.31 6.46 12.07
12/24/2020 5:45:00 PM 6.29 43.322 0.534 9.31 7.73 12
12/24/2020 6:00:00 PM 6.4 43.52 0.523 9.38 9.9 11.95
12/24/2020 6:15:00 PM 6.47 43.646 0.506 9.4 11.99 11.92
12/24/2020 6:30:00 PM 6.56 43.808 0.489 9.41 13.76 11.89
12/24/2020 6:45:00 PM 6.57 43.826 0.479 9.85 20.06 11.88
12/24/2020 7:00:00 PM 6.59 43.862 0.469 9.74 30.76 11.83
12/24/2020 7:15:00 PM 6.62 43.916 0.453 9.68 40.23 11.8
12/24/2020 7:30:00 PM 6.64 43.952 0.443 9.66 52.05 11.78
12/24/2020 7:45:00 PM 6.64 43.952 0.433 9.64 71.19 11.77
12/24/2020 8:00:00 PM 6.65 43.97 0.419 9.62 114.38 11.76
12/24/2020 8:15:00 PM 6.66 43.988 0.404 9.62 198.51 11.74
12/24/2020 8:30:00 PM 6.59 43.862 0.39 9.63 222.97 11.75
12/24/2020 8:45:00 PM 6.45 43.61 0.382 9.62 277.74 11.74
12/24/2020 9:00:00 PM 6.31 43.358 0.378 9.58 330.55 11.75
12/24/2020 9:15:00 PM 6.18 43.124 0.372 9.53 371.46 11.75
12/24/2020 9:30:00 PM 6.07 42.926 0.351 9.49 380.24 11.73
12/24/2020 9:45:00 PM 5.97 42.746 0.324 9.44 404.3 11.77
12/24/2020 10:00:00 PM 5.94 42.692 0.305 9.41 407.05 11.77
12/24/2020 10:15:00 PM 5.94 42.692 0.293 9.41 388.78 11.78
12/24/2020 10:30:00 PM 5.95 42.71 0.282 9.39 387.35 11.8
12/24/2020 10:45:00 PM 5.98 42.764 0.272 9.38 378.63 11.77
12/24/2020 11:00:00 PM 6.02 42.836 0.261 9.35 355.34 11.72
12/24/2020 11:15:00 PM 6.06 42.908 0.252 9.35 381.93 11.73
12/24/2020 11:30:00 PM 6.09 42.962 0.246 9.35 353.45 11.7
12/24/2020 11:45:00 PM 6.12 43.016 0.245 9.35 327.99 11.68
12/25/2020 12:00:00 AM 6.12 43.016 0.244 9.36 329.15 11.68
12/25/2020 12:15:00 AM 6.14 43.052 0.238 9.36 307.63 11.68
12/25/2020 12:30:00 AM 6.17 43.106 0.243 9.34 284.62 11.66
12/25/2020 12:45:00 AM 6.33 43.394 0.24 9.34 328.9 11.64
12/25/2020 1:00:00 AM 6.4 43.52 0.24 9.33 269.09 11.59
12/25/2020 1:15:00 AM 6.54 43.772 0.238 9.33 303.7 11.57
12/25/2020 1:30:00 AM 6.73 44.114 0.23 9.34 298.04 11.47
12/25/2020 1:45:00 AM 6.97 44.546 0.225 9.36 287.79 11.38
12/25/2020 2:00:00 AM 7.16 44.888 0.218 9.39 3238.08 11.34
12/25/2020 2:15:00 AM 7.29 45.122 0.219 9.43 288.99 11.29
12/25/2020 2:30:00 AM 7.32 45.176 0.216 9.45 6008.76 11.25
12/25/2020 2:45:00 AM 7.35 45.23 0.21 9.44 4505.29 11.24
12/25/2020 3:00:00 AM 7.48 45.464 0.202 9.42 256.74 11.17
12/25/2020 3:15:00 AM 7.65 45.77 0.198 9.43 231.35 11.12
12/25/2020 3:30:00 AM 7.78 46.004 0.194 9.45 325.78 11.07
12/25/2020 3:45:00 AM 7.86 46.148 0.194 9.46 452.51 11.02
12/25/2020 4:00:00 AM 7.94 46.292 0.203 9.45 5611.44 11
12/25/2020 4:15:00 AM 7.99 46.382 0.2 9.47 323.97 10.96
12/25/2020 4:30:00 AM 8.01 46.418 0.197 9.47 698.66 10.95
12/25/2020 4:45:00 AM 8.01 46.418 0.195 9.47 1297.92 10.9
12/25/2020 5:00:00 AM 8.03 46.454 0.193 9.48 2572.02 10.89
12/25/2020 5:15:00 AM 8.04 46.472 0.192 9.48 3315.65 10.85
12/25/2020 5:30:00 AM 8.05 46.49 0.191 9.48 1192.01 10.89
12/25/2020 5:45:00 AM 8.05 46.49 0.19 9.49 278.97 10.9
12/25/2020 6:00:00 AM 8.03 46.454 0.187 9.48 373.56 10.87
12/25/2020 6:15:00 AM 8.01 46.418 0.186 9.48 293.67 10.86
12/25/2020 6:30:00 AM 7.99 46.382 0.186 9.47 268.48 10.89
12/25/2020 6:45:00 AM 7.96 46.328 0.198 9.47 323 10.94
12/25/2020 7:00:00 AM 7.93 46.274 0.198 9.47 201 10.95
12/25/2020 7:15:00 AM 7.9 46.22 0.195 9.45 223.46 10.95
12/25/2020 7:30:00 AM 7.87 46.166 0.192 9.47 223.12 10.98
12/25/2020 7:45:00 AM 7.84 46.112 0.19 9.46 232.68 10.96
12/25/2020 8:00:00 AM 7.8 46.04 0.188 9.45 231.97 10.96
12/25/2020 8:15:00 AM 7.77 45.986 0.187 9.46 259.71 10.96
12/25/2020 8:30:00 AM 7.73 45.914 0.186 9.43 217.24 10.94
12/25/2020 8:45:00 AM 7.69 45.842 0.185 9.43 230.62 10.92
12/25/2020 9:00:00 AM 7.64 45.752 0.184 9.43 188.28 10.91
12/25/2020 9:15:00 AM 7.6 45.68 0.183 9.41 201.07 10.91
12/25/2020 9:30:00 AM 7.57 45.626 0.184 9.4 204.6 10.9
12/25/2020 9:45:00 AM 7.53 45.554 0.183 9.38 186.03 10.95
12/25/2020 10:00:00 AM 7.49 45.482 0.182 9.39 161.71 10.97
12/25/2020 10:15:00 AM 7.45 45.41 0.181 9.38 249.45 10.96
12/25/2020 10:30:00 AM 7.41 45.338 0.182 9.36 196.85 10.98
12/25/2020 10:45:00 AM 7.38 45.284 0.18 9.37 257.22 10.99
12/25/2020 11:00:00 AM 7.35 45.23 0.18 9.36 171.49 10.99
12/25/2020 11:15:00 AM 7.33 45.194 0.18 9.37 160.88 11
12/25/2020 11:30:00 AM 7.3 45.14 0.179 9.36 186.02 11
12/25/2020 11:45:00 AM 7.28 45.104 0.179 9.35 201.41 10.99
12/25/2020 12:00:00 PM 7.26 45.068 0.179 9.35 152.2 10.99
12/25/2020 12:15:00 PM 7.24 45.032 0.179 9.35 142.67 10.99
12/25/2020 12:30:00 PM 7.21 44.978 0.169 9.34 181.21 11
12/25/2020 12:45:00 PM 7.18 44.924 0.179 9.33 149.14 11.03
12/25/2020 1:00:00 PM 7.15 44.87 0.177 9.32 148.43 11.03
12/25/2020 1:15:00 PM 7.11 44.798 0.177 9.32 147.32 11.04
12/25/2020 1:30:00 PM 7.07 44.726 0.176 9.32 162.5 11.08
12/25/2020 1:45:00 PM 7.03 44.654 0.175 9.32 141.65 11.14
12/25/2020 2:00:00 PM 6.98 44.564 0.181 9.31 186.41 11.14
12/25/2020 2:15:00 PM 6.93 44.474 0.181 9.3 149.83 11.16
12/25/2020 2:30:00 PM 6.89 44.402 0.181 9.3 136.29 11.2
12/25/2020 2:45:00 PM 6.85 44.33 0.182 9.29 142.26 11.2
12/25/2020 3:00:00 PM 6.8 44.24 0.183 9.3 129.27 11.22
12/25/2020 3:15:00 PM 6.75 44.15 0.184 9.28 152.19 11.28
12/25/2020 3:30:00 PM 6.69 44.042 0.185 9.27 159.75 11.33
12/25/2020 3:45:00 PM 6.63 43.934 0.186 9.27 134.92 11.35
12/25/2020 4:00:00 PM 6.57 43.826 0.186 9.25 133.86 11.36
12/25/2020 4:15:00 PM 6.5 43.7 0.187 9.24 120.3 11.4
12/25/2020 4:30:00 PM 6.44 43.592 0.188 9.25 117.18 11.44
12/25/2020 4:45:00 PM 6.38 43.484 0.191 9.24 122.54 11.46
12/25/2020 5:00:00 PM 6.31 43.358 0.192 9.23 102.9 11.53
12/25/2020 5:15:00 PM 6.25 43.25 0.192 9.23 124.33 11.52
12/25/2020 5:30:00 PM 6.19 43.142 0.194 9.23 107.42 11.56
12/25/2020 5:45:00 PM 6.13 43.034 0.196 9.22 115.58 11.6
12/25/2020 6:00:00 PM 6.08 42.944 0.198 9.22 112.49 11.61
12/25/2020 6:15:00 PM 6.03 42.854 0.2 9.21 108.15 11.64
12/25/2020 6:30:00 PM 5.97 42.746 0.202 9.21 109.6 11.67
12/25/2020 6:45:00 PM 5.92 42.656 0.204 9.19 118.46 11.69
12/25/2020 7:00:00 PM 5.88 42.584 0.207 9.2 111.75 11.7
12/25/2020 7:15:00 PM 5.84 42.512 0.211 9.19 115.1 11.72
12/25/2020 7:30:00 PM 5.81 42.458 0.215 9.19 113.12 11.73
12/25/2020 7:45:00 PM 5.78 42.404 0.219 9.19 114.06 11.74
12/25/2020 8:00:00 PM 5.75 42.35 0.226 9.16 102.16 11.77
12/25/2020 8:15:00 PM 5.72 42.296 0.231 9.17 124.74 11.77
12/25/2020 8:30:00 PM 5.69 42.242 0.235 9.18 349.77 11.76
12/25/2020 8:45:00 PM 5.66 42.188 0.24 9.18 79.78 11.78
12/25/2020 9:00:00 PM 5.64 42.152 0.244 9.16 79.23 11.79
12/25/2020 9:15:00 PM 5.61 42.098 0.249 9.17 85.99 11.83
12/25/2020 9:30:00 PM 5.59 42.062 0.254 9.16 88.54 11.86
12/25/2020 9:45:00 PM 5.56 42.008 0.259 9.17 81.73 11.89
12/25/2020 10:00:00 PM 5.54 41.972 0.264 9.17 74.96 11.93
12/25/2020 10:15:00 PM 5.51 41.918 0.267 9.18 83.33 11.94
12/25/2020 10:30:00 PM 5.48 41.864 0.269 9.18 101.15 11.97
12/25/2020 10:45:00 PM 5.45 41.81 0.271 9.18 94.41 12.01
12/25/2020 11:00:00 PM 5.41 41.738 0.273 9.18 98.68 12.04
12/25/2020 11:15:00 PM 5.38 41.684 0.275 9.17 92.34 12.06
12/25/2020 11:30:00 PM 5.34 41.612 0.277 9.17 88.47 12.07
12/25/2020 11:45:00 PM 5.3 41.54 0.279 9.18 83.71 12.1
12/26/2020 12:00:00 AM 5.26 41.468 0.281 9.17 86.52 12.13
12/26/2020 12:15:00 AM 5.22 41.396 0.281 9.17 124.36 12.13
12/26/2020 12:30:00 AM 5.17 41.306 0.282 9.17 63.06 12.15
12/26/2020 12:45:00 AM 5.13 41.234 0.283 9.17 90.03 12.16
12/26/2020 1:00:00 AM 5.08 41.144 0.285 9.17 122.89 12.19
12/26/2020 1:15:00 AM 5.04 41.072 0.287 9.16 284.67 12.21
12/26/2020 1:30:00 AM 5 41 0.289 9.16 312.3 12.23
12/26/2020 1:45:00 AM 4.96 40.928 0.29 9.17 312.11 12.24
12/26/2020 2:00:00 AM 4.91 40.838 0.291 9.15 338.22 12.27
12/26/2020 2:15:00 AM 4.87 40.766 0.291 9.16 328.91 12.29
12/26/2020 2:30:00 AM 4.82 40.676 0.291 9.14 258.14 12.31
12/26/2020 2:45:00 AM 4.77 40.586 0.293 9.15 82.21 12.34
12/26/2020 3:00:00 AM 4.73 40.514 0.294 9.14 88.86 12.34
12/26/2020 3:15:00 AM 4.69 40.442 0.296 9.13 88.74 12.37
12/26/2020 3:30:00 AM 4.64 40.352 0.296 9.14 87.78 12.39
12/26/2020 3:45:00 AM 4.6 40.28 0.297 9.13 92.26 12.41
12/26/2020 4:00:00 AM 4.57 40.226 0.298 9.12 89.11 12.42
12/26/2020 4:15:00 AM 4.53 40.154 0.299 9.13 89.03 12.44
12/26/2020 4:30:00 AM 4.49 40.082 0.301 9.11 86.64 12.46
12/26/2020 4:45:00 AM 4.46 40.028 0.303 9.12 87.88 12.48
12/26/2020 5:00:00 AM 4.43 39.974 0.304 9.11 84.09 12.48
12/26/2020 5:15:00 AM 4.41 39.938 0.304 9.1 105.82 12.5
12/26/2020 5:30:00 AM 4.37 39.866 0.305 9.1 94.42 12.51
12/26/2020 5:45:00 AM 4.34 39.812 0.306 9.11 92.47 12.52
12/26/2020 6:00:00 AM 4.31 39.758 0.307 9.1 85.28 12.54
12/26/2020 6:15:00 AM 4.28 39.704 0.308 9.09 91.86 12.55
12/26/2020 6:30:00 AM 4.25 39.65 0.309 9.09 221.77 12.56
12/26/2020 6:45:00 AM 4.22 39.596 0.309 9.09 235.46 12.58
12/26/2020 7:00:00 AM 4.19 39.542 0.309 9.09 98.19 12.6
12/26/2020 7:15:00 AM 4.16 39.488 0.31 9.08 119.26 12.61
12/26/2020 7:30:00 AM 4.13 39.434 0.311 9.08 84.67 12.62
12/26/2020 7:45:00 AM 4.11 39.398 0.313 9.08 77.83 12.63
12/26/2020 8:00:00 AM 4.08 39.344 0.313 9.08 87.22 12.65
12/26/2020 8:15:00 AM 4.06 39.308 0.314 9.07 89.84 12.64
12/26/2020 8:30:00 AM 4.03 39.254 0.314 9.08 88.78 12.67
12/26/2020 8:45:00 AM 4.02 39.236 0.315 9.08 90.1 12.67
12/26/2020 9:00:00 AM 4 39.2 0.315 9.07 89.66 12.68
12/26/2020 9:15:00 AM 3.99 39.182 0.317 9.06 88.34 12.7
12/26/2020 9:30:00 AM 3.99 39.182 0.318 9.07 84.77 12.7
12/26/2020 9:45:00 AM 3.98 39.164 0.317 9.07 86.9 12.72
12/26/2020 10:00:00 AM 3.97 39.146 0.319 9.07 86.91 12.72
12/26/2020 10:15:00 AM 3.98 39.164 0.319 9.06 86.95 12.73
12/26/2020 10:30:00 AM 3.98 39.164 0.32 9.03 87.61 12.74
12/26/2020 10:45:00 AM 4 39.2 0.322 9.05 87.74 12.73
12/26/2020 11:00:00 AM 4.02 39.236 0.323 9.06 87.62 12.73
12/26/2020 11:15:00 AM 4.04 39.272 0.322 9.05 88.1 12.74
12/26/2020 11:30:00 AM 4.06 39.308 0.323 9.06 87.94 12.74
12/26/2020 11:45:00 AM 4.08 39.344 0.323 9.06 88 12.74
12/26/2020 12:00:00 PM 4.11 39.398 0.324 9.07 87.1 12.74
12/26/2020 12:15:00 PM 4.14 39.452 0.325 9.07 87.49 12.74
12/26/2020 12:30:00 PM 4.18 39.524 0.324 9.08 88.33 12.73
12/26/2020 12:45:00 PM 4.2 39.56 0.324 9.07 81.67 12.73
12/26/2020 1:00:00 PM 4.23 39.614 0.325 9.07 71.49 12.73
12/26/2020 1:15:00 PM 4.25 39.65 0.326 9.09 75.14 12.73
12/26/2020 1:30:00 PM 4.27 39.686 0.326 9.07 79.35 12.71
12/26/2020 1:45:00 PM 4.29 39.722 0.328 9.09 73.2 12.72
12/26/2020 2:00:00 PM 4.31 39.758 0.329 9.1 72.46 12.71
12/26/2020 2:15:00 PM 4.33 39.794 0.33 9.1 72.04 12.71
12/26/2020 2:30:00 PM 4.34 39.812 0.33 9.12 78.66 12.7
12/26/2020 2:45:00 PM 4.36 39.848 0.33 9.12 76.63 12.69
12/26/2020 3:00:00 PM 4.37 39.866 0.331 9.12 86.1 12.69
12/26/2020 3:15:00 PM 4.38 39.884 0.331 9.12 80.49 12.69
12/26/2020 3:30:00 PM 4.39 39.902 0.332 9.13 74.35 12.68
12/26/2020 3:45:00 PM 4.39 39.902 0.331 9.12 73.66 12.68
12/26/2020 4:00:00 PM 4.4 39.92 0.331 9.13 80.96 12.67
12/26/2020 4:15:00 PM 4.4 39.92 0.332 9.14 74.65 12.67
12/26/2020 4:30:00 PM 4.41 39.938 0.332 9.13 74.17 12.67
12/26/2020 4:45:00 PM 4.42 39.956 0.333 9.14 86.89 12.66
12/26/2020 5:00:00 PM 4.43 39.974 0.335 9.12 90.19 12.66
12/26/2020 5:15:00 PM 4.44 39.992 0.335 9.14 91.69 12.65
12/26/2020 5:30:00 PM 4.44 39.992 0.335 9.15 76.64 12.64
12/26/2020 5:45:00 PM 4.44 39.992 0.336 9.14 84.44 12.63
12/26/2020 6:00:00 PM 4.44 39.992 0.337 9.14 83.5 12.63
12/26/2020 6:15:00 PM 4.45 40.01 0.338 9.14 88.76 12.62
12/26/2020 6:30:00 PM 4.45 40.01 0.337 9.14 75.54 12.63
12/26/2020 6:45:00 PM 4.45 40.01 0.338 9.14 91.33 12.62
12/26/2020 7:00:00 PM 4.44 39.992 0.338 9.15 94.78 12.61
12/26/2020 7:15:00 PM 4.43 39.974 0.338 9.16 100.59 12.61
12/26/2020 7:30:00 PM 4.43 39.974 0.339 9.16 173.49 12.61
12/26/2020 7:45:00 PM 4.43 39.974 0.34 9.15 89.54 12.6
12/26/2020 8:00:00 PM 4.43 39.974 0.341 9.16 90.21 12.6
12/26/2020 8:15:00 PM 4.42 39.956 0.341 9.16 267.55 12.6
12/26/2020 8:30:00 PM 4.41 39.938 0.341 9.16 77.99 12.6
12/26/2020 8:45:00 PM 4.41 39.938 0.341 9.16 66.22 12.61
12/26/2020 9:00:00 PM 4.41 39.938 0.342 9.16 64.55 12.61
12/26/2020 9:15:00 PM 4.39 39.902 0.342 9.17 72.1 12.6
12/26/2020 9:30:00 PM 4.38 39.884 0.342 9.17 61.77 12.61
12/26/2020 9:45:00 PM 4.38 39.884 0.342 9.15 56.38 12.6
12/26/2020 10:00:00 PM 4.36 39.848 0.342 9.16 64.21 12.6
12/26/2020 10:15:00 PM 4.35 39.83 0.342 9.17 65.85 12.61
12/26/2020 10:30:00 PM 4.34 39.812 0.343 9.17 59.98 12.62
12/26/2020 10:45:00 PM 4.33 39.794 0.344 9.16 60.95 12.62
12/26/2020 11:00:00 PM 4.33 39.794 0.344 9.16 61.08 12.61
12/26/2020 11:15:00 PM 4.32 39.776 0.345 9.16 67.15 12.62
12/26/2020 11:30:00 PM 4.31 39.758 0.345 9.16 58.44 12.63
12/26/2020 11:45:00 PM 4.3 39.74 0.346 9.15 61.82 12.62
12/27/2020 12:00:00 AM 4.28 39.704 0.346 9.17 81.65 12.63
12/27/2020 12:15:00 AM 4.28 39.704 0.347 9.15 62.28 12.63
12/27/2020 12:30:00 AM 4.26 39.668 0.347 9.16 66.94 12.64
12/27/2020 12:45:00 AM 4.25 39.65 0.346 9.16 69.78 12.64
12/27/2020 1:00:00 AM 4.23 39.614 0.347 9.16 60.26 12.65
12/27/2020 1:15:00 AM 4.22 39.596 0.347 9.15 68.52 12.66
12/27/2020 1:30:00 AM 4.2 39.56 0.348 9.17 70.5 12.66
12/27/2020 1:45:00 AM 4.19 39.542 0.348 9.17 72.03 12.67
12/27/2020 2:00:00 AM 4.18 39.524 0.349 9.15 77.92 12.67
12/27/2020 2:15:00 AM 4.15 39.47 0.349 9.18 64.71 12.68
12/27/2020 2:30:00 AM 4.13 39.434 0.349 9.17 72.2 12.69
12/27/2020 2:45:00 AM 4.11 39.398 0.349 9.19 64.55 12.7
12/27/2020 3:00:00 AM 4.09 39.362 0.349 9.17 74.59 12.71
12/27/2020 3:15:00 AM 4.07 39.326 0.349 9.17 63.15 12.72
12/27/2020 3:30:00 AM 4.04 39.272 0.349 9.16 71.39 12.72
12/27/2020 3:45:00 AM 4.03 39.254 0.349 9.17 65.63 12.73
12/27/2020 4:00:00 AM 4 39.2 0.348 9.16 66.97 12.75
12/27/2020 4:15:00 AM 3.98 39.164 0.349 9.16 66.2 12.75
12/27/2020 4:30:00 AM 3.96 39.128 0.349 9.16 66.52 12.76
12/27/2020 4:45:00 AM 3.95 39.11 0.35 9.15 66.48 12.77
12/27/2020 5:00:00 AM 3.92 39.056 0.349 9.15 75.15 12.77
12/27/2020 5:15:00 AM 3.91 39.038 0.351 9.15 69.27 12.78
12/27/2020 5:30:00 AM 3.9 39.02 0.351 9.16 67.15 12.78
12/27/2020 5:45:00 AM 3.88 38.984 0.352 9.17 69.37 12.79
12/27/2020 6:00:00 AM 3.86 38.948 0.352 9.16 67.84 12.79
12/27/2020 6:15:00 AM 3.84 38.912 0.352 9.16 66.73 12.81
12/27/2020 6:30:00 AM 3.82 38.876 0.352 9.16 66.58 12.81
12/27/2020 6:45:00 AM 3.8 38.84 0.352 9.17 70.19 12.82
12/27/2020 7:00:00 AM 3.79 38.822 0.352 9.17 67.21 12.82
12/27/2020 7:15:00 AM 3.76 38.768 0.353 9.17 67.36 12.84
12/27/2020 7:30:00 AM 3.75 38.75 0.353 9.15 66.64 12.84
12/27/2020 7:45:00 AM 3.74 38.732 0.354 9.15 73.6 12.85
12/27/2020 8:00:00 AM 3.72 38.696 0.354 9.16 66.97 12.86
12/27/2020 8:15:00 AM 3.71 38.678 0.354 9.16 66.86 12.87
12/27/2020 8:30:00 AM 3.71 38.678 0.354 9.16 67.11 12.87
12/27/2020 8:45:00 AM 3.7 38.66 0.355 9.15 70.45 12.89
12/27/2020 9:00:00 AM 3.71 38.678 0.355 9.14 68.84 12.89
12/27/2020 9:15:00 AM 3.71 38.678 0.355 9.14 67.95 12.9
12/27/2020 9:30:00 AM 3.73 38.714 0.355 9.14 66.76 12.9
12/27/2020 9:45:00 AM 3.74 38.732 0.355 9.14 65.41 12.9
12/27/2020 10:00:00 AM 3.76 38.768 0.355 9.13 68.93 12.91
12/27/2020 10:15:00 AM 3.77 38.786 0.356 9.13 66.38 12.92
12/27/2020 10:30:00 AM 3.79 38.822 0.356 9.14 67.47 12.92
12/27/2020 10:45:00 AM 3.84 38.912 0.357 9.14 67.75 12.91
12/27/2020 11:00:00 AM 3.88 38.984 0.358 9.14 68.9 12.91
12/27/2020 11:15:00 AM 3.92 39.056 0.358 9.16 68.2 12.91
12/27/2020 11:30:00 AM 3.96 39.128 0.358 9.16 68.05 12.91
12/27/2020 11:45:00 AM 4.01 39.218 0.358 9.17 68.98 12.9
12/27/2020 12:00:00 PM 4.07 39.326 0.358 9.16 68.87 12.9
12/27/2020 12:15:00 PM 4.13 39.434 0.358 9.16 68.7 12.88
12/27/2020 12:30:00 PM 4.19 39.542 0.358 9.18 68.83 12.87
12/27/2020 12:45:00 PM 4.25 39.65 0.358 9.19 68.47 12.86
12/27/2020 1:00:00 PM 4.31 39.758 0.358 9.2 68.52 12.85
12/27/2020 1:15:00 PM 4.36 39.848 0.358 9.2 68.3 12.83
12/27/2020 1:30:00 PM 4.43 39.974 0.358 9.21 68.77 12.82
12/27/2020 1:45:00 PM 4.48 40.064 0.358 9.22 68.03 12.81
12/27/2020 2:00:00 PM 4.54 40.172 0.358 9.23 68.64 12.8
12/27/2020 2:15:00 PM 4.58 40.244 0.358 9.23 68.52 12.79
12/27/2020 2:30:00 PM 4.64 40.352 0.359 9.24 68.09 12.78
12/27/2020 2:45:00 PM 4.68 40.424 0.359 9.25 69.43 12.76
12/27/2020 3:00:00 PM 4.72 40.496 0.359 9.25 71.24 12.75
12/27/2020 3:15:00 PM 4.76 40.568 0.359 9.25 68.73 12.73
12/27/2020 3:30:00 PM 4.79 40.622 0.36 9.28 69.41 12.73
12/27/2020 3:45:00 PM 4.82 40.676 0.36 9.27 69.22 12.71
12/27/2020 4:00:00 PM 4.85 40.73 0.36 9.27 69.03 12.7
12/27/2020 4:15:00 PM 4.86 40.748 0.361 9.27 68.46 12.68
12/27/2020 4:30:00 PM 4.88 40.784 0.361 9.29 68.16 12.67
12/27/2020 4:45:00 PM 4.89 40.802 0.361 9.29 70.67 12.66
12/27/2020 5:00:00 PM 4.91 40.838 0.361 9.3 69.45 12.65
12/27/2020 5:15:00 PM 4.92 40.856 0.361 9.3 69.16 12.63
12/27/2020 5:30:00 PM 4.93 40.874 0.361 9.31 72.19 12.63
12/27/2020 5:45:00 PM 4.93 40.874 0.361 9.31 69.34 12.62
12/27/2020 6:00:00 PM 4.94 40.892 0.361 9.3 68.76 12.61
12/27/2020 6:15:00 PM 4.94 40.892 0.361 9.31 70.33 12.6
12/27/2020 6:30:00 PM 4.94 40.892 0.361 9.31 70.09 12.59
12/27/2020 6:45:00 PM 4.94 40.892 0.361 9.3 70.69 12.58
12/27/2020 7:00:00 PM 4.94 40.892 0.363 9.31 70.47 12.57
12/27/2020 7:15:00 PM 4.94 40.892 0.363 9.33 70.83 12.56
12/27/2020 7:30:00 PM 4.94 40.892 0.364 9.33 71.69 12.55
12/27/2020 7:45:00 PM 4.94 40.892 0.364 9.33 71.77 12.54
12/27/2020 8:00:00 PM 4.94 40.892 0.365 9.33 72.19 12.54
12/27/2020 8:15:00 PM 4.94 40.892 0.365 9.33 73.21 12.53
12/27/2020 8:30:00 PM 4.94 40.892 0.365 9.34 71.58 12.52
12/27/2020 8:45:00 PM 4.94 40.892 0.366 9.34 72.82 12.52
12/27/2020 9:00:00 PM 4.94 40.892 0.366 9.34 72.12 12.51
12/27/2020 9:15:00 PM 4.93 40.874 0.365 9.34 73.61 12.51
12/27/2020 9:30:00 PM 4.92 40.856 0.365 9.34 74.27 12.51
12/27/2020 9:45:00 PM 4.93 40.874 0.365 9.35 75.08 12.5
12/27/2020 10:00:00 PM 4.93 40.874 0.366 9.35 73.39 12.5
12/27/2020 10:15:00 PM 4.93 40.874 0.366 9.36 72.92 12.49
12/27/2020 10:30:00 PM 4.93 40.874 0.366 9.35 119.64 12.49
12/27/2020 10:45:00 PM 4.94 40.892 0.366 9.36 91.55 12.48
12/27/2020 11:00:00 PM 4.93 40.874 0.366 9.35 76.35 12.48
12/27/2020 11:15:00 PM 4.93 40.874 0.366 9.36 98.06 12.48
12/27/2020 11:30:00 PM 4.94 40.892 0.366 9.36 126.54 12.47
12/27/2020 11:45:00 PM 4.95 40.91 0.367 9.36 83.78 12.46
12/28/2020 12:00:00 AM 4.94 40.892 0.367 9.37 101.42 12.46
12/28/2020 12:15:00 AM 4.95 40.91 0.367 9.37 162.04 12.46
12/28/2020 12:30:00 AM 4.95 40.91 0.368 9.35 134.32 12.45
12/28/2020 12:45:00 AM 4.96 40.928 0.367 9.36 11321.1 12.44
12/28/2020 1:00:00 AM 4.97 40.946 0.368 9.38 264.08 12.43
12/28/2020 1:15:00 AM 4.98 40.964 0.368 9.38 281.93 12.42
12/28/2020 1:30:00 AM 4.99 40.982 0.369 9.38 1928.51 12.36
12/28/2020 1:45:00 AM 4.99 40.982 0.37 9.39 3310.97 12.32
12/28/2020 2:00:00 AM 4.99 40.982 0.372 9.39 503.05 12.38
12/28/2020 2:15:00 AM 4.99 40.982 0.372 9.4 7257.97 12.4
12/28/2020 2:30:00 AM 4.98 40.964 0.371 9.4 198.16 12.39
12/28/2020 2:45:00 AM 4.98 40.964 0.371 9.4 68.83 12.36
12/28/2020 3:00:00 AM 4.97 40.946 0.384 9.41 58.47 12.39
12/28/2020 3:15:00 AM 4.97 40.946 0.384 9.41 2530.25 12.4
12/28/2020 3:30:00 AM 4.96 40.928 0.384 9.41 2039.27 12.4
12/28/2020 3:45:00 AM 4.95 40.91 0.384 9.4 1576.46 12.4
12/28/2020 4:00:00 AM 4.95 40.91 0.385 9.41 1778.99 12.4
12/28/2020 4:15:00 AM 4.94 40.892 0.385 9.41 1066.18 12.38
12/28/2020 4:30:00 AM 4.94 40.892 0.386 9.41 59.09 12.39
12/28/2020 4:45:00 AM 4.93 40.874 0.386 9.42 58.8 12.15
12/28/2020 5:00:00 AM 4.92 40.856 0.385 9.41 155.19 12.11
12/28/2020 5:15:00 AM 4.92 40.856 0.385 9.42 170.76 12.15
12/28/2020 5:30:00 AM 4.91 40.838 0.385 9.42 179.05 12.17
12/28/2020 5:45:00 AM 4.91 40.838 0.385 9.43 184.11 12.16
12/28/2020 6:00:00 AM 4.9 40.82 0.385 9.43 197.89 12.19
12/28/2020 6:15:00 AM 4.91 40.838 0.385 9.43 201.78 12.15
12/28/2020 6:30:00 AM 4.9 40.82 0.385 9.44 172.08 12.17
12/28/2020 6:45:00 AM 4.9 40.82 0.386 9.42 265.86 12.19
12/28/2020 7:00:00 AM 4.91 40.838 0.386 9.42 50.04 12.28
12/28/2020 7:15:00 AM 4.92 40.856 0.386 9.43 46.39 12.06
12/28/2020 7:30:00 AM 4.92 40.856 0.386 9.41 56.37 12.06
12/28/2020 7:45:00 AM 4.93 40.874 0.386 9.44 4575.98 12.28
12/28/2020 8:00:00 AM 4.93 40.874 0.387 9.43 261.34 12.38
12/28/2020 8:15:00 AM 4.94 40.892 0.387 9.44 15194.25 12.4